Provisional Data: Little Chiques Creek near Mount Joy, PA


Please select a monitoring station.
Please select start date.
Please select start date.

Toggle Unit: C/F Toggle Unit: C/F
Sample Time Temperature (C) Temperature (F) Specific Conductivity (mS/cm) pH   Turbidity (NTU+) DO (mg/L)
12/23/2022 12:00:00 AM 4.96 40.928 0.247 7.78 61.3 12.39
12/23/2022 12:15:00 AM 4.96 40.928 0.242 7.77 62.07 12.37
12/23/2022 12:30:00 AM 4.95 40.91 0.238 7.77 60.04 12.34
12/23/2022 12:45:00 AM 4.96 40.928 0.234 7.76 84.23 12.3
12/23/2022 1:00:00 AM 4.97 40.946 0.23 7.76 95.69 12.27
12/23/2022 1:15:00 AM 4.98 40.964 0.226 7.76 113.8 12.25
12/23/2022 1:30:00 AM 5 41 0.224 7.74 109.06 12.22
12/23/2022 1:45:00 AM 5.01 41.018 0.221 7.74 130.62 12.2
12/23/2022 2:00:00 AM 5.03 41.054 0.219 7.74 155.69 12.17
12/23/2022 2:15:00 AM 5.05 41.09 0.216 7.73 174.46 12.16
12/23/2022 2:30:00 AM 5.1 41.18 0.213 7.72 164.27 12.15
12/23/2022 2:45:00 AM 5.13 41.234 0.208 7.71 207.3 12.12
12/23/2022 3:00:00 AM 5.16 41.288 0.202 7.71 173.28 12.11
12/23/2022 3:15:00 AM 5.18 41.324 0.196 7.68 217.63 12.09
12/23/2022 3:30:00 AM 5.19 41.342 0.19 7.67 216.89 12.06
12/23/2022 3:45:00 AM 5.18 41.324 0.185 7.66 249.57 12.05
12/23/2022 4:00:00 AM 5.19 41.342 0.18 7.65 231.36 12.04
12/23/2022 4:15:00 AM 5.19 41.342 0.176 7.65 262.71 12.03
12/23/2022 4:30:00 AM 5.21 41.378 0.176 7.64 312.66 12.01
12/23/2022 4:45:00 AM 5.22 41.396 0.174 7.64 315.96 11.99
12/23/2022 5:00:00 AM 5.24 41.432 0.173 7.62 283.49 11.97
12/23/2022 5:15:00 AM 5.26 41.468 0.171 7.61 268.96 11.95
12/23/2022 5:30:00 AM 5.28 41.504 0.17 7.61 238.12 11.93
12/23/2022 5:45:00 AM 5.31 41.558 0.171 7.6 236.87 11.9
12/23/2022 6:00:00 AM 5.35 41.63 0.169 7.59 289.13 11.88
12/23/2022 6:15:00 AM 5.39 41.702 0.168 7.59 225.58 11.85
12/23/2022 6:30:00 AM 5.43 41.774 0.166 7.59 218.98 11.83
12/23/2022 6:45:00 AM 5.48 41.864 0.166 7.57 215.84 11.8
12/23/2022 7:00:00 AM 5.52 41.936 0.166 7.58 199.29 11.78
12/23/2022 7:15:00 AM 5.56 42.008 0.165 7.58 179.64 11.76
12/23/2022 7:30:00 AM 5.59 42.062 0.165 7.58 175.68 11.74
12/23/2022 7:45:00 AM 5.63 42.134 0.167 7.58 157.27 11.73
12/23/2022 8:00:00 AM 5.67 42.206 0.168 7.58 161.14 11.71
12/23/2022 8:15:00 AM 5.7 42.26 0.168 7.58 172.58 11.69
12/23/2022 8:30:00 AM 5.74 42.332 0.169 7.58 167.2 11.67
12/23/2022 8:45:00 AM 5.77 42.386 0.17 7.58 137.65 11.65
12/23/2022 9:00:00 AM 5.81 42.458 0.17 7.58 136.99 11.63
12/23/2022 9:15:00 AM 5.84 42.512 0.172 7.58 142.88 11.61
12/23/2022 9:30:00 AM 5.87 42.566 0.173 7.58 138.84 11.59
12/23/2022 9:45:00 AM 5.89 42.602 0.174 7.59 133.06 11.57
12/23/2022 10:00:00 AM 5.91 42.638 0.175 7.59 122.08 11.55
12/23/2022 10:15:00 AM 5.92 42.656 0.177 7.59 111.84 11.55
12/23/2022 10:30:00 AM 5.92 42.656 0.178 7.59 113.63 11.55
12/23/2022 10:45:00 AM 5.92 42.656 0.179 7.59 102.5 11.54
12/23/2022 11:00:00 AM 5.9 42.62 0.181 7.59 81.78 11.55
12/23/2022 11:15:00 AM 5.88 42.584 0.182 7.6 86.04 11.55
12/23/2022 11:30:00 AM 5.86 42.548 0.183 7.6 84.51 11.56
12/23/2022 11:45:00 AM 5.86 42.548 0.185 7.6 86.03 11.56
12/23/2022 12:00:00 PM 5.85 42.53 0.186 7.6 87.9 11.57
12/23/2022 12:15:00 PM 5.82 42.476 0.187 7.61 77.09 11.58
12/23/2022 12:30:00 PM 5.78 42.404 0.188 7.61 72.4 11.6
12/23/2022 12:45:00 PM 5.76 42.368 0.187 7.62 87.41 11.62
12/23/2022 1:00:00 PM 5.7 42.26 0.188 7.62 67.73 11.64
12/23/2022 1:15:00 PM 5.65 42.17 0.188 7.63 76.75 11.66
12/23/2022 1:30:00 PM 5.61 42.098 0.188 7.63 73.55 11.69
12/23/2022 1:45:00 PM 5.56 42.008 0.19 7.63 78.54 11.71
12/23/2022 2:00:00 PM 5.5 41.9 0.19 7.63 86.15 11.74
12/23/2022 2:15:00 PM 5.44 41.792 0.189 7.63 68.02 11.77
12/23/2022 2:30:00 PM 5.38 41.684 0.189 7.63 63.01 11.79
12/23/2022 2:45:00 PM 5.3 41.54 0.189 7.63 63.77 11.82
12/23/2022 3:00:00 PM 5.24 41.432 0.189 7.63 59.61 11.85
12/23/2022 3:15:00 PM 5.17 41.306 0.189 7.64 79.89 11.87
12/23/2022 3:30:00 PM 5.09 41.162 0.188 7.64 74.21 11.9
12/23/2022 3:45:00 PM 4.99 40.982 0.188 7.64 56.04 11.92
12/23/2022 4:00:00 PM 4.89 40.802 0.188 7.64 58.68 11.95
12/23/2022 4:15:00 PM 4.79 40.622 0.188 7.64 60.83 11.98
12/23/2022 4:30:00 PM 4.68 40.424 0.188 7.64 60.75 12.01
12/23/2022 4:45:00 PM 4.57 40.226 0.188 7.64 57.6 12.05
12/23/2022 5:00:00 PM 4.46 40.028 0.189 7.64 69.66 12.07
12/23/2022 5:15:00 PM 4.33 39.794 0.19 7.64 65.49 12.11
12/23/2022 5:30:00 PM 4.19 39.542 0.19 7.64 56.44 12.13
12/23/2022 5:45:00 PM 4.06 39.308 0.191 7.64 55.35 12.17
12/23/2022 6:00:00 PM 3.96 39.128 0.192 7.64 60.19 12.21
12/23/2022 6:15:00 PM 3.86 38.948 0.194 7.64 51.69 12.24
12/23/2022 6:30:00 PM 3.76 38.768 0.195 7.64 50.67 12.28
12/23/2022 6:45:00 PM 3.64 38.552 0.196 7.64 50.84 12.32
12/23/2022 7:00:00 PM 3.52 38.336 0.197 7.64 56.47 12.36
12/23/2022 7:15:00 PM 3.44 38.192 0.198 7.64 48.81 12.4
12/23/2022 7:30:00 PM 3.34 38.012 0.199 7.64 50.24 12.43
12/23/2022 7:45:00 PM 3.23 37.814 0.2 7.64 41.4 12.48
12/23/2022 8:00:00 PM 3.13 37.634 0.201 7.64 43.93 12.52
12/23/2022 8:15:00 PM 3.02 37.436 0.202 7.65 45.02 12.56
12/23/2022 8:30:00 PM 2.91 37.238 0.203 7.64 51.6 12.6
12/23/2022 8:45:00 PM 2.8 37.04 0.204 7.65 39.68 12.65
12/23/2022 9:00:00 PM 2.71 36.878 0.206 7.65 43.89 12.69
12/23/2022 9:15:00 PM 2.62 36.716 0.208 7.64 37.55 12.74
12/23/2022 9:30:00 PM 2.52 36.536 0.209 7.64 35.44 12.78
12/23/2022 9:45:00 PM 2.41 36.338 0.209 7.65 52.75 12.82
12/23/2022 10:00:00 PM 2.32 36.176 0.211 7.65 34.15 12.86
12/23/2022 10:15:00 PM 2.24 36.032 0.212 7.65 30.14 12.9
12/23/2022 10:30:00 PM 2.13 35.834 0.213 7.65 38.22 12.93
12/23/2022 10:45:00 PM 2.04 35.672 0.214 7.65 32.33 12.98
12/23/2022 11:00:00 PM 1.96 35.528 0.214 7.65 35.53 13.02
12/23/2022 11:15:00 PM 1.88 35.384 0.216 7.65 31.14 13.06
12/23/2022 11:30:00 PM 1.79 35.222 0.216 7.65 30.16 13.1
12/23/2022 11:45:00 PM 1.71 35.078 0.218 7.65 29.62 13.12
12/24/2022 12:00:00 AM 1.63 34.934 0.221 7.65 22.66 13.16
12/24/2022 12:15:00 AM 1.57 34.826 0.221 7.65 27.33 13.19
12/24/2022 12:30:00 AM 1.49 34.682 0.223 7.65 26.02 13.23
12/24/2022 12:45:00 AM 1.41 34.538 0.223 7.65 27.52 13.26
12/24/2022 1:00:00 AM 1.34 34.412 0.225 7.65 33.1 13.29
12/24/2022 1:15:00 AM 1.28 34.304 0.226 7.65 25.63 13.33
12/24/2022 1:30:00 AM 1.22 34.196 0.227 7.66 23.85 13.36
12/24/2022 1:45:00 AM 1.15 34.07 0.228 7.65 22.31 13.39
12/24/2022 2:00:00 AM 1.09 33.962 0.229 7.66 26.53 13.42
12/24/2022 2:15:00 AM 1.03 33.854 0.23 7.66 21.84 13.44
12/24/2022 2:30:00 AM 0.97 33.746 0.231 7.66 18.57 13.47
12/24/2022 2:45:00 AM 0.91 33.638 0.233 7.66 19.65 13.49
12/24/2022 3:00:00 AM 0.85 33.53 0.234 7.66 20.38 13.51
12/24/2022 3:15:00 AM 0.83 33.494 0.236 7.66 18.32 13.53
12/24/2022 3:30:00 AM 0.8 33.44 0.237 7.66 16.1 13.55
12/24/2022 3:45:00 AM 0.78 33.404 0.239 7.66 14.49 13.56
12/24/2022 4:00:00 AM 0.75 33.35 0.24 7.66 15.36 13.57
12/24/2022 4:15:00 AM 0.72 33.296 0.241 7.66 16.71 13.59
12/24/2022 4:30:00 AM 0.69 33.242 0.243 7.66 17.11 13.6
12/24/2022 4:45:00 AM 0.69 33.242 0.244 7.66 15.54 13.6
12/24/2022 5:00:00 AM 0.69 33.242 0.245 7.67 16.57 13.61
12/24/2022 5:15:00 AM 0.69 33.242 0.246 7.67 15.47 13.61
12/24/2022 5:30:00 AM 0.69 33.242 0.247 7.67 15.06 13.62
12/24/2022 5:45:00 AM 0.7 33.26 0.247 7.67 14.3 13.62
12/24/2022 6:00:00 AM 0.7 33.26 0.249 7.67 13.65 13.62
12/24/2022 6:15:00 AM 0.69 33.242 0.249 7.67 13.52 13.63
12/24/2022 6:30:00 AM 0.7 33.26 0.25 7.67 11.87 13.64
12/24/2022 6:45:00 AM 0.7 33.26 0.251 7.67 12.96 13.64
12/24/2022 7:00:00 AM 0.71 33.278 0.251 7.67 13.22 13.65
12/24/2022 7:15:00 AM 0.72 33.296 0.252 7.68 11.97 13.65
12/24/2022 7:30:00 AM 0.72 33.296 0.252 7.67 11.62 13.66
12/24/2022 7:45:00 AM 0.73 33.314 0.253 7.68 11.53 13.66
12/24/2022 8:00:00 AM 0.73 33.314 0.253 7.67 11.29 13.67
12/24/2022 8:15:00 AM 0.73 33.314 0.254 7.68 11.35 13.68
12/24/2022 8:30:00 AM 0.73 33.314 0.254 7.68 10.29 13.7
12/24/2022 8:45:00 AM 0.75 33.35 0.255 7.68 10.02 13.71
12/24/2022 9:00:00 AM 0.76 33.368 0.255 7.68 10.38 13.72
12/24/2022 9:15:00 AM 0.79 33.422 0.256 7.68 10.35 13.73
12/24/2022 9:30:00 AM 0.82 33.476 0.256 7.68 9.78 13.74
12/24/2022 9:45:00 AM 0.86 33.548 0.256 7.68 9.63 13.76
12/24/2022 10:00:00 AM 0.91 33.638 0.257 7.69 9.3 13.77
12/24/2022 10:15:00 AM 0.95 33.71 0.257 7.69 9.49 13.78
12/24/2022 10:30:00 AM 1 33.8 0.257 7.69 8.76 13.79
12/24/2022 10:45:00 AM 1.04 33.872 0.257 7.69 8.64 13.8
12/24/2022 11:00:00 AM 1.09 33.962 0.258 7.7 8.86 13.8
12/24/2022 11:15:00 AM 1.11 33.998 0.258 7.7 8.19 13.81
12/24/2022 11:30:00 AM 1.12 34.016 0.258 7.7 8.4 13.82
12/24/2022 11:45:00 AM 1.13 34.034 0.258 7.7 8.46 13.83
12/24/2022 12:00:00 PM 1.14 34.052 0.257 7.7 8.48 13.83
12/24/2022 12:15:00 PM 1.21 34.178 0.257 7.7 8.33 13.84
12/24/2022 12:30:00 PM 1.25 34.25 0.257 7.7 7.86 13.85
12/24/2022 12:45:00 PM 1.29 34.322 0.256 7.71 8.07 13.86
12/24/2022 1:00:00 PM 1.3 34.34 0.256 7.71 8.18 13.87
12/24/2022 1:15:00 PM 1.3 34.34 0.255 7.71 8.34 13.87
12/24/2022 1:30:00 PM 1.29 34.322 0.255 7.71 8.62 13.88
12/24/2022 1:45:00 PM 1.29 34.322 0.254 7.71 8.56 13.88
12/24/2022 2:00:00 PM 1.31 34.358 0.253 7.71 8.46 13.88
12/24/2022 2:15:00 PM 1.29 34.322 0.253 7.71 9.21 13.89
12/24/2022 2:30:00 PM 1.29 34.322 0.252 7.71 8.88 13.89
12/24/2022 2:45:00 PM 1.29 34.322 0.252 7.71 9.39 13.89
12/24/2022 3:00:00 PM 1.29 34.322 0.251 7.71 9.58 13.88
12/24/2022 3:15:00 PM 1.28 34.304 0.251 7.71 9.25 13.88
12/24/2022 3:30:00 PM 1.26 34.268 0.251 7.71 9.71 13.87
12/24/2022 3:45:00 PM 1.23 34.214 0.25 7.71 9.94 13.86
12/24/2022 4:00:00 PM 1.2 34.16 0.25 7.71 9.32 13.86
12/24/2022 4:15:00 PM 1.17 34.106 0.25 7.71 10.1 13.86
12/24/2022 4:30:00 PM 1.15 34.07 0.251 7.71 9.83 13.85
12/24/2022 4:45:00 PM 1.11 33.998 0.25 7.71 9.63 13.84
12/24/2022 5:00:00 PM 1.09 33.962 0.25 7.71 9.53 13.84
12/24/2022 5:15:00 PM 1.06 33.908 0.25 7.71 10 13.83
12/24/2022 5:30:00 PM 1.04 33.872 0.251 7.71 10.1 13.82
12/24/2022 5:45:00 PM 1.03 33.854 0.251 7.71 10.08 13.82
12/24/2022 6:00:00 PM 1.01 33.818 0.251 7.7 10.31 13.81
12/24/2022 6:15:00 PM 1 33.8 0.251 7.71 9.71 13.8
12/24/2022 6:30:00 PM 0.99 33.782 0.251 7.7 10.18 13.8
12/24/2022 6:45:00 PM 0.98 33.764 0.252 7.7 9.47 13.79
12/24/2022 7:00:00 PM 0.97 33.746 0.252 7.71 8.98 13.78
12/24/2022 7:15:00 PM 0.96 33.728 0.253 7.7 8.4 13.78
12/24/2022 7:30:00 PM 0.97 33.746 0.253 7.7 8.3 13.77
12/24/2022 7:45:00 PM 0.97 33.746 0.254 7.7 8.39 13.76
12/24/2022 8:00:00 PM 0.98 33.764 0.254 7.7 8.15 13.75
12/24/2022 8:15:00 PM 0.99 33.782 0.255 7.7 8.35 13.74
12/24/2022 8:30:00 PM 1 33.8 0.255 7.7 8.05 13.73
12/24/2022 8:45:00 PM 1.03 33.854 0.255 7.7 7.24 13.72
12/24/2022 9:00:00 PM 1.05 33.89 0.256 7.7 7.45 13.71
12/24/2022 9:15:00 PM 1.07 33.926 0.256 7.7 6.7 13.7
12/24/2022 9:30:00 PM 1.09 33.962 0.256 7.7 6.92 13.69
12/24/2022 9:45:00 PM 1.1 33.98 0.257 7.7 6.62 13.69
12/24/2022 10:00:00 PM 1.11 33.998 0.257 7.69 6.46 13.69
12/24/2022 10:15:00 PM 1.12 34.016 0.257 7.7 6.33 13.68
12/24/2022 10:30:00 PM 1.15 34.07 0.257 7.7 6.35 13.67
12/24/2022 10:45:00 PM 1.17 34.106 0.257 7.7 6.03 13.67
12/24/2022 11:00:00 PM 1.19 34.142 0.257 7.7 6.18 13.67
12/24/2022 11:15:00 PM 1.21 34.178 0.257 7.7 6.22 13.66
12/24/2022 11:30:00 PM 1.23 34.214 0.257 7.7 5.78 13.66
12/24/2022 11:45:00 PM 1.23 34.214 0.257 7.7 6.23 13.65
12/25/2022 12:00:00 AM 1.24 34.232 0.257 7.7 5.61 13.65
12/25/2022 12:15:00 AM 1.25 34.25 0.257 7.7 5.6 13.65
12/25/2022 12:30:00 AM 1.26 34.268 0.257 7.7 5.64 13.65
12/25/2022 12:45:00 AM 1.27 34.286 0.257 7.7 5.24 13.65
12/25/2022 1:00:00 AM 1.28 34.304 0.257 7.7 5.07 13.64
12/25/2022 1:15:00 AM 1.28 34.304 0.256 7.7 5.54 13.64
12/25/2022 1:30:00 AM 1.29 34.322 0.256 7.7 5.58 13.65
12/25/2022 1:45:00 AM 1.3 34.34 0.256 7.7 5.73 13.64
12/25/2022 2:00:00 AM 1.29 34.322 0.256 7.7 6.21 13.65
12/25/2022 2:15:00 AM 1.29 34.322 0.255 7.7 5.46 13.65
12/25/2022 2:30:00 AM 1.28 34.304 0.254 7.71 5.48 13.66
12/25/2022 2:45:00 AM 1.28 34.304 0.254 7.71 5.58 13.66
12/25/2022 3:00:00 AM 1.27 34.286 0.254 7.71 5.59 13.66
12/25/2022 3:15:00 AM 1.26 34.268 0.253 7.7 5.49 13.67
12/25/2022 3:30:00 AM 1.24 34.232 0.253 7.7 5.24 13.67
12/25/2022 3:45:00 AM 1.23 34.214 0.253 7.71 5.13 13.67
12/25/2022 4:00:00 AM 1.21 34.178 0.253 7.71 5.44 13.68
12/25/2022 4:15:00 AM 1.21 34.178 0.253 7.71 5.16 13.68
12/25/2022 4:30:00 AM 1.21 34.178 0.252 7.71 5.42 13.68
12/25/2022 4:45:00 AM 1.21 34.178 0.252 7.71 4.99 13.68
12/25/2022 5:00:00 AM 1.21 34.178 0.252 7.71 5.29 13.67
12/25/2022 5:15:00 AM 1.21 34.178 0.252 7.71 5.01 13.67
12/25/2022 5:30:00 AM 1.21 34.178 0.252 7.71 4.86 13.67
12/25/2022 5:45:00 AM 1.21 34.178 0.252 7.71 5 13.66
12/25/2022 6:00:00 AM 1.21 34.178 0.252 7.71 4.91 13.66
12/25/2022 6:15:00 AM 1.22 34.196 0.252 7.71 4.72 13.66
12/25/2022 6:30:00 AM 1.21 34.178 0.252 7.71 4.46 13.65
12/25/2022 6:45:00 AM 1.22 34.196 0.247 7.71 4.47 13.64
12/25/2022 7:00:00 AM 1.22 34.196 0.252 7.71 4.9 13.65
12/25/2022 7:15:00 AM 1.24 34.232 0.252 7.71 4.61 13.64
12/25/2022 7:30:00 AM 1.25 34.25 0.251 7.71 4.87 13.64
12/25/2022 7:45:00 AM 1.26 34.268 0.25 7.7 4.57 13.64
12/25/2022 8:00:00 AM 1.28 34.304 0.251 7.71 4.38 13.64
12/25/2022 8:15:00 AM 1.31 34.358 0.252 7.71 4.38 13.65
12/25/2022 8:30:00 AM 1.32 34.376 0.252 7.71 4.15 13.66
12/25/2022 8:45:00 AM 1.36 34.448 0.253 7.71 4.45 13.67
12/25/2022 9:00:00 AM 1.39 34.502 0.252 7.72 4.3 13.69
12/25/2022 9:15:00 AM 1.43 34.574 0.252 7.71 5.25 13.69
12/25/2022 9:30:00 AM 1.46 34.628 0.251 7.72 6.7 13.7
12/25/2022 9:45:00 AM 1.48 34.664 0.249 7.72 5.79 13.71
12/25/2022 10:00:00 AM 1.5 34.7 0.249 7.72 4.21 13.71
12/25/2022 10:15:00 AM 1.51 34.718 0.249 7.72 5.07 13.72
12/25/2022 10:30:00 AM 1.57 34.826 0.249 7.72 6.64 13.72
12/25/2022 10:45:00 AM 1.66 34.988 0.249 7.73 5.18 13.73
12/25/2022 11:00:00 AM 1.72 35.096 0.247 7.73 4.03 13.74
12/25/2022 11:15:00 AM 1.8 35.24 0.248 7.73 4.14 13.74
12/25/2022 11:30:00 AM 1.88 35.384 0.248 7.73 4.13 13.74
12/25/2022 11:45:00 AM 1.94 35.492 0.247 7.73 3.97 13.74
12/25/2022 12:00:00 PM 1.98 35.564 0.247 7.74 4.21 13.75
12/25/2022 12:15:00 PM 2.05 35.69 0.246 7.74 4.17 13.75
12/25/2022 12:30:00 PM 2.1 35.78 0.246 7.74 4.12 13.74
12/25/2022 12:45:00 PM 2.14 35.852 0.246 7.74 4.17 13.74
12/25/2022 1:00:00 PM 2.17 35.906 0.246 7.74 4.24 13.72
12/25/2022 1:15:00 PM 2.18 35.924 0.246 7.74 4.38 13.72
12/25/2022 1:30:00 PM 2.2 35.96 0.245 7.74 4.35 13.71
12/25/2022 1:45:00 PM 2.21 35.978 0.245 7.75 3.76 13.71
12/25/2022 2:00:00 PM 2.21 35.978 0.244 7.75 3.42 13.7
12/25/2022 2:15:00 PM 2.21 35.978 0.244 7.75 3.48 13.7
12/25/2022 2:30:00 PM 2.23 36.014 0.244 7.75 3.79 13.68
12/25/2022 2:45:00 PM 2.23 36.014 0.243 7.75 4 13.67
12/25/2022 3:00:00 PM 2.22 35.996 0.243 7.75 3.83 13.66
12/25/2022 3:15:00 PM 2.21 35.978 0.243 7.75 4.05 13.64
12/25/2022 3:30:00 PM 2.19 35.942 0.243 7.75 4.42 13.63
12/25/2022 3:45:00 PM 2.16 35.888 0.243 7.75 4.63 13.63
12/25/2022 4:00:00 PM 2.14 35.852 0.243 7.74 4.29 13.61
12/25/2022 4:15:00 PM 2.11 35.798 0.243 7.74 4.43 13.6
12/25/2022 4:30:00 PM 2.08 35.744 0.243 7.74 5.58 13.59
12/25/2022 4:45:00 PM 2.04 35.672 0.243 7.74 5.04 13.58
12/25/2022 5:00:00 PM 2 35.6 0.243 7.74 6.23 13.57
12/25/2022 5:15:00 PM 1.97 35.546 0.243 7.74 5.45 13.56
12/25/2022 5:30:00 PM 1.94 35.492 0.243 7.73 5.22 13.56
12/25/2022 5:45:00 PM 1.91 35.438 0.243 7.74 6.11 13.55
12/25/2022 6:00:00 PM 1.87 35.366 0.243 7.73 5.29 13.55
12/25/2022 6:15:00 PM 1.83 35.294 0.242 7.73 5 13.55
12/25/2022 6:30:00 PM 1.8 35.24 0.242 7.73 5.33 13.56
12/25/2022 6:45:00 PM 1.77 35.186 0.242 7.73 4.8 13.56
12/25/2022 7:00:00 PM 1.75 35.15 0.242 7.73 4.75 13.56
12/25/2022 7:15:00 PM 1.73 35.114 0.242 7.74 5.37 13.56
12/25/2022 7:30:00 PM 1.71 35.078 0.242 7.74 4.9 13.55
12/25/2022 7:45:00 PM 1.69 35.042 0.242 7.74 7.44 13.56
12/25/2022 8:00:00 PM 1.68 35.024 0.242 7.73 5.45 13.56
12/25/2022 8:15:00 PM 1.67 35.006 0.241 7.73 4.35 13.56
12/25/2022 8:30:00 PM 1.66 34.988 0.241 7.74 4.42 13.56
12/25/2022 8:45:00 PM 1.64 34.952 0.241 7.73 4.39 13.56
12/25/2022 9:00:00 PM 1.62 34.916 0.241 7.73 4.09 13.56
12/25/2022 9:15:00 PM 1.61 34.898 0.24 7.73 4.1 13.57
12/25/2022 9:30:00 PM 1.61 34.898 0.24 7.73 4.01 13.57
12/25/2022 9:45:00 PM 1.6 34.88 0.239 7.73 3.7 13.58
12/25/2022 10:00:00 PM 1.58 34.844 0.239 7.74 3.85 13.58
12/25/2022 10:15:00 PM 1.57 34.826 0.239 7.73 3.99 13.58
12/25/2022 10:30:00 PM 1.56 34.808 0.239 7.73 3.78 13.58
12/25/2022 10:45:00 PM 1.55 34.79 0.238 7.73 3.81 13.59
12/25/2022 11:00:00 PM 1.53 34.754 0.238 7.73 3.89 13.59
12/25/2022 11:15:00 PM 1.53 34.754 0.237 7.74 7.86 13.6
12/25/2022 11:30:00 PM 1.53 34.754 0.237 7.73 3.83 13.6
12/25/2022 11:45:00 PM 1.51 34.718 0.237 7.73 3.79 13.61
12/26/2022 12:00:00 AM 1.5 34.7 0.237 7.73 3.52 13.61
12/26/2022 12:15:00 AM 1.48 34.664 0.237 7.73 3.75 13.62
12/26/2022 12:30:00 AM 1.47 34.646 0.237 7.73 3.87 13.62
12/26/2022 12:45:00 AM 1.45 34.61 0.237 7.73 3.57 13.62
12/26/2022 1:00:00 AM 1.43 34.574 0.236 7.73 3.44 13.63
12/26/2022 1:15:00 AM 1.41 34.538 0.234 7.73 3.5 13.64
12/26/2022 1:30:00 AM 1.4 34.52 0.233 7.73 3.69 13.64
12/26/2022 1:45:00 AM 1.39 34.502 0.233 7.73 3.58 13.64
12/26/2022 2:00:00 AM 1.37 34.466 0.234 7.73 3.93 13.65
12/26/2022 2:15:00 AM 1.35 34.43 0.231 7.72 3.48 13.66
12/26/2022 2:30:00 AM 1.34 34.412 0.252 7.73 5.48 13.67
12/26/2022 2:45:00 AM 1.33 34.394 0.328 7.73 11.11 13.66
12/26/2022 3:00:00 AM 1.31 34.358 0.325 7.73 3.92 13.67
12/26/2022 3:15:00 AM 1.3 34.34 0.323 7.73 3.64 13.67
12/26/2022 3:30:00 AM 1.29 34.322 0.32 7.73 3.71 13.68
12/26/2022 3:45:00 AM 1.27 34.286 0.312 7.73 3.64 13.7
12/26/2022 4:00:00 AM 1.26 34.268 0.302 7.73 3.73 13.7
12/26/2022 4:15:00 AM 1.25 34.25 0.292 7.73 3.38 13.71
12/26/2022 4:30:00 AM 1.24 34.232 0.288 7.73 3.59 13.71
12/26/2022 4:45:00 AM 1.23 34.214 0.285 7.73 3.36 13.71
12/26/2022 5:00:00 AM 1.21 34.178 0.284 7.73 3.39 13.72
12/26/2022 5:15:00 AM 1.2 34.16 0.282 7.73 3.08 13.73
12/26/2022 5:30:00 AM 1.19 34.142 0.281 7.73 3.5 13.73
12/26/2022 5:45:00 AM 1.18 34.124 0.278 7.73 3.4 13.74
12/26/2022 6:00:00 AM 1.17 34.106 0.276 7.73 3.33 13.74
12/26/2022 6:15:00 AM 1.15 34.07 0.275 7.73 3.29 13.75
12/26/2022 6:30:00 AM 1.14 34.052 0.275 7.73 2.75 13.76
12/26/2022 6:45:00 AM 1.13 34.034 0.274 7.73 2.98 13.77
12/26/2022 7:00:00 AM 1.13 34.034 0.274 7.73 3.08 13.77
12/26/2022 7:15:00 AM 1.12 34.016 0.274 7.73 3.42 13.78
12/26/2022 7:30:00 AM 1.11 33.998 0.274 7.73 5 13.79
12/26/2022 7:45:00 AM 1.13 34.034 0.274 7.73 4.75 13.79
12/26/2022 8:00:00 AM 1.14 34.052 0.274 7.73 5.09 13.8
12/26/2022 8:15:00 AM 1.16 34.088 0.273 7.73 4.08 13.81
12/26/2022 8:30:00 AM 1.19 34.142 0.273 7.73 4.26 13.82
12/26/2022 8:45:00 AM 1.22 34.196 0.274 7.74 4 13.84
12/26/2022 9:00:00 AM 1.26 34.268 0.273 7.74 4.92 13.85
12/26/2022 9:15:00 AM 1.29 34.322 0.273 7.74 3.63 13.86
12/26/2022 9:30:00 AM 1.34 34.412 0.273 7.74 3.77 13.87
12/26/2022 9:45:00 AM 1.4 34.52 0.273 7.74 6.31 13.87
12/26/2022 10:00:00 AM 1.46 34.628 0.273 7.74 4.34 13.88
12/26/2022 10:15:00 AM 1.52 34.736 0.273 7.75 5.34 13.88
12/26/2022 10:30:00 AM 1.61 34.898 0.273 7.75 3.91 13.88
12/26/2022 10:45:00 AM 1.7 35.06 0.273 7.75 3.22 13.87
12/26/2022 11:00:00 AM 1.8 35.24 0.272 7.75 3.5 13.88
12/26/2022 11:15:00 AM 1.9 35.42 0.271 7.75 3.99 13.87
12/26/2022 11:30:00 AM 1.98 35.564 0.271 7.75 3.25 13.87
12/26/2022 11:45:00 AM 2.04 35.672 0.27 7.76 3.01 13.86
12/26/2022 12:00:00 PM 2.1 35.78 0.269 7.75 3.68 13.86
12/26/2022 12:15:00 PM 2.12 35.816 0.268 7.75 3.74 13.87
12/26/2022 12:30:00 PM 2.13 35.834 0.266 7.76 3.59 13.89
12/26/2022 12:45:00 PM 2.14 35.852 0.264 7.77 3.89 13.91
12/26/2022 1:00:00 PM 2.17 35.906 0.262 7.77 3.85 13.91
12/26/2022 1:15:00 PM 2.22 35.996 0.261 7.77 3.35 13.91
12/26/2022 1:30:00 PM 2.24 36.032 0.26 7.78 3.41 13.89
12/26/2022 1:45:00 PM 2.26 36.068 0.259 7.77 3.09 13.88
12/26/2022 2:00:00 PM 2.29 36.122 0.259 7.77 3.28 13.87
12/26/2022 2:15:00 PM 2.32 36.176 0.258 7.78 3.05 13.86
12/26/2022 2:30:00 PM 2.35 36.23 0.258 7.77 3.31 13.85
12/26/2022 2:45:00 PM 2.38 36.284 0.257 7.77 2.88 13.84
12/26/2022 3:00:00 PM 2.41 36.338 0.257 7.77 2.83 13.82
12/26/2022 3:15:00 PM 2.43 36.374 0.256 7.77 3.72 13.81
12/26/2022 3:30:00 PM 2.44 36.392 0.256 7.77 2.68 13.78
12/26/2022 3:45:00 PM 2.44 36.392 0.256 7.77 2.71 13.75
12/26/2022 4:00:00 PM 2.44 36.392 0.255 7.77 2.53 13.73
12/26/2022 4:15:00 PM 2.45 36.41 0.255 7.77 3.21 13.7
12/26/2022 4:30:00 PM 2.45 36.41 0.255 7.76 3.79 13.67
12/26/2022 4:45:00 PM 2.45 36.41 0.254 7.77 4.73 13.64
12/26/2022 5:00:00 PM 2.45 36.41 0.253 7.76 3.91 13.61
12/26/2022 5:15:00 PM 2.44 36.392 0.253 7.76 3.1 13.6
12/26/2022 5:30:00 PM 2.44 36.392 0.253 7.76 2.84 13.57
12/26/2022 5:45:00 PM 2.45 36.41 0.252 7.76 3.02 13.55
12/26/2022 6:00:00 PM 2.46 36.428 0.251 7.76 2.82 13.54
12/26/2022 6:15:00 PM 2.48 36.464 0.25 7.76 2.95 13.52
12/26/2022 6:30:00 PM 2.49 36.482 0.25 7.76 2.67 13.51
12/26/2022 6:45:00 PM 2.5 36.5 0.249 7.76 3.03 13.49
12/26/2022 7:00:00 PM 2.51 36.518 0.246 7.75 4.83 13.47
12/26/2022 7:15:00 PM 2.51 36.518 0.245 7.76 3.11 13.46
12/26/2022 7:30:00 PM 2.52 36.536 0.303 7.75 15.13 13.45
12/26/2022 7:45:00 PM 2.52 36.536 0.274 7.75 3.34 13.44
12/26/2022 8:00:00 PM 2.53 36.554 0.272 7.75 2.97 13.42
12/26/2022 8:15:00 PM 2.54 36.572 0.27 7.75 2.91 13.42
12/26/2022 8:30:00 PM 2.54 36.572 0.268 7.75 3.17 13.41
12/26/2022 8:45:00 PM 2.55 36.59 0.267 7.75 3.44 13.4
12/26/2022 9:00:00 PM 2.56 36.608 0.265 7.75 3.56 13.39
12/26/2022 9:15:00 PM 2.56 36.608 0.264 7.75 3.39 13.38
12/26/2022 9:30:00 PM 2.57 36.626 0.262 7.75 3.14 13.38
12/26/2022 9:45:00 PM 2.58 36.644 0.26 7.75 3.31 13.37
12/26/2022 10:00:00 PM 2.59 36.662 0.257 7.75 3.42 13.36
12/26/2022 10:15:00 PM 2.6 36.68 0.256 7.75 3.48 13.36
12/26/2022 10:30:00 PM 2.61 36.698 0.253 7.75 3.32 13.35
12/26/2022 10:45:00 PM 2.63 36.734 0.25 7.75 3.68 13.34
12/26/2022 11:00:00 PM 2.63 36.734 0.248 7.75 3.76 13.34
12/26/2022 11:15:00 PM 2.64 36.752 0.246 7.75 3.82 13.33
12/26/2022 11:30:00 PM 2.65 36.77 0.244 7.75 3.82 13.32
12/26/2022 11:45:00 PM 2.66 36.788 0.242 7.75 4.04 13.31
12/27/2022 12:00:00 AM 2.67 36.806 0.241 7.75 4.14 13.31
12/27/2022 12:15:00 AM 2.68 36.824 0.239 7.75 4.7 13.31
12/27/2022 12:30:00 AM 2.69 36.842 0.24 7.75 4.41 13.29
12/27/2022 12:45:00 AM 2.7 36.86 0.305 7.71 6.97 13.29
12/27/2022 1:00:00 AM 2.71 36.878 0.276 7.75 4.96 13.28
12/27/2022 1:15:00 AM 2.72 36.896 0.274 7.75 4.85 13.27
12/27/2022 1:30:00 AM 2.73 36.914 0.271 7.75 4.49 13.27
12/27/2022 1:45:00 AM 2.74 36.932 0.267 7.75 4.59 13.27
12/27/2022 2:00:00 AM 2.75 36.95 0.265 7.75 4.52 13.26
12/27/2022 2:15:00 AM 2.76 36.968 0.262 7.75 4.48 13.26
12/27/2022 2:30:00 AM 2.77 36.986 0.261 7.75 4.37 13.25
12/27/2022 2:45:00 AM 2.77 36.986 0.258 7.75 3.99 13.25
12/27/2022 3:00:00 AM 2.78 37.004 0.256 7.75 5.04 13.25
12/27/2022 3:15:00 AM 2.79 37.022 0.255 7.75 3.81 13.24
12/27/2022 3:30:00 AM 2.8 37.04 0.254 7.75 3.66 13.24
12/27/2022 3:45:00 AM 2.81 37.058 0.253 7.75 4.1 13.23
12/27/2022 4:00:00 AM 2.81 37.058 0.252 7.75 3.91 13.23
12/27/2022 4:15:00 AM 2.82 37.076 0.25 7.75 3.82 13.23
12/27/2022 4:30:00 AM 2.83 37.094 0.25 7.75 3.77 13.23
12/27/2022 4:45:00 AM 2.84 37.112 0.248 7.75 4.26 13.22
12/27/2022 5:00:00 AM 2.85 37.13 0.247 7.75 4.06 13.22
12/27/2022 5:15:00 AM 2.86 37.148 0.242 7.75 4.2 13.21
12/27/2022 5:30:00 AM 2.87 37.166 0.299 7.74 12.14 13.2
12/27/2022 5:45:00 AM 2.88 37.184 0.266 7.75 4.03 13.21
12/27/2022 6:00:00 AM 2.89 37.202 0.262 7.75 4.18 13.2
12/27/2022 6:15:00 AM 2.9 37.22 0.246 7.74 4.06 13.2
12/27/2022 6:30:00 AM 2.9 37.22 0.336 7.73 532.13 13.19
12/27/2022 6:45:00 AM 2.91 37.238 0.298 7.74 7.58 13.19
12/27/2022 7:00:00 AM 2.92 37.256 0.34 7.74 84.69 13.18
12/27/2022 7:15:00 AM 2.92 37.256 0.34 7.73 53.23 13.18
12/27/2022 7:30:00 AM 2.94 37.292 0.341 7.74 5.98 13.18
12/27/2022 7:45:00 AM 2.94 37.292 0.337 7.75 4.79 13.19
12/27/2022 8:00:00 AM 2.95 37.31 0.442 7.74 4.09 13.19
12/27/2022 8:15:00 AM 2.97 37.346 0.431 7.75 5.33 13.2
12/27/2022 8:30:00 AM 2.99 37.382 0.442 7.75 4.59 13.21
12/27/2022 8:45:00 AM 3.02 37.436 0.443 7.76 4.65 13.22
12/27/2022 9:00:00 AM 3.04 37.472 0.44 7.76 4.78 13.24
12/27/2022 9:15:00 AM 3.07 37.526 0.414 7.76 4.52 13.26
12/27/2022 9:30:00 AM 3.1 37.58 0.436 7.66 4.49 13.27
12/27/2022 9:45:00 AM 3.14 37.652 0.443 7.76 3.17 13.28
12/27/2022 10:00:00 AM 3.18 37.724 0.443 7.76 4.23 13.29
12/27/2022 10:15:00 AM 3.21 37.778 0.443 7.77 4.3 13.31
12/27/2022 10:30:00 AM 3.25 37.85 0.443 7.77 4.55 13.32
12/27/2022 10:45:00 AM 3.28 37.904 0.376 7.77 3.93 13.33
12/27/2022 11:00:00 AM 3.32 37.976 0.443 7.77 4.77 13.32
12/27/2022 11:15:00 AM 3.36 38.048 0.443 7.77 4.2 13.33
12/27/2022 11:30:00 AM 3.4 38.12 0.442 7.77 4.9 13.34
12/27/2022 11:45:00 AM 3.44 38.192 0.411 7.77 5.65 13.35
12/27/2022 12:00:00 PM 3.49 38.282 0.428 7.78 5.37 13.35
12/27/2022 12:15:00 PM 3.54 38.372 0.399 7.78 4.31 13.36
12/27/2022 12:30:00 PM 3.61 38.498 0.433 7.78 6.1 13.35
12/27/2022 12:45:00 PM 3.68 38.624 0.283 7.78 4.72 13.35
12/27/2022 1:00:00 PM 3.73 38.714 0.361 7.78 4.39 13.36
12/27/2022 1:15:00 PM 3.79 38.822 0.436 7.79 4.89 13.35
12/27/2022 1:30:00 PM 3.85 38.93 0.441 7.79 4.47 13.34
12/27/2022 1:45:00 PM 3.9 39.02 0.436 7.79 4.43 13.33
12/27/2022 2:00:00 PM 3.95 39.11 0.439 7.79 4.3 13.31
12/27/2022 2:15:00 PM 4 39.2 0.442 7.8 4.34 13.3
12/27/2022 2:30:00 PM 4.03 39.254 0.442 7.79 4.45 13.28
12/27/2022 2:45:00 PM 4.06 39.308 0.442 7.79 5.11 13.27
12/27/2022 3:00:00 PM 4.07 39.326 0.442 7.79 5.1 13.24
12/27/2022 3:15:00 PM 4.09 39.362 0.442 7.79 4.4 13.23
12/27/2022 3:30:00 PM 4.11 39.398 0.443 7.79 3.97 13.19
12/27/2022 3:45:00 PM 4.12 39.416 0.443 7.78 4.03 13.16
12/27/2022 4:00:00 PM 4.14 39.452 0.443 7.78 3.85 13.13
12/27/2022 4:15:00 PM 4.16 39.488 0.443 7.78 4.12 13.1
12/27/2022 4:30:00 PM 4.18 39.524 0.442 7.78 5.87 13.07
12/27/2022 4:45:00 PM 4.19 39.542 0.442 7.78 4.06 13.04
12/27/2022 5:00:00 PM 4.2 39.56 0.442 7.78 3.9 13.01
12/27/2022 5:15:00 PM 4.2 39.56 0.442 7.78 3.85 12.99
12/27/2022 5:30:00 PM 4.2 39.56 0.442 7.78 4.03 12.97
12/27/2022 5:45:00 PM 4.2 39.56 0.442 7.78 3.92 12.95
12/27/2022 6:00:00 PM 4.2 39.56 0.442 7.78 3.77 12.93
12/27/2022 6:15:00 PM 4.2 39.56 0.442 7.77 4.43 12.91
12/27/2022 6:30:00 PM 4.2 39.56 0.442 7.78 4.18 12.9
12/27/2022 6:45:00 PM 4.21 39.578 0.442 7.77 4.18 12.88
12/27/2022 7:00:00 PM 4.21 39.578 0.442 7.77 4.6 12.88
12/27/2022 7:15:00 PM 4.21 39.578 0.442 7.76 4.79 12.86
12/27/2022 7:30:00 PM 4.21 39.578 0.442 7.77 5.01 12.85
12/27/2022 7:45:00 PM 4.22 39.596 0.442 7.76 4.53 12.84
12/27/2022 8:00:00 PM 4.22 39.596 0.442 7.76 4.45 12.82
12/27/2022 8:15:00 PM 4.23 39.614 0.442 7.76 4.16 12.81
12/27/2022 8:30:00 PM 4.23 39.614 0.443 7.77 4.32 12.8
12/27/2022 8:45:00 PM 4.24 39.632 0.442 7.76 3.84 12.8
12/27/2022 9:00:00 PM 4.24 39.632 0.442 7.76 3.62 12.78
12/27/2022 9:15:00 PM 4.25 39.65 0.442 7.76 3.67 12.78
12/27/2022 9:30:00 PM 4.25 39.65 0.442 7.76 3.74 12.77
12/27/2022 9:45:00 PM 4.26 39.668 0.442 7.76 3.03 12.76
12/27/2022 10:00:00 PM 4.26 39.668 0.442 7.76 3.33 12.76
12/27/2022 10:15:00 PM 4.26 39.668 0.442 7.76 3.06 12.75
12/27/2022 10:30:00 PM 4.27 39.686 0.442 7.75 3.72 12.75
12/27/2022 10:45:00 PM 4.27 39.686 0.442 7.75 4.5 12.74
12/27/2022 11:00:00 PM 4.27 39.686 0.443 7.76 4.07 12.74
12/27/2022 11:15:00 PM 4.28 39.704 0.443 7.75 3.42 12.73
12/27/2022 11:30:00 PM 4.28 39.704 0.443 7.74 3.62 12.73
12/27/2022 11:45:00 PM 4.28 39.704 0.443 7.75 3.59 12.72
12/28/2022 12:00:00 AM 4.28 39.704 0.443 7.75 4.19 12.72
12/28/2022 12:15:00 AM 4.27 39.686 0.444 7.75 4.4 12.71
12/28/2022 12:30:00 AM 4.25 39.65 0.444 7.75 4 12.71
12/28/2022 12:45:00 AM 4.22 39.596 0.444 7.76 4.12 12.71
12/28/2022 1:00:00 AM 4.19 39.542 0.444 7.77 3.92 12.7
12/28/2022 1:15:00 AM 4.15 39.47 0.444 7.75 3.64 12.71
12/28/2022 1:30:00 AM 4.13 39.434 0.444 7.75 3.68 12.72
12/28/2022 1:45:00 AM 4.1 39.38 0.441 7.75 3.94 12.72
12/28/2022 2:00:00 AM 4.08 39.344 0.444 7.75 3.81 12.72
12/28/2022 2:15:00 AM 4.06 39.308 0.444 7.74 4.15 12.68
12/28/2022 2:30:00 AM 4.04 39.272 0.444 7.76 4.31 12.72
12/28/2022 2:45:00 AM 4.02 39.236 0.444 7.75 3.83 12.72
12/28/2022 3:00:00 AM 4 39.2 0.445 7.75 4.52 12.73
12/28/2022 3:15:00 AM 3.97 39.146 0.444 7.69 3.98 12.74
12/28/2022 3:30:00 AM 3.94 39.092 0.445 7.75 4.44 12.74
12/28/2022 3:45:00 AM 3.92 39.056 0.445 7.75 4.63 12.75
12/28/2022 4:00:00 AM 3.89 39.002 0.445 7.74 3.86 12.76
12/28/2022 4:15:00 AM 3.86 38.948 0.445 7.76 4.22 12.76
12/28/2022 4:30:00 AM 3.82 38.876 0.444 7.75 4.63 12.78
12/28/2022 4:45:00 AM 3.79 38.822 0.445 7.76 4.03 12.78
12/28/2022 5:00:00 AM 3.75 38.75 0.445 7.76 3.58 12.79
12/28/2022 5:15:00 AM 3.72 38.696 0.445 7.75 4.12 12.8
12/28/2022 5:30:00 AM 3.7 38.66 0.445 7.74 4.08 12.81
12/28/2022 5:45:00 AM 3.67 38.606 0.445 7.75 4.07 12.81
12/28/2022 6:00:00 AM 3.64 38.552 0.445 7.75 3.58 12.82
12/28/2022 6:15:00 AM 3.61 38.498 0.445 7.75 3.43 12.83
12/28/2022 6:30:00 AM 3.59 38.462 0.445 7.74 3.71 12.84
12/28/2022 6:45:00 AM 3.56 38.408 0.445 7.75 3.45 12.85
12/28/2022 7:00:00 AM 3.53 38.354 0.445 7.74 4.76 12.86
12/28/2022 7:15:00 AM 3.5 38.3 0.445 7.74 3.71 12.87
12/28/2022 7:30:00 AM 3.47 38.246 0.445 7.74 3.64 12.88
12/28/2022 7:45:00 AM 3.44 38.192 0.445 7.76 3.8 12.9
12/28/2022 8:00:00 AM 3.43 38.174 0.445 7.74 4.22 12.92
12/28/2022 8:15:00 AM 3.41 38.138 0.445 7.75 4.15 12.94
12/28/2022 8:30:00 AM 3.4 38.12 0.445 7.76 3.92 12.96
12/28/2022 8:45:00 AM 3.41 38.138 0.445 7.75 5.06 12.99
12/28/2022 9:00:00 AM 3.42 38.156 0.445 7.76 5.34 13.02
12/28/2022 9:15:00 AM 3.45 38.21 0.445 7.76 6.02 13.05
12/28/2022 9:30:00 AM 3.48 38.264 0.445 7.77 5.03 13.07
12/28/2022 9:45:00 AM 3.53 38.354 0.443 7.76 4.36 13.09
12/28/2022 10:00:00 AM 3.58 38.444 0.444 7.77 3.41 13.12
12/28/2022 10:15:00 AM 3.64 38.552 0.445 7.78 2.74 13.15
12/28/2022 10:30:00 AM 3.7 38.66 0.445 7.78 2.71 13.17
12/28/2022 10:45:00 AM 3.77 38.786 0.445 7.77 3.01 13.19
12/28/2022 11:00:00 AM 3.83 38.894 0.443 7.78 3.14 13.21
12/28/2022 11:15:00 AM 3.89 39.002 0.445 7.79 1.96 13.22
12/28/2022 11:30:00 AM 3.97 39.146 0.445 7.78 3.21 13.22
12/28/2022 11:45:00 AM 4.05 39.29 0.438 7.79 4.98 13.23
12/28/2022 12:00:00 PM 4.13 39.434 0.445 7.79 8.34 13.23
12/28/2022 12:15:00 PM 4.22 39.596 0.442 7.8 2.7 13.23
12/28/2022 12:30:00 PM 4.31 39.758 0.443 7.79 3.95 13.23
12/28/2022 12:45:00 PM 4.38 39.884 0.445 7.8 3.77 13.23
12/28/2022 1:00:00 PM 4.44 39.992 0.444 7.79 4.25 13.22
12/28/2022 1:15:00 PM 4.49 40.082 0.444 7.78 4.01 13.21
12/28/2022 1:30:00 PM 4.52 40.136 0.44 7.79 4.17 13.2
12/28/2022 1:45:00 PM 4.54 40.172 0.445 7.78 3.32 13.19
12/28/2022 2:00:00 PM 4.57 40.226 0.445 7.79 3.31 13.17
12/28/2022 2:15:00 PM 4.59 40.262 0.445 7.79 3.87 13.15
12/28/2022 2:30:00 PM 4.62 40.316 0.445 7.8 3.53 13.13
12/28/2022 2:45:00 PM 4.65 40.37 0.445 7.8 3.53 13.11
12/28/2022 3:00:00 PM 4.67 40.406 0.445 7.8 3.84 13.08
12/28/2022 3:15:00 PM 4.69 40.442 0.445 7.8 4.28 13.06
12/28/2022 3:30:00 PM 4.72 40.496 0.445 7.8 3.76 13.03
12/28/2022 3:45:00 PM 4.74 40.532 0.444 7.79 3.44 13.01
12/28/2022 4:00:00 PM 4.76 40.568 0.441 7.79 3.42 12.98
12/28/2022 4:15:00 PM 4.77 40.586 0.445 7.8 3.51 12.95
12/28/2022 4:30:00 PM 0 32 0 0 0 0
12/28/2022 4:45:00 PM 4.76 40.568 0.446 7.81 3.35 12.88
12/28/2022 5:00:00 PM 4.75 40.55 0.445 7.81 4.71 12.86
12/28/2022 5:15:00 PM 4.73 40.514 0.445 7.8 3.75 12.82
12/28/2022 5:30:00 PM 4.71 40.478 0.444 7.78 4.54 12.8
12/28/2022 5:45:00 PM 4.69 40.442 0.445 7.79 3.74 12.78
12/28/2022 6:00:00 PM 4.67 40.406 0.444 7.78 4.07 12.77
12/28/2022 6:15:00 PM 4.65 40.37 0.444 7.79 4.78 12.76
12/28/2022 6:30:00 PM 4.64 40.352 0.444 7.79 3.34 12.74
12/28/2022 6:45:00 PM 4.62 40.316 0.444 7.78 3.72 12.73
12/28/2022 7:00:00 PM 4.61 40.298 0.444 7.78 2.68 12.72
12/28/2022 7:15:00 PM 4.59 40.262 0.444 7.78 3.18 12.63
12/28/2022 7:30:00 PM 4.57 40.226 0.444 7.78 3.13 12.71
12/28/2022 7:45:00 PM 4.55 40.19 0.444 7.78 3.13 12.7
12/28/2022 8:00:00 PM 4.53 40.154 0.439 7.78 3.52 12.7
12/28/2022 8:15:00 PM 4.51 40.118 0.444 7.78 2.59 12.68
12/28/2022 8:30:00 PM 4.5 40.1 0.44 7.76 2.9 12.68
12/28/2022 8:45:00 PM 4.47 40.046 0.443 7.77 2.91 12.68
12/28/2022 9:00:00 PM 4.45 40.01 0.443 7.77 2.96 12.67
12/28/2022 9:15:00 PM 4.42 39.956 0.443 7.77 2.68 12.64
12/28/2022 9:30:00 PM 4.4 39.92 0.443 7.77 2.79 12.68
12/28/2022 9:45:00 PM 4.38 39.884 0.443 7.77 2.59 12.67
12/28/2022 10:00:00 PM 4.36 39.848 0.443 7.77 2.9 12.68
12/28/2022 10:15:00 PM 4.33 39.794 0.443 7.77 2.96 12.68
12/28/2022 10:30:00 PM 4.31 39.758 0.443 7.77 4.67 12.68
12/28/2022 10:45:00 PM 4.29 39.722 0.441 7.77 3.14 12.69
12/28/2022 11:00:00 PM 4.26 39.668 0.442 7.76 3.23 12.68
12/28/2022 11:15:00 PM 4.24 39.632 0.443 7.76 2.82 12.69
12/28/2022 11:30:00 PM 4.22 39.596 0.443 7.76 2.6 12.69
12/28/2022 11:45:00 PM 4.19 39.542 0.443 7.76 2.7 12.7
12/29/2022 12:00:00 AM 4.17 39.506 0.443 7.77 2.54 12.7
12/29/2022 12:15:00 AM 4.15 39.47 0.443 7.77 2.44 12.7
12/29/2022 12:30:00 AM 4.12 39.416 0.442 7.76 3.33 12.71
12/29/2022 12:45:00 AM 4.11 39.398 0.443 7.77 2.87 12.7
12/29/2022 1:00:00 AM 4.09 39.362 0.443 7.77 2.82 12.71
12/29/2022 1:15:00 AM 4.07 39.326 0.442 7.76 4.03 12.71
12/29/2022 1:30:00 AM 4.05 39.29 0.443 7.77 2.73 12.71
12/29/2022 1:45:00 AM 4.03 39.254 0.441 7.76 3.36 12.71
12/29/2022 2:00:00 AM 4 39.2 0.433 7.76 3.05 12.73
12/29/2022 2:15:00 AM 3.98 39.164 0.443 7.76 2.68 12.73
12/29/2022 2:30:00 AM 3.96 39.128 0.444 7.76 3.55 12.74
12/29/2022 2:45:00 AM 3.93 39.074 0.435 7.76 2.88 12.75
12/29/2022 3:00:00 AM 3.9 39.02 0.444 7.76 2.91 12.75
12/29/2022 3:15:00 AM 3.88 38.984 0.445 7.75 3.17 12.76
12/29/2022 3:30:00 AM 3.85 38.93 0.446 7.76 2.96 12.77
12/29/2022 3:45:00 AM 3.83 38.894 0.447 7.76 2.6 12.77
12/29/2022 4:00:00 AM 3.8 38.84 0.449 7.76 2.84 12.78
12/29/2022 4:15:00 AM 3.78 38.804 0.428 7.76 2.98 12.79
12/29/2022 4:30:00 AM 3.75 38.75 0.452 7.76 2.63 12.8
12/29/2022 4:45:00 AM 3.73 38.714 0.45 7.76 2.9 12.8
12/29/2022 5:00:00 AM 3.7 38.66 0.455 7.77 2.95 12.81
12/29/2022 5:15:00 AM 3.66 38.588 0.456 7.77 3.05 12.82
12/29/2022 5:30:00 AM 3.63 38.534 0.457 7.77 2.64 12.83
12/29/2022 5:45:00 AM 3.61 38.498 0.458 7.77 2.59 12.84
12/29/2022 6:00:00 AM 3.58 38.444 0.459 7.76 2.76 12.84
12/29/2022 6:15:00 AM 3.56 38.408 0.459 7.77 2.93 12.84
12/29/2022 6:30:00 AM 3.53 38.354 0.459 7.78 2.7 12.86
12/29/2022 6:45:00 AM 3.51 38.318 0.455 7.77 2.61 12.87
12/29/2022 7:00:00 AM 3.48 38.264 0.46 7.78 2.43 12.88
12/29/2022 7:15:00 AM 3.46 38.228 0.449 7.77 2.51 12.89
12/29/2022 7:30:00 AM 3.43 38.174 0.46 7.76 2.71 12.9
12/29/2022 7:45:00 AM 3.4 38.12 0.46 7.77 3.49 12.92
12/29/2022 8:00:00 AM 3.39 38.102 0.46 7.77 2.7 12.94
12/29/2022 8:15:00 AM 3.39 38.102 0.46 7.76 2.17 12.97
12/29/2022 8:30:00 AM 3.39 38.102 0.46 7.76 2.27 13
12/29/2022 8:45:00 AM 3.4 38.12 0.46 7.77 2.27 13.02
12/29/2022 9:00:00 AM 3.42 38.156 0.459 7.78 2.24 13.07
12/29/2022 9:15:00 AM 3.46 38.228 0.452 7.78 2.59 13.1
12/29/2022 9:30:00 AM 3.51 38.318 0.459 7.78 2.03 13.13
12/29/2022 9:45:00 AM 3.56 38.408 0.459 7.78 2.33 13.15
12/29/2022 10:00:00 AM 3.62 38.516 0.459 7.79 1.6 13.17
12/29/2022 10:15:00 AM 3.68 38.624 0.455 7.79 2.34 13.19
12/29/2022 10:30:00 AM 3.75 38.75 0.458 7.79 2.1 13.21
12/29/2022 10:45:00 AM 3.82 38.876 0.456 7.79 2.84 13.23
12/29/2022 11:00:00 AM 3.91 39.038 0.456 7.8 2.83 13.24
12/29/2022 11:15:00 AM 4 39.2 0.437 7.8 2.71 13.25
12/29/2022 11:30:00 AM 4.09 39.362 0.453 7.8 2.33 13.26
12/29/2022 11:45:00 AM 4.18 39.524 0.452 7.8 1.97 13.26
12/29/2022 12:00:00 PM 4.26 39.668 0.449 7.8 2.83 13.27
12/29/2022 12:15:00 PM 4.34 39.812 0.445 7.8 2.6 13.27
12/29/2022 12:30:00 PM 4.41 39.938 0.45 7.8 2.61 13.27
12/29/2022 12:45:00 PM 4.49 40.082 0.449 7.8 2.49 13.25
12/29/2022 1:00:00 PM 4.55 40.19 0.449 7.8 2.24 13.25
12/29/2022 1:15:00 PM 4.61 40.298 0.449 7.81 2.21 13.23
12/29/2022 1:30:00 PM 4.66 40.388 0.448 7.81 5.83 13.22
12/29/2022 1:45:00 PM 4.69 40.442 0.448 7.8 3.21 13.2
12/29/2022 2:00:00 PM 4.72 40.496 0.448 7.8 4.56 13.19
12/29/2022 2:15:00 PM 4.74 40.532 0.448 7.8 2.79 13.17
12/29/2022 2:30:00 PM 4.77 40.586 0.447 7.81 2.84 13.15
12/29/2022 2:45:00 PM 4.79 40.622 0.447 7.81 3.09 13.12
12/29/2022 3:00:00 PM 4.81 40.658 0.447 7.8 2.87 13.11
12/29/2022 3:15:00 PM 4.84 40.712 0.447 7.81 2.91 13.07
12/29/2022 3:30:00 PM 4.86 40.748 0.447 7.8 2.79 13.04
12/29/2022 3:45:00 PM 4.88 40.784 0.447 7.8 2.8 13
12/29/2022 4:00:00 PM 4.9 40.82 0.447 7.8 3.1 12.98
12/29/2022 4:15:00 PM 4.91 40.838 0.447 7.79 3.26 12.89
12/29/2022 4:30:00 PM 4.92 40.856 0.447 7.8 2.81 12.91
12/29/2022 4:45:00 PM 4.91 40.838 0.447 7.79 2.77 12.82
12/29/2022 5:00:00 PM 4.9 40.82 0.447 7.79 2.38 12.84
12/29/2022 5:15:00 PM 4.88 40.784 0.447 7.79 3.06 12.81
12/29/2022 5:30:00 PM 4.86 40.748 0.447 7.79 2.93 12.78
12/29/2022 5:45:00 PM 4.85 40.73 0.447 7.79 3.65 12.75
12/29/2022 6:00:00 PM 4.84 40.712 0.447 7.79 3.58 12.73
12/29/2022 6:15:00 PM 4.82 40.676 0.447 7.78 3.26 12.71
12/29/2022 6:30:00 PM 4.81 40.658 0.447 7.78 3.58 12.7
12/29/2022 6:45:00 PM 4.79 40.622 0.447 7.78 3.37 12.69
12/29/2022 7:00:00 PM 4.78 40.604 0.446 7.78 3.13 12.68
12/29/2022 7:15:00 PM 4.76 40.568 0.446 7.79 2.95 12.66
12/29/2022 7:30:00 PM 4.74 40.532 0.446 7.78 3.46 12.65
12/29/2022 7:45:00 PM 4.73 40.514 0.446 7.78 3.17 12.65
12/29/2022 8:00:00 PM 4.71 40.478 0.446 7.78 3.29 12.64
12/29/2022 8:15:00 PM 4.69 40.442 0.446 7.78 3.27 12.63
12/29/2022 8:30:00 PM 4.68 40.424 0.446 7.78 3.03 12.61
12/29/2022 8:45:00 PM 4.66 40.388 0.446 7.77 3.19 12.62
12/29/2022 9:00:00 PM 4.65 40.37 0.446 7.78 3.19 12.6
12/29/2022 9:15:00 PM 0 32 0 0 0 0
12/29/2022 9:30:00 PM 4.62 40.316 0.445 7.78 3.16 12.6
12/29/2022 9:45:00 PM 4.6 40.28 0.446 7.77 3.15 12.6
12/29/2022 10:00:00 PM 4.6 40.28 0.445 7.77 3.05 12.6
12/29/2022 10:15:00 PM 4.62 40.316 0.445 7.77 3 12.59
12/29/2022 10:30:00 PM 4.63 40.334 0.445 7.77 2.88 12.59
12/29/2022 10:45:00 PM 4.64 40.352 0.445 7.77 3.15 12.58
12/29/2022 11:00:00 PM 4.65 40.37 0.445 7.77 3.17 12.58
12/29/2022 11:15:00 PM 4.66 40.388 0.445 7.77 3.04 12.58
12/29/2022 11:30:00 PM 4.66 40.388 0.445 7.77 3.12 12.57
12/29/2022 11:45:00 PM 4.67 40.406 0.443 7.77 2.97 12.58
12/30/2022 12:00:00 AM 4.68 40.424 0.445 7.77 2.54 12.57
12/30/2022 12:15:00 AM 4.69 40.442 0.445 7.77 2.91 12.56
12/30/2022 12:30:00 AM 4.69 40.442 0.445 7.77 2.83 12.56
12/30/2022 12:45:00 AM 4.68 40.424 0.445 7.77 2.44 12.56
12/30/2022 1:00:00 AM 4.68 40.424 0.445 7.77 3.59 12.55
12/30/2022 1:15:00 AM 4.67 40.406 0.445 7.76 2.92 12.55
12/30/2022 1:30:00 AM 4.65 40.37 0.445 7.77 2.95 12.55
12/30/2022 1:45:00 AM 4.64 40.352 0.445 7.77 3.14 12.54
12/30/2022 2:00:00 AM 4.64 40.352 0.445 7.77 2.91 12.54
12/30/2022 2:15:00 AM 4.64 40.352 0.445 7.77 2.72 12.54
12/30/2022 2:30:00 AM 4.66 40.388 0.445 7.76 3.18 12.54
12/30/2022 2:45:00 AM 4.68 40.424 0.445 7.76 2.89 12.53
12/30/2022 3:00:00 AM 4.69 40.442 0.445 7.77 3.33 12.52
12/30/2022 3:15:00 AM 4.7 40.46 0.445 7.77 3.23 12.52
12/30/2022 3:30:00 AM 4.69 40.442 0.445 7.76 3.1 12.51
12/30/2022 3:45:00 AM 4.7 40.46 0.445 7.76 3.03 12.51
12/30/2022 4:00:00 AM 4.68 40.424 0.445 7.77 2.93 12.51
12/30/2022 4:15:00 AM 4.67 40.406 0.445 7.76 2.88 12.51
12/30/2022 4:30:00 AM 4.67 40.406 0.446 7.76 3.62 12.51
12/30/2022 4:45:00 AM 4.66 40.388 0.446 7.76 3.51 12.51
12/30/2022 5:00:00 AM 4.67 40.406 0.446 7.76 3.03 12.51
12/30/2022 5:15:00 AM 4.69 40.442 0.446 7.76 3.29 12.5
12/30/2022 5:30:00 AM 4.71 40.478 0.446 7.76 3.15 12.5
12/30/2022 5:45:00 AM 4.73 40.514 0.446 7.76 2.93 12.5
12/30/2022 6:00:00 AM 4.74 40.532 0.445 7.76 3.17 12.5
12/30/2022 6:15:00 AM 4.75 40.55 0.446 7.76 3.27 12.49
12/30/2022 6:30:00 AM 4.77 40.586 0.446 7.76 3.35 12.49
12/30/2022 6:45:00 AM 4.78 40.604 0.446 7.76 3.22 12.48
12/30/2022 7:00:00 AM 4.78 40.604 0.446 7.76 3.5 12.49
12/30/2022 7:15:00 AM 4.78 40.604 0.446 7.76 5.93 12.48
12/30/2022 7:30:00 AM 4.79 40.622 0.446 7.76 3.95 12.48
12/30/2022 7:45:00 AM 4.8 40.64 0.446 7.76 3.45 12.49
12/30/2022 8:00:00 AM 4.82 40.676 0.446 7.77 2.69 12.5
12/30/2022 8:15:00 AM 4.85 40.73 0.437 7.77 3.68 12.52
12/30/2022 8:30:00 AM 4.91 40.838 0.446 7.76 2.87 12.55
12/30/2022 8:45:00 AM 4.97 40.946 0.443 7.77 2.69 12.57
12/30/2022 9:00:00 AM 5.02 41.036 0.446 7.77 2.55 12.59
12/30/2022 9:15:00 AM 5.06 41.108 0.443 7.78 2.43 12.61
12/30/2022 9:30:00 AM 5.11 41.198 0.446 7.78 2.47 12.63
12/30/2022 9:45:00 AM 5.15 41.27 0.445 7.78 2.52 12.65
12/30/2022 10:00:00 AM 5.2 41.36 0.446 7.78 2.43 12.66
12/30/2022 10:15:00 AM 5.24 41.432 0.445 7.79 2.72 12.66
12/30/2022 10:30:00 AM 5.28 41.504 0.446 7.78 2.23 12.69
12/30/2022 10:45:00 AM 5.33 41.594 0.446 7.79 2.55 12.7
12/30/2022 11:00:00 AM 5.39 41.702 0.446 7.79 2.52 12.73
12/30/2022 11:15:00 AM 5.49 41.882 0.446 7.8 2.45 12.75
12/30/2022 11:30:00 AM 5.59 42.062 0.445 7.79 2.35 12.78
12/30/2022 11:45:00 AM 5.7 42.26 0.445 7.77 2.31 12.79
12/30/2022 12:00:00 PM 5.79 42.422 0.444 7.81 2.57 12.81
12/30/2022 12:15:00 PM 5.93 42.674 0.445 7.81 3.93 12.84
12/30/2022 12:30:00 PM 6.02 42.836 0.445 7.81 2.23 12.83
12/30/2022 12:45:00 PM 6.12 43.016 0.445 7.82 2.24 12.82
12/30/2022 1:00:00 PM 6.18 43.124 0.445 7.82 2.21 12.8
12/30/2022 1:15:00 PM 6.24 43.232 0.445 7.82 2.29 12.8
12/30/2022 1:30:00 PM 6.3 43.34 0.444 7.83 2.37 12.78
12/30/2022 1:45:00 PM 6.34 43.412 0.444 7.83 2.71 12.76
12/30/2022 2:00:00 PM 6.38 43.484 0.445 7.83 2.43 12.74
12/30/2022 2:15:00 PM 6.41 43.538 0.409 7.83 2.25 12.72
12/30/2022 2:30:00 PM 6.43 43.574 0.445 7.82 2.37 12.69
12/30/2022 2:45:00 PM 6.46 43.628 0.445 7.83 2.63 12.66
12/30/2022 3:00:00 PM 6.48 43.664 0.444 7.83 2.48 12.63
12/30/2022 3:15:00 PM 6.52 43.736 0.444 7.83 2.59 12.59
12/30/2022 3:30:00 PM 6.55 43.79 0.445 7.82 3 12.54
12/30/2022 3:45:00 PM 6.58 43.844 0.444 7.82 2.48 12.5
12/30/2022 4:00:00 PM 6.6 43.88 0.444 7.82 2.78 12.45
12/30/2022 4:15:00 PM 6.62 43.916 0.443 7.81 2.58 12.41
12/30/2022 4:30:00 PM 6.63 43.934 0.444 7.81 2.69 12.37
12/30/2022 4:45:00 PM 6.63 43.934 0.444 7.81 3.11 12.29
12/30/2022 5:00:00 PM 6.62 43.916 0.444 7.81 2.61 12.27
12/30/2022 5:15:00 PM 6.6 43.88 0.444 7.8 2.8 12.23
12/30/2022 5:30:00 PM 6.59 43.862 0.444 7.8 3.1 12.2
12/30/2022 5:45:00 PM 6.56 43.808 0.443 7.81 2.84 12.17
12/30/2022 6:00:00 PM 6.54 43.772 0.443 7.8 2.92 12.15
12/30/2022 6:15:00 PM 6.52 43.736 0.443 7.8 3.38 12.13
12/30/2022 6:30:00 PM 6.5 43.7 0.443 7.8 3.44 12.11
12/30/2022 6:45:00 PM 6.48 43.664 0.443 7.8 3.84 12.1
12/30/2022 7:00:00 PM 6.45 43.61 0.443 7.79 4.07 12.09
12/30/2022 7:15:00 PM 6.43 43.574 0.443 7.79 3.95 12.06
12/30/2022 7:30:00 PM 6.4 43.52 0.442 7.8 3.93 12.06
12/30/2022 7:45:00 PM 6.37 43.466 0.442 7.79 4.07 12.05
12/30/2022 8:00:00 PM 6.34 43.412 0.442 7.79 3.98 12.04
12/30/2022 8:15:00 PM 6.31 43.358 0.442 7.79 4.22 12.04
12/30/2022 8:30:00 PM 6.29 43.322 0.442 7.79 3.88 12.03
12/30/2022 8:45:00 PM 6.26 43.268 0.442 7.79 4.2 12.02
12/30/2022 9:00:00 PM 6.24 43.232 0.442 7.78 4.26 12.02
12/30/2022 9:15:00 PM 6.22 43.196 0.442 7.79 3.99 12.01
12/30/2022 9:30:00 PM 6.19 43.142 0.441 7.79 3.64 12.01
12/30/2022 9:45:00 PM 6.17 43.106 0.442 7.78 3.91 12.02
12/30/2022 10:00:00 PM 6.15 43.07 0.442 7.78 3.76 11.95
12/30/2022 10:15:00 PM 6.14 43.052 0.441 7.79 3.78 12
12/30/2022 10:30:00 PM 6.11 42.998 0.434 7.78 3.99 12.01
12/30/2022 10:45:00 PM 6.1 42.98 0.441 7.78 4.21 12.01
12/30/2022 11:00:00 PM 6.07 42.926 0.441 7.78 3.77 12.02
12/30/2022 11:15:00 PM 6.05 42.89 0.441 7.78 4.26 12.01
12/30/2022 11:30:00 PM 6.03 42.854 0.44 7.78 3.86 12.01
12/30/2022 11:45:00 PM 6 42.8 0.441 7.78 4.22 12.01
12/31/2022 12:00:00 AM 5.98 42.764 0.441 7.78 3.75 12.02
12/31/2022 12:15:00 AM 5.96 42.728 0.439 7.78 3.83 12.02
12/31/2022 12:30:00 AM 5.94 42.692 0.441 7.78 4.04 12.01
12/31/2022 12:45:00 AM 5.92 42.656 0.441 7.78 4.04 12.02
12/31/2022 1:00:00 AM 5.91 42.638 0.441 7.77 3.88 12.02
12/31/2022 1:15:00 AM 5.89 42.602 0.441 7.78 4.22 12.02
12/31/2022 1:30:00 AM 5.87 42.566 0.441 7.77 3.97 12.03
12/31/2022 1:45:00 AM 5.86 42.548 0.441 7.78 4 12.03
12/31/2022 2:00:00 AM 5.85 42.53 0.441 7.77 4.84 12.03
12/31/2022 2:15:00 AM 5.85 42.53 0.441 7.77 4.16 12.03
12/31/2022 2:30:00 AM 5.84 42.512 0.441 7.77 3.97 12.03
12/31/2022 2:45:00 AM 5.84 42.512 0.441 7.77 4.33 12.04
12/31/2022 3:00:00 AM 5.84 42.512 0.441 7.77 4.38 12.03
12/31/2022 3:15:00 AM 5.84 42.512 0.441 7.77 5.51 12.02
12/31/2022 3:30:00 AM 5.83 42.494 0.441 7.78 4.37 12.03
12/31/2022 3:45:00 AM 5.82 42.476 0.441 7.77 4.42 12.03
12/31/2022 4:00:00 AM 5.82 42.476 0.441 7.76 4.5 12.03
12/31/2022 4:15:00 AM 5.83 42.494 0.441 7.77 4.23 12.03
12/31/2022 4:30:00 AM 5.84 42.512 0.442 7.76 4.2 12.03
12/31/2022 4:45:00 AM 5.87 42.566 0.441 7.76 3.84 12.03
12/31/2022 5:00:00 AM 5.89 42.602 0.441 7.76 4.06 12.02
12/31/2022 5:15:00 AM 5.92 42.656 0.441 7.77 4.32 12.02
12/31/2022 5:30:00 AM 5.93 42.674 0.441 7.76 3.87 12.01
12/31/2022 5:45:00 AM 5.94 42.692 0.44 7.77 3.99 12.01
12/31/2022 6:00:00 AM 5.95 42.71 0.441 7.77 4.01 12
12/31/2022 6:15:00 AM 5.96 42.728 0.441 7.77 3.87 12.01
12/31/2022 6:30:00 AM 5.97 42.746 0.441 7.77 4.2 12
12/31/2022 6:45:00 AM 5.99 42.782 0.442 7.76 4.21 12
12/31/2022 7:00:00 AM 6.01 42.818 0.441 7.77 3.79 12
12/31/2022 7:15:00 AM 6.03 42.854 0.441 7.76 3.58 12
12/31/2022 7:30:00 AM 6.04 42.872 0.441 7.77 3.81 11.99
12/31/2022 7:45:00 AM 6.06 42.908 0.441 7.77 3.67 11.98
12/31/2022 8:00:00 AM 6.08 42.944 0.441 7.77 3.95 11.98
12/31/2022 8:15:00 AM 6.09 42.962 0.441 7.77 7.75 11.99
12/31/2022 8:30:00 AM 6.11 42.998 0.441 7.77 3.74 11.99
12/31/2022 8:45:00 AM 6.14 43.052 0.441 7.77 3.75 12
12/31/2022 9:00:00 AM 6.16 43.088 0.442 7.77 3.78 12.01
12/31/2022 9:15:00 AM 6.19 43.142 0.441 7.77 3.54 12.03
12/31/2022 9:30:00 AM 6.23 43.214 0.442 7.77 3.63 12.05
12/31/2022 9:45:00 AM 6.26 43.268 0.442 7.78 2.93 12.07
12/31/2022 10:00:00 AM 6.3 43.34 0.441 7.78 3.43 12.1
12/31/2022 10:15:00 AM 6.34 43.412 0.441 7.79 4.12 12.13
12/31/2022 10:30:00 AM 6.37 43.466 0.441 7.79 3.35 12.15
12/31/2022 10:45:00 AM 6.41 43.538 0.395 7.79 3.34 12.19
12/31/2022 11:00:00 AM 6.45 43.61 0.441 7.8 2.93 12.19
12/31/2022 11:15:00 AM 6.49 43.682 0.44 7.8 3.21 12.2
12/31/2022 11:30:00 AM 6.53 43.754 0.44 7.8 3.01 12.22
12/31/2022 11:45:00 AM 6.58 43.844 0.441 7.8 2.74 12.23
12/31/2022 12:00:00 PM 6.62 43.916 0.441 7.81 3.13 12.24
12/31/2022 12:15:00 PM 6.66 43.988 0.441 7.81 1.97 12.24
12/31/2022 12:30:00 PM 6.68 44.024 0.441 7.81 2.89 12.23
12/31/2022 12:45:00 PM 6.69 44.042 0.441 7.8 2.81 12.21
12/31/2022 1:00:00 PM 6.71 44.078 0.441 7.81 2.65 12.19
12/31/2022 1:15:00 PM 6.73 44.114 0.441 7.8 2.88 12.16
12/31/2022 1:30:00 PM 6.75 44.15 0.441 7.81 3.35 12.13
12/31/2022 1:45:00 PM 6.78 44.204 0.44 7.8 2.92 12.12
12/31/2022 2:00:00 PM 6.81 44.258 0.43 7.81 2.8 12.11
12/31/2022 2:15:00 PM 6.85 44.33 0.44 7.81 2.74 12.11
12/31/2022 2:30:00 PM 6.89 44.402 0.439 7.81 2.8 12.12
12/31/2022 2:45:00 PM 6.92 44.456 0.439 7.81 2.41 12.11
12/31/2022 3:00:00 PM 6.96 44.528 0.44 7.81 3.38 12.12
12/31/2022 3:15:00 PM 6.98 44.564 0.439 7.81 2.85 12.11
12/31/2022 3:30:00 PM 6.99 44.582 0.439 7.81 2.92 12.08
12/31/2022 3:45:00 PM 7 44.6 0.439 7.81 2.96 12.04
12/31/2022 4:00:00 PM 7.01 44.618 0.439 7.81 2.74 12
12/31/2022 4:15:00 PM 7.01 44.618 0.438 7.81 2.8 11.98
12/31/2022 4:30:00 PM 7.02 44.636 0.438 7.8 3.34 11.93
12/31/2022 4:45:00 PM 7.02 44.636 0.438 7.79 3.02 11.89
12/31/2022 5:00:00 PM 7.03 44.654 0.438 7.79 3.51 11.86
12/31/2022 5:15:00 PM 7.04 44.672 0.438 7.79 3.18 11.83
12/31/2022 5:30:00 PM 7.05 44.69 0.438 7.79 3.77 11.82
12/31/2022 5:45:00 PM 7.06 44.708 0.437 7.79 4.67 11.8
12/31/2022 6:00:00 PM 7.07 44.726 0.437 7.79 4.06 11.78
12/31/2022 6:15:00 PM 7.09 44.762 0.436 7.79 3.64 11.77
12/31/2022 6:30:00 PM 7.1 44.78 0.436 7.79 4.1 11.75
12/31/2022 6:45:00 PM 7.11 44.798 0.435 7.79 3.68 11.74
12/31/2022 7:00:00 PM 7.12 44.816 0.435 7.79 4.58 11.72
12/31/2022 7:15:00 PM 7.13 44.834 0.434 7.79 4.64 11.7
12/31/2022 7:30:00 PM 7.14 44.852 0.434 7.78 4.76 11.69
12/31/2022 7:45:00 PM 7.15 44.87 0.433 7.78 4.69 11.69
12/31/2022 8:00:00 PM 7.17 44.906 0.43 7.78 4.98 11.68
12/31/2022 8:15:00 PM 7.18 44.924 0.429 7.78 5.28 11.67
12/31/2022 8:30:00 PM 7.18 44.924 0.429 7.79 6.39 11.65
12/31/2022 8:45:00 PM 7.17 44.906 0.428 7.78 5.34 11.64
12/31/2022 9:00:00 PM 7.17 44.906 0.426 7.78 5.41 11.63
12/31/2022 9:15:00 PM 7.16 44.888 0.428 7.77 5.31 11.62
12/31/2022 9:30:00 PM 7.16 44.888 0.427 7.77 5.43 11.61
12/31/2022 9:45:00 PM 7.16 44.888 0.427 7.77 5.75 11.61
12/31/2022 10:00:00 PM 7.16 44.888 0.426 7.77 6.11 11.61
12/31/2022 10:15:00 PM 7.17 44.906 0.425 7.77 5.93 11.6
12/31/2022 10:30:00 PM 7.18 44.924 0.424 7.77 6.19 11.6
12/31/2022 10:45:00 PM 7.18 44.924 0.423 7.77 7.23 11.6
12/31/2022 11:00:00 PM 7.18 44.924 0.422 7.79 7.78 11.6
12/31/2022 11:15:00 PM 7.18 44.924 0.422 7.77 8.11 11.6
12/31/2022 11:30:00 PM 7.18 44.924 0.421 7.77 8.39 11.6
12/31/2022 11:45:00 PM 7.18 44.924 0.421 7.77 8.49 11.6
1/1/2023 12:00:00 AM 7.18 44.924 0.42 7.76 10.71 11.6
1/1/2023 12:15:00 AM 7.19 44.942 0.419 7.77 9.33 11.6
1/1/2023 12:30:00 AM 7.19 44.942 0.418 7.77 11.37 11.6
1/1/2023 12:45:00 AM 7.19 44.942 0.417 7.77 13.28 11.6
1/1/2023 1:00:00 AM 7.17 44.906 0.41 7.77 15.15 11.61
1/1/2023 1:15:00 AM 7.15 44.87 0.413 7.77 14.96 11.62
1/1/2023 1:30:00 AM 7.13 44.834 0.412 7.77 14.76 11.62
1/1/2023 1:45:00 AM 7.11 44.798 0.409 7.78 23.28 11.64
1/1/2023 2:00:00 AM 7.09 44.762 0.408 7.77 15.55 11.65
1/1/2023 2:15:00 AM 7.08 44.744 0.405 7.77 20.19 11.66
1/1/2023 2:30:00 AM 7.06 44.708 0.403 7.77 19.49 11.66
1/1/2023 2:45:00 AM 7.04 44.672 0.402 7.77 19.18 11.67
1/1/2023 3:00:00 AM 7.02 44.636 0.4 7.77 18.99 11.68
1/1/2023 3:15:00 AM 7 44.6 0.399 7.71 19.02 11.67
1/1/2023 3:30:00 AM 6.98 44.564 0.398 7.77 22.31 11.68
1/1/2023 3:45:00 AM 6.98 44.564 0.397 7.78 27.58 11.68
1/1/2023 4:00:00 AM 6.97 44.546 0.397 7.77 24.64 11.68
1/1/2023 4:15:00 AM 6.94 44.492 0.396 7.77 27.28 11.69
1/1/2023 4:30:00 AM 6.9 44.42 0.396 7.77 39.51 11.69
1/1/2023 4:45:00 AM 6.85 44.33 0.394 7.76 36.53 11.7
1/1/2023 5:00:00 AM 6.8 44.24 0.393 7.76 39.45 11.71
1/1/2023 5:15:00 AM 6.75 44.15 0.389 7.76 39.96 11.71
1/1/2023 5:30:00 AM 6.71 44.078 0.391 7.63 34.39 11.71
1/1/2023 5:45:00 AM 6.67 44.006 0.389 7.76 35.82 11.73
1/1/2023 6:00:00 AM 6.64 43.952 0.389 7.76 36.83 11.73
1/1/2023 6:15:00 AM 6.6 43.88 0.388 7.75 29.15 11.74
1/1/2023 6:30:00 AM 6.57 43.826 0.388 7.75 35.27 11.74
1/1/2023 6:45:00 AM 6.54 43.772 0.387 7.75 31.18 11.76
1/1/2023 7:00:00 AM 6.51 43.718 0.387 7.76 29.08 11.76
1/1/2023 7:15:00 AM 6.48 43.664 0.19 7.75 29.64 11.78
1/1/2023 7:30:00 AM 6.45 43.61 0.386 7.75 26.15 11.76
1/1/2023 7:45:00 AM 6.41 43.538 0.386 7.74 31.54 11.78
1/1/2023 8:00:00 AM 6.38 43.484 0.385 7.75 28.99 11.79
1/1/2023 8:15:00 AM 6.36 43.448 0.385 7.55 28.36 11.81
1/1/2023 8:30:00 AM 6.35 43.43 0.385 7.75 26.81 11.83
1/1/2023 8:45:00 AM 6.36 43.448 0.385 7.74 49.81 11.85
1/1/2023 9:00:00 AM 6.37 43.466 0.385 7.75 25.04 11.87
1/1/2023 9:15:00 AM 6.38 43.484 0.386 7.75 24.22 11.92
1/1/2023 9:30:00 AM 6.39 43.502 0.386 7.75 20.8 11.96
1/1/2023 9:45:00 AM 6.39 43.502 0.386 7.76 24.05 11.96
1/1/2023 10:00:00 AM 6.39 43.502 0.387 7.75 19.31 12
1/1/2023 10:15:00 AM 6.4 43.52 0.387 7.76 19.63 11.97
1/1/2023 10:30:00 AM 6.44 43.592 0.388 7.76 21.81 12.05
1/1/2023 10:45:00 AM 6.5 43.7 0.388 7.77 19.5 12.07
1/1/2023 11:00:00 AM 6.57 43.826 0.389 7.77 20.67 12.11
1/1/2023 11:15:00 AM 6.65 43.97 0.389 7.77 21.87 12.13
1/1/2023 11:30:00 AM 6.71 44.078 0.39 7.78 18.42 12.17
1/1/2023 11:45:00 AM 6.79 44.222 0.391 7.78 20.74 12.18
1/1/2023 12:00:00 PM 6.85 44.33 0.391 7.78 20.49 12.16
1/1/2023 12:15:00 PM 6.91 44.438 0.392 7.79 22.3 12.19
1/1/2023 12:30:00 PM 6.95 44.51 0.392 7.79 21.42 12.18
1/1/2023 12:45:00 PM 6.96 44.528 0.388 7.79 19.03 12.16
1/1/2023 1:00:00 PM 6.97 44.546 0.394 7.79 20.34 12.17
1/1/2023 1:15:00 PM 6.98 44.564 0.394 7.79 20.62 12.18
1/1/2023 1:30:00 PM 7.02 44.636 0.395 7.79 18.76 12.17
1/1/2023 1:45:00 PM 7.05 44.69 0.392 7.8 17.68 12.15
1/1/2023 2:00:00 PM 7.09 44.762 0.396 7.79 25.93 12.16
1/1/2023 2:15:00 PM 7.12 44.816 0.397 7.79 19.66 12.15
1/1/2023 2:30:00 PM 7.16 44.888 0.397 7.8 19.51 12.15
1/1/2023 2:45:00 PM 7.19 44.942 0.398 7.8 18.7 12.13
1/1/2023 3:00:00 PM 7.21 44.978 0.398 7.81 19.78 12.11
1/1/2023 3:15:00 PM 7.21 44.978 0.398 7.8 21.27 12.08
1/1/2023 3:30:00 PM 7.21 44.978 0.399 7.79 16.92 12.05
1/1/2023 3:45:00 PM 7.2 44.96 0.399 7.79 17.72 12.03
1/1/2023 4:00:00 PM 7.19 44.942 0.4 7.79 18.23 11.99
1/1/2023 4:15:00 PM 7.19 44.942 0.401 7.79 17.19 11.95
1/1/2023 4:30:00 PM 7.18 44.924 0.401 7.79 18.15 11.93
1/1/2023 4:45:00 PM 7.18 44.924 0.402 7.78 17.84 11.91
1/1/2023 5:00:00 PM 7.16 44.888 0.402 7.79 15.84 11.89
1/1/2023 5:15:00 PM 7.14 44.852 0.402 7.78 16.47 11.87
1/1/2023 5:30:00 PM 7.12 44.816 0.4 7.78 16.13 11.84
1/1/2023 5:45:00 PM 7.1 44.78 0.401 7.78 16.25 11.82
1/1/2023 6:00:00 PM 7.08 44.744 0.403 7.78 16.55 11.8
1/1/2023 6:15:00 PM 7.07 44.726 0.391 7.78 17.4 11.78
1/1/2023 6:30:00 PM 7.05 44.69 0.394 7.78 16.15 11.77
1/1/2023 6:45:00 PM 7.05 44.69 0.405 7.79 15.25 11.76
1/1/2023 7:00:00 PM 7.05 44.69 0.406 7.79 14.98 11.74
1/1/2023 7:15:00 PM 7.06 44.708 0.406 7.77 17.89 11.72
1/1/2023 7:30:00 PM 7.06 44.708 0.406 7.77 15.49 11.71
1/1/2023 7:45:00 PM 7.06 44.708 0.406 7.76 14.55 11.71
1/1/2023 8:00:00 PM 7.05 44.69 0.406 7.77 13.53 11.7
1/1/2023 8:15:00 PM 7.03 44.654 0.407 7.77 12.69 11.69
1/1/2023 8:30:00 PM 7 44.6 0.407 7.76 11.8 11.68
1/1/2023 8:45:00 PM 6.98 44.564 0.408 7.78 12.74 11.68
1/1/2023 9:00:00 PM 6.95 44.51 0.408 7.76 12.14 11.67
1/1/2023 9:15:00 PM 6.92 44.456 0.409 7.76 12.43 11.61
1/1/2023 9:30:00 PM 6.9 44.42 0.408 7.76 12.81 11.67
1/1/2023 9:45:00 PM 6.88 44.384 0.409 7.76 11.78 11.68
1/1/2023 10:00:00 PM 6.88 44.384 0.409 7.77 10.68 11.67
1/1/2023 10:15:00 PM 6.89 44.402 0.41 7.77 11.67 11.67
1/1/2023 10:30:00 PM 6.89 44.402 0.41 7.76 10.44 11.67
1/1/2023 10:45:00 PM 6.89 44.402 0.41 7.76 10.53 11.66
1/1/2023 11:00:00 PM 6.88 44.384 0.41 7.77 11.56 11.66
1/1/2023 11:15:00 PM 6.88 44.384 0.411 7.76 11.03 11.66
1/1/2023 11:30:00 PM 6.88 44.384 0.411 7.75 10.56 11.65
1/1/2023 11:45:00 PM 6.88 44.384 0.411 7.76 9.68 11.65
1/2/2023 12:00:00 AM 6.88 44.384 0.412 7.76 11.71 11.66
1/2/2023 12:15:00 AM 6.87 44.366 0.412 7.76 9.2 11.66
1/2/2023 12:30:00 AM 6.86 44.348 0.412 7.75 11.78 11.66
1/2/2023 12:45:00 AM 6.84 44.312 0.409 7.76 8.59 11.66
1/2/2023 1:00:00 AM 6.81 44.258 0.408 7.76 8.96 11.66
1/2/2023 1:15:00 AM 6.78 44.204 0.412 7.76 8.88 11.66
1/2/2023 1:30:00 AM 6.77 44.186 0.413 7.76 8.3 11.66
1/2/2023 1:45:00 AM 6.76 44.168 0.413 7.76 7.97 11.66
1/2/2023 2:00:00 AM 6.74 44.132 0.412 7.76 8.12 11.67
1/2/2023 2:15:00 AM 6.72 44.096 0.415 7.77 7.83 11.67
1/2/2023 2:30:00 AM 6.7 44.06 0.415 7.76 7.77 11.68
1/2/2023 2:45:00 AM 6.68 44.024 0.415 7.76 8.3 11.68
1/2/2023 3:00:00 AM 6.67 44.006 0.413 7.76 8.35 11.69
1/2/2023 3:15:00 AM 6.66 43.988 0.416 7.76 7.62 11.69
1/2/2023 3:30:00 AM 6.65 43.97 0.257 7.76 7.47 11.68
1/2/2023 3:45:00 AM 6.64 43.952 0.416 7.76 8.01 11.69
1/2/2023 4:00:00 AM 6.63 43.934 0.416 7.75 7.65 11.69
1/2/2023 4:15:00 AM 6.62 43.916 0.417 7.75 7.88 11.69
1/2/2023 4:30:00 AM 6.6 43.88 0.417 7.76 7.45 11.7
1/2/2023 4:45:00 AM 6.58 43.844 0.414 7.76 7.8 11.71
1/2/2023 5:00:00 AM 6.57 43.826 0.412 7.76 7.46 11.71
1/2/2023 5:15:00 AM 6.56 43.808 0.417 7.75 7.85 11.71
1/2/2023 5:30:00 AM 6.56 43.808 0.418 7.76 7.04 11.72
1/2/2023 5:45:00 AM 6.55 43.79 0.41 7.74 7.5 11.73
1/2/2023 6:00:00 AM 6.54 43.772 0.419 7.76 7.33 11.73
1/2/2023 6:15:00 AM 6.54 43.772 0.419 7.75 6.57 11.73
1/2/2023 6:30:00 AM 6.53 43.754 0.419 7.75 6.61 11.75
1/2/2023 6:45:00 AM 6.52 43.736 0.418 7.75 7.47 11.75
1/2/2023 7:00:00 AM 6.5 43.7 0.416 7.75 28.98 11.76
1/2/2023 7:15:00 AM 6.47 43.646 0.42 7.75 6.86 11.76
1/2/2023 7:30:00 AM 6.44 43.592 0.42 7.75 6.81 11.78
1/2/2023 7:45:00 AM 6.42 43.556 0.421 7.75 5.69 11.79
1/2/2023 8:00:00 AM 6.42 43.556 0.421 7.75 21.18 11.81
1/2/2023 8:15:00 AM 6.43 43.574 0.421 7.76 6.11 11.83
1/2/2023 8:30:00 AM 6.44 43.592 0.422 7.75 5.18 11.85
1/2/2023 8:45:00 AM 6.46 43.628 0.421 7.76 5.76 11.88
1/2/2023 9:00:00 AM 6.49 43.682 0.421 7.76 5.27 11.91
1/2/2023 9:15:00 AM 6.51 43.718 0.413 7.77 4.78 11.95
1/2/2023 9:30:00 AM 6.52 43.736 0.422 7.77 4.46 11.98
1/2/2023 9:45:00 AM 6.53 43.754 0.421 7.77 4.46 12.01
1/2/2023 10:00:00 AM 6.54 43.772 0.377 7.77 4.27 12.03
1/2/2023 10:15:00 AM 6.56 43.808 0.422 7.78 4.63 12.06
1/2/2023 10:30:00 AM 6.58 43.844 0.409 7.78 4.47 12.11
1/2/2023 10:45:00 AM 6.63 43.934 0.407 7.79 5.69 12.15
1/2/2023 11:00:00 AM 6.68 44.024 0.422 7.8 4.63 12.19
1/2/2023 11:15:00 AM 6.74 44.132 0.423 7.8 4.47 12.23
1/2/2023 11:30:00 AM 6.77 44.186 0.246 7.8 4 12.25
1/2/2023 11:45:00 AM 6.78 44.204 0.423 7.8 4 12.26
1/2/2023 12:00:00 PM 6.8 44.24 0.422 7.8 3.65 12.28
1/2/2023 12:15:00 PM 6.83 44.294 0.423 7.8 3.8 12.29
1/2/2023 12:30:00 PM 6.87 44.366 0.423 7.81 3.98 12.31
1/2/2023 12:45:00 PM 6.92 44.456 0.421 7.81 3.87 12.33
1/2/2023 1:00:00 PM 6.98 44.564 0.424 7.83 3.93 12.36
1/2/2023 1:15:00 PM 7.03 44.654 0.423 7.82 3.84 12.37
1/2/2023 1:30:00 PM 7.05 44.69 0.424 7.82 4.58 12.35
1/2/2023 1:45:00 PM 7.07 44.726 0.391 7.82 3.54 12.32
1/2/2023 2:00:00 PM 7.08 44.744 0.247 7.81 3.55 12.3
1/2/2023 2:15:00 PM 7.1 44.78 0.424 7.83 0.97 12.25
1/2/2023 2:30:00 PM 7.11 44.798 0.425 7.82 3.91 12.2
1/2/2023 2:45:00 PM 7.12 44.816 0.395 7.81 3.97 12.16
1/2/2023 3:00:00 PM 7.14 44.852 0.425 7.81 4.12 12.12
1/2/2023 3:15:00 PM 7.17 44.906 0.425 7.81 3.58 12.1
1/2/2023 3:30:00 PM 7.2 44.96 0.425 7.79 4.02 12.09
1/2/2023 3:45:00 PM 7.23 45.014 0.425 7.81 3.54 12.06
1/2/2023 4:00:00 PM 7.25 45.05 0.414 7.81 3.73 12.02
1/2/2023 4:15:00 PM 7.27 45.086 0.425 7.8 3.99 12
1/2/2023 4:30:00 PM 7.28 45.104 0.425 7.8 3.91 11.96
1/2/2023 4:45:00 PM 7.28 45.104 0.426 7.8 7.47 11.93
1/2/2023 5:00:00 PM 7.29 45.122 0.426 7.8 4.04 11.89
1/2/2023 5:15:00 PM 7.3 45.14 0.426 7.79 7.48 11.86
1/2/2023 5:30:00 PM 7.3 45.14 0.416 7.8 3.85 11.83
1/2/2023 5:45:00 PM 7.31 45.158 0.426 7.79 4.11 11.81
1/2/2023 6:00:00 PM 7.32 45.176 0.426 7.79 3.93 11.79
1/2/2023 6:15:00 PM 7.33 45.194 0.426 7.79 5.76 11.78
1/2/2023 6:30:00 PM 7.34 45.212 0.426 7.79 5.03 11.76
1/2/2023 6:45:00 PM 7.35 45.23 0.425 7.79 4.48 11.75
1/2/2023 7:00:00 PM 7.36 45.248 0.427 7.79 4.59 11.72
1/2/2023 7:15:00 PM 7.37 45.266 0.426 7.79 7.3 11.71
1/2/2023 7:30:00 PM 7.38 45.284 0.425 7.79 4.13 11.7
1/2/2023 7:45:00 PM 7.39 45.302 0.426 7.79 4.08 11.68
1/2/2023 8:00:00 PM 7.4 45.32 0.426 7.78 3.65 11.67
1/2/2023 8:15:00 PM 7.4 45.32 0.426 7.78 4.14 11.66
1/2/2023 8:30:00 PM 7.41 45.338 0.426 7.79 3.72 11.65
1/2/2023 8:45:00 PM 7.42 45.356 0.426 7.78 4.03 11.64
1/2/2023 9:00:00 PM 7.42 45.356 0.426 7.78 4.33 11.63
1/2/2023 9:15:00 PM 7.43 45.374 0.426 7.78 4.47 11.62
1/2/2023 9:30:00 PM 7.44 45.392 0.426 7.78 4.18 11.61
1/2/2023 9:45:00 PM 7.45 45.41 0.426 7.76 4.1 11.6
1/2/2023 10:00:00 PM 7.46 45.428 0.426 7.78 4.36 11.6
1/2/2023 10:15:00 PM 7.47 45.446 0.422 7.78 4.54 11.58
1/2/2023 10:30:00 PM 7.48 45.464 0.411 7.77 4.39 11.58
1/2/2023 10:45:00 PM 7.49 45.482 0.426 7.78 4.88 11.57
1/2/2023 11:00:00 PM 7.5 45.5 0.426 7.77 4.02 11.57
1/2/2023 11:15:00 PM 7.51 45.518 0.426 7.77 4.38 11.56
1/2/2023 11:30:00 PM 7.52 45.536 0.426 7.78 4.82 11.55
1/2/2023 11:45:00 PM 7.52 45.536 0.426 7.78 4.32 11.55
1/3/2023 12:00:00 AM 7.53 45.554 0.423 7.78 4.43 11.54
1/3/2023 12:15:00 AM 7.54 45.572 0.419 7.77 5.1 11.53
1/3/2023 12:30:00 AM 7.54 45.572 0.425 7.78 4.5 11.53
1/3/2023 12:45:00 AM 7.55 45.59 0.425 7.77 4.29 11.53
1/3/2023 1:00:00 AM 7.56 45.608 0.425 7.78 4.73 11.53
1/3/2023 1:15:00 AM 7.56 45.608 0.425 7.78 4.37 11.52
1/3/2023 1:30:00 AM 7.58 45.644 0.425 7.78 4.39 11.51
1/3/2023 1:45:00 AM 7.59 45.662 0.425 7.77 4.33 11.51
1/3/2023 2:00:00 AM 7.6 45.68 0.419 7.77 4.65 11.5
1/3/2023 2:15:00 AM 7.61 45.698 0.424 7.78 4.25 11.5
1/3/2023 2:30:00 AM 7.62 45.716 0.256 7.78 4.27 11.5
1/3/2023 2:45:00 AM 7.62 45.716 0.424 7.77 4.82 11.49
1/3/2023 3:00:00 AM 7.63 45.734 0.424 7.78 3.99 11.48
1/3/2023 3:15:00 AM 7.64 45.752 0.424 7.77 4.51 11.48
1/3/2023 3:30:00 AM 7.65 45.77 0.423 7.78 4.71 11.47
1/3/2023 3:45:00 AM 7.65 45.77 0.413 7.77 4.77 11.47
1/3/2023 4:00:00 AM 7.66 45.788 0.424 7.75 5.37 11.45
1/3/2023 4:15:00 AM 7.67 45.806 0.383 7.78 5.02 11.46
1/3/2023 4:30:00 AM 7.67 45.806 0.422 7.77 4.93 11.45
1/3/2023 4:45:00 AM 7.67 45.806 0.424 7.78 4.98 11.45
1/3/2023 5:00:00 AM 7.67 45.806 0.424 7.77 4.64 11.44
1/3/2023 5:15:00 AM 7.66 45.788 0.424 7.77 4.8 11.44
1/3/2023 5:30:00 AM 7.67 45.806 0.424 7.78 5.1 11.43
1/3/2023 5:45:00 AM 7.67 45.806 0.423 7.78 4.85 11.43
1/3/2023 6:00:00 AM 7.67 45.806 0.424 7.78 4.04 11.43
1/3/2023 6:15:00 AM 7.68 45.824 0.424 7.78 4.61 11.42
1/3/2023 6:30:00 AM 7.69 45.842 0.424 7.78 5.27 11.42
1/3/2023 6:45:00 AM 7.69 45.842 0.419 7.77 5.07 11.42
1/3/2023 7:00:00 AM 7.69 45.842 0.424 7.77 4.52 11.42
1/3/2023 7:15:00 AM 7.69 45.842 0.424 7.77 4.5 11.41
1/3/2023 7:30:00 AM 7.69 45.842 0.424 7.78 4.65 11.41
1/3/2023 7:45:00 AM 7.7 45.86 0.424 7.77 4.56 11.41
1/3/2023 8:00:00 AM 7.72 45.896 0.424 7.77 4.59 11.42
1/3/2023 8:15:00 AM 7.73 45.914 0.424 7.78 4.2 11.42
1/3/2023 8:30:00 AM 7.74 45.932 0.424 7.76 4.37 11.43
1/3/2023 8:45:00 AM 7.76 45.968 0.423 7.78 4.68 11.44
1/3/2023 9:00:00 AM 7.77 45.986 0.423 7.78 4.32 11.45
1/3/2023 9:15:00 AM 7.78 46.004 0.421 7.79 4.56 11.46
1/3/2023 9:30:00 AM 7.79 46.022 0.42 7.79 4.85 11.47
1/3/2023 9:45:00 AM 7.8 46.04 0.417 7.79 4.89 11.51
1/3/2023 10:00:00 AM 7.82 46.076 0.419 7.8 4.68 11.54
1/3/2023 10:15:00 AM 7.84 46.112 0.418 7.8 4.94 11.56
1/3/2023 10:30:00 AM 7.86 46.148 0.419 7.64 4.76 11.59
1/3/2023 10:45:00 AM 7.88 46.184 0.415 7.8 4.5 11.63
1/3/2023 11:00:00 AM 7.89 46.202 0.416 7.81 4.14 11.66
1/3/2023 11:15:00 AM 7.9 46.22 0.418 7.81 4.27 11.66
1/3/2023 11:30:00 AM 7.92 46.256 0.417 7.81 4.32 11.69
1/3/2023 11:45:00 AM 7.95 46.31 0.417 7.81 4.46 11.7
1/3/2023 12:00:00 PM 7.97 46.346 0.415 7.81 4.3 11.72
1/3/2023 12:15:00 PM 8 46.4 0.414 7.82 4.89 11.76
1/3/2023 12:30:00 PM 8.05 46.49 0.413 7.83 5.53 11.81
1/3/2023 12:45:00 PM 8.08 46.544 0.399 7.83 5.33 11.83
1/3/2023 1:00:00 PM 8.11 46.598 0.411 7.83 5.76 11.85
1/3/2023 1:15:00 PM 8.13 46.634 0.409 7.84 6.36 11.87
1/3/2023 1:30:00 PM 8.14 46.652 0.409 7.84 6.26 11.88
1/3/2023 1:45:00 PM 8.16 46.688 0.408 7.84 7.79 11.88
1/3/2023 2:00:00 PM 8.17 46.706 0.407 7.84 8.3 11.88
1/3/2023 2:15:00 PM 8.18 46.724 0.406 7.84 10.16 11.87
1/3/2023 2:30:00 PM 8.19 46.742 0.405 7.85 11.27 11.84
1/3/2023 2:45:00 PM 8.19 46.742 0.404 7.85 12.19 11.82
1/3/2023 3:00:00 PM 8.2 46.76 0.377 7.84 13.27 11.79
1/3/2023 3:15:00 PM 8.21 46.778 0.241 7.84 25.32 11.77
1/3/2023 3:30:00 PM 8.21 46.778 0.396 7.84 8.59 11.76
1/3/2023 3:45:00 PM 8.2 46.76 0.249 7.84 22.41 11.73
1/3/2023 4:00:00 PM 8.19 46.742 0.389 7.85 31.62 11.7
1/3/2023 4:15:00 PM 8.17 46.706 0.385 7.78 28.4 11.67
1/3/2023 4:30:00 PM 8.15 46.67 0.262 7.8 33.23 11.66
1/3/2023 4:45:00 PM 8.13 46.634 0.379 7.71 43.63 11.64
1/3/2023 5:00:00 PM 8.11 46.598 0.376 7.78 45.53 11.61
1/3/2023 5:15:00 PM 8.08 46.544 0.215 7.7 58.59 11.57
1/3/2023 5:30:00 PM 8.06 46.508 0.372 7.82 253.04 11.55
1/3/2023 5:45:00 PM 8.05 46.49 0.37 7.72 61.88 11.54
1/3/2023 6:00:00 PM 8.04 46.472 0.218 7.78 82.21 11.53
1/3/2023 6:15:00 PM 8.03 46.454 0.247 7.71 85.51 11.53
1/3/2023 6:30:00 PM 8.03 46.454 0.356 7.77 73.21 11.52
1/3/2023 6:45:00 PM 8.02 46.436 0.357 7.76 66.5 11.5
1/3/2023 7:00:00 PM 8.01 46.418 0.353 7.69 87.12 11.47
1/3/2023 7:15:00 PM 8 46.4 0.255 7.74 74.95 11.45
1/3/2023 7:30:00 PM 7.99 46.382 0.346 7.73 68.39 11.44
1/3/2023 7:45:00 PM 7.98 46.364 0.344 7.73 83.2 11.43
1/3/2023 8:00:00 PM 7.97 46.346 0.338 7.73 82.39 11.42
1/3/2023 8:15:00 PM 7.97 46.346 0.34 7.72 83.19 11.4
1/3/2023 8:30:00 PM 7.97 46.346 0.34 7.71 65.39 11.39
1/3/2023 8:45:00 PM 7.97 46.346 0.339 7.61 69.39 11.38
1/3/2023 9:00:00 PM 7.97 46.346 0.234 7.72 80.87 11.37
1/3/2023 9:15:00 PM 7.97 46.346 0.217 7.72 58.48 11.36
1/3/2023 9:30:00 PM 7.97 46.346 0.203 7.72 62.29 11.35
1/3/2023 9:45:00 PM 7.97 46.346 0.199 7.72 66.58 11.33
1/3/2023 10:00:00 PM 7.96 46.328 0.195 7.72 63.13 11.32
1/3/2023 10:15:00 PM 7.95 46.31 0.194 7.71 59.4 11.31
1/3/2023 10:30:00 PM 7.95 46.31 0.185 7.71 67.63 11.3
1/3/2023 10:45:00 PM 7.95 46.31 0.172 7.71 60.87 11.29
1/3/2023 11:00:00 PM 7.95 46.31 0.168 7.71 62.65 11.28
1/3/2023 11:15:00 PM 7.95 46.31 0.151 7.71 71.46 11.27
1/3/2023 11:30:00 PM 7.95 46.31 0.15 7.71 59.72 11.26
1/3/2023 11:45:00 PM 7.96 46.328 0.147 7.72 47.1 11.26
1/4/2023 12:00:00 AM 7.96 46.328 0.152 7.71 52.72 11.26
1/4/2023 12:15:00 AM 7.96 46.328 0.153 7.71 48.22 11.24
1/4/2023 12:30:00 AM 7.95 46.31 0.153 7.71 52.7 11.24
1/4/2023 12:45:00 AM 7.95 46.31 0.151 7.71 53.74 11.24
1/4/2023 1:00:00 AM 7.95 46.31 0.15 7.7 44.29 11.23
1/4/2023 1:15:00 AM 7.95 46.31 0.149 7.7 45.11 11.23
1/4/2023 1:30:00 AM 7.95 46.31 0.149 7.7 39.6 11.22
1/4/2023 1:45:00 AM 7.94 46.292 0.151 7.7 53.62 11.23
1/4/2023 2:00:00 AM 7.94 46.292 0.149 7.71 45.38 11.22
1/4/2023 2:15:00 AM 7.93 46.274 0.153 7.67 39.21 11.22
1/4/2023 2:30:00 AM 7.93 46.274 0.15 7.71 55.33 11.22
1/4/2023 2:45:00 AM 7.93 46.274 0.151 7.64 43.44 11.22
1/4/2023 3:00:00 AM 7.94 46.292 0.165 7.69 41.25 11.22
1/4/2023 3:15:00 AM 7.93 46.274 0.169 7.69 32.57 11.22
1/4/2023 3:30:00 AM 7.92 46.256 0.165 7.69 30.23 11.22
1/4/2023 3:45:00 AM 7.91 46.238 0.163 7.69 32.7 11.22
1/4/2023 4:00:00 AM 7.9 46.22 0.162 7.7 33.29 11.22
1/4/2023 4:15:00 AM 7.89 46.202 0.16 7.69 33.15 11.22
1/4/2023 4:30:00 AM 7.87 46.166 0.16 7.69 34.82 11.22
1/4/2023 4:45:00 AM 7.87 46.166 0.165 7.69 32.73 11.23
1/4/2023 5:00:00 AM 7.86 46.148 0.164 7.7 34.54 11.23
1/4/2023 5:15:00 AM 7.85 46.13 0.165 7.7 33.01 11.23
1/4/2023 5:30:00 AM 7.83 46.094 0.166 7.7 32.61 11.23
1/4/2023 5:45:00 AM 7.82 46.076 0.161 7.7 34.38 11.24
1/4/2023 6:00:00 AM 7.81 46.058 0.157 7.7 32.95 11.24
1/4/2023 6:15:00 AM 7.8 46.04 0.159 7.7 33.62 11.25
1/4/2023 6:30:00 AM 7.8 46.04 0.159 7.7 32.14 11.25
1/4/2023 6:45:00 AM 7.79 46.022 0.163 7.7 35.45 11.26
1/4/2023 7:00:00 AM 7.78 46.004 0.164 7.7 36.13 11.26
1/4/2023 7:15:00 AM 7.78 46.004 0.165 7.7 43.19 11.27
1/4/2023 7:30:00 AM 7.77 45.986 0.169 7.7 44.21 11.27
1/4/2023 7:45:00 AM 7.77 45.986 0.168 7.69 136.1 11.28
1/4/2023 8:00:00 AM 7.77 45.986 0.167 7.7 352.46 11.29
1/4/2023 8:15:00 AM 7.77 45.986 0.165 7.7 64.52 11.3
1/4/2023 8:30:00 AM 7.78 46.004 0.164 7.71 79.44 11.32
1/4/2023 8:45:00 AM 7.78 46.004 0.164 7.72 72.94 11.35
1/4/2023 9:00:00 AM 7.8 46.04 0.169 7.67 2957.93 11.37
1/4/2023 9:15:00 AM 7.82 46.076 0.17 7.71 5111.16 11.41
1/4/2023 9:30:00 AM 7.84 46.112 0.172 7.72 1530.84 11.44
1/4/2023 9:45:00 AM 7.86 46.148 0.169 7.71 537.94 11.48
1/4/2023 10:00:00 AM 7.91 46.238 0.168 7.73 149.52 11.52
1/4/2023 10:15:00 AM 7.95 46.31 0.166 7.74 298.41 11.56
1/4/2023 10:30:00 AM 8.01 46.418 0.151 7.75 77.39 11.61
1/4/2023 10:45:00 AM 8.07 46.526 0.148 7.75 198.23 11.64
1/4/2023 11:00:00 AM 8.12 46.616 0.145 7.76 78.99 11.68
1/4/2023 11:15:00 AM 8.18 46.724 0.145 7.76 46.3 11.71
1/4/2023 11:30:00 AM 8.24 46.832 0.143 7.74 57.02 11.75
1/4/2023 11:45:00 AM 8.31 46.958 0.141 7.77 45.34 11.76
1/4/2023 12:00:00 PM 8.39 47.102 0.14 7.78 71.23 11.77
1/4/2023 12:15:00 PM 8.45 47.21 0.138 7.79 42.49 11.79
1/4/2023 12:30:00 PM 8.51 47.318 0.136 7.79 47.04 11.8
1/4/2023 12:45:00 PM 8.58 47.444 0.134 7.79 70.99 11.8
1/4/2023 1:00:00 PM 8.64 47.552 0.135 7.8 48.55 11.8
1/4/2023 1:15:00 PM 8.68 47.624 0.134 7.8 42.05 11.8
1/4/2023 1:30:00 PM 8.71 47.678 0.131 7.8 69.05 11.79
1/4/2023 1:45:00 PM 8.74 47.732 0.13 7.8 64.17 11.76
1/4/2023 2:00:00 PM 8.77 47.786 0.13 7.8 78.85 11.74
1/4/2023 2:15:00 PM 8.8 47.84 0.132 7.8 54.98 11.73
1/4/2023 2:30:00 PM 8.86 47.948 0.133 7.8 47.55 11.71
1/4/2023 2:45:00 PM 8.91 48.038 0.132 7.8 57.02 11.68
1/4/2023 3:00:00 PM 8.95 48.11 0.132 7.81 54.95 11.64
1/4/2023 3:15:00 PM 8.99 48.182 0.131 7.8 48.59 11.58
1/4/2023 3:30:00 PM 9.02 48.236 0.131 7.8 29.02 11.52
1/4/2023 3:45:00 PM 9.05 48.29 0.13 7.8 33.13 11.47
1/4/2023 4:00:00 PM 9.07 48.326 0.133 7.79 40.91 11.42
1/4/2023 4:15:00 PM 9.09 48.362 0.134 7.79 67.43 11.39
1/4/2023 4:30:00 PM 9.11 48.398 0.134 7.79 30.28 11.37
1/4/2023 4:45:00 PM 9.12 48.416 0.135 7.8 25.92 11.33
1/4/2023 5:00:00 PM 9.14 48.452 0.133 7.79 22.56 11.3
1/4/2023 5:15:00 PM 9.17 48.506 0.132 7.78 36.18 11.26
1/4/2023 5:30:00 PM 9.19 48.542 0.132 7.78 62.95 11.22
1/4/2023 5:45:00 PM 9.21 48.578 0.131 7.78 44.71 11.19
1/4/2023 6:00:00 PM 9.22 48.596 0.13 7.78 44.95 11.16
1/4/2023 6:15:00 PM 9.23 48.614 0.13 7.77 65.75 11.14
1/4/2023 6:30:00 PM 9.24 48.632 0.13 7.77 44.53 11.12
1/4/2023 6:45:00 PM 9.25 48.65 0.13 7.77 38.61 11.09
1/4/2023 7:00:00 PM 9.26 48.668 0.131 7.77 38.95 11.08
1/4/2023 7:15:00 PM 9.28 48.704 0.131 7.77 40.95 11.05
1/4/2023 7:30:00 PM 9.3 48.74 0.131 7.77 39.84 11.03
1/4/2023 7:45:00 PM 9.32 48.776 0.131 7.76 52.34 11.01
1/4/2023 8:00:00 PM 9.34 48.812 0.131 7.76 39.77 11
1/4/2023 8:15:00 PM 9.36 48.848 0.132 7.76 84.59 10.98
1/4/2023 8:30:00 PM 9.37 48.866 0.132 7.77 35.15 10.97
1/4/2023 8:45:00 PM 9.39 48.902 0.132 7.76 28.64 10.95
1/4/2023 9:00:00 PM 9.41 48.938 0.133 7.76 32.52 10.94
1/4/2023 9:15:00 PM 9.42 48.956 0.133 7.76 20.83 10.93
1/4/2023 9:30:00 PM 9.44 48.992 0.133 7.76 19.64 10.91
1/4/2023 9:45:00 PM 9.45 49.01 0.133 7.76 19.52 10.9
1/4/2023 10:00:00 PM 9.47 49.046 0.132 7.76 20.43 10.89
1/4/2023 10:15:00 PM 9.49 49.082 0.131 7.75 19.13 10.88
1/4/2023 10:30:00 PM 9.5 49.1 0.132 7.75 18.17 10.87
1/4/2023 10:45:00 PM 9.52 49.136 0.132 7.75 18.84 10.86
1/4/2023 11:00:00 PM 9.53 49.154 0.132 7.75 16.21 10.85
1/4/2023 11:15:00 PM 9.54 49.172 0.132 7.75 17.78 10.84
1/4/2023 11:30:00 PM 9.56 49.208 0.133 7.75 16.21 10.84
1/4/2023 11:45:00 PM 9.57 49.226 0.133 7.75 19.17 10.82
1/5/2023 12:00:00 AM 9.57 49.226 0.134 7.75 16.57 10.81
1/5/2023 12:15:00 AM 9.58 49.244 0.134 7.75 15.28 10.81
1/5/2023 12:30:00 AM 9.59 49.262 0.135 7.74 16.03 10.8
1/5/2023 12:45:00 AM 9.59 49.262 0.136 7.74 16.62 10.8
1/5/2023 1:00:00 AM 9.6 49.28 0.136 7.74 14.96 10.79
1/5/2023 1:15:00 AM 9.6 49.28 0.136 7.74 18.9 10.78
1/5/2023 1:30:00 AM 9.61 49.298 0.137 7.74 15.9 10.78
1/5/2023 1:45:00 AM 9.6 49.28 0.137 7.74 15.92 10.77
1/5/2023 2:00:00 AM 9.59 49.262 0.137 7.74 16.05 10.77
1/5/2023 2:15:00 AM 9.58 49.244 0.137 7.74 14.41 10.77
1/5/2023 2:30:00 AM 9.57 49.226 0.138 7.74 15.72 10.77
1/5/2023 2:45:00 AM 9.56 49.208 0.139 7.74 15.48 10.77
1/5/2023 3:00:00 AM 9.56 49.208 0.139 7.74 13.41 10.77
1/5/2023 3:15:00 AM 9.55 49.19 0.14 7.74 13.11 10.77
1/5/2023 3:30:00 AM 9.53 49.154 0.141 7.74 14.39 10.77
1/5/2023 3:45:00 AM 9.52 49.136 0.142 7.74 13.95 10.78
1/5/2023 4:00:00 AM 9.5 49.1 0.141 7.74 14.01 10.78
1/5/2023 4:15:00 AM 9.47 49.046 0.141 7.74 14.91 10.78
1/5/2023 4:30:00 AM 9.45 49.01 0.143 7.73 14.45 10.79
1/5/2023 4:45:00 AM 9.42 48.956 0.144 7.75 13.28 10.8
1/5/2023 5:00:00 AM 9.39 48.902 0.145 7.74 14.6 10.8
1/5/2023 5:15:00 AM 9.35 48.83 0.145 7.75 14.75 10.81
1/5/2023 5:30:00 AM 9.32 48.776 0.145 7.75 14.36 10.82
1/5/2023 5:45:00 AM 9.28 48.704 0.148 7.68 15.05 10.82
1/5/2023 6:00:00 AM 9.24 48.632 0.149 7.74 14.87 10.83
1/5/2023 6:15:00 AM 9.19 48.542 0.151 7.75 14.9 10.84
1/5/2023 6:30:00 AM 9.15 48.47 0.151 7.75 15.09 10.85
1/5/2023 6:45:00 AM 9.11 48.398 0.152 7.75 15.04 10.86
1/5/2023 7:00:00 AM 9.08 48.344 0.155 7.75 15.57 10.88
1/5/2023 7:15:00 AM 9.05 48.29 0.159 7.75 13.88 10.88
1/5/2023 7:30:00 AM 9.02 48.236 0.405 7.71 23.63 10.88
1/5/2023 7:45:00 AM 8.98 48.164 0.393 7.75 19.31 10.9
1/5/2023 8:00:00 AM 8.95 48.11 0.347 7.75 15.87 10.93
1/5/2023 8:15:00 AM 8.91 48.038 0.31 7.75 13.81 10.96
1/5/2023 8:30:00 AM 8.89 48.002 0.326 7.75 24.1 10.99
1/5/2023 8:45:00 AM 8.85 47.93 0.301 7.75 14.85 11.02
1/5/2023 9:00:00 AM 8.83 47.894 0.288 7.76 15.41 11.08
1/5/2023 9:15:00 AM 8.83 47.894 0.285 7.76 16.15 11.14
1/5/2023 9:30:00 AM 8.83 47.894 0.276 7.77 15.43 11.18
1/5/2023 9:45:00 AM 8.84 47.912 0.268 7.77 13.52 11.23
1/5/2023 10:00:00 AM 8.86 47.948 0.267 7.77 14.21 11.29
1/5/2023 10:15:00 AM 8.9 48.02 0.257 7.78 11.37 11.34
1/5/2023 10:30:00 AM 8.95 48.11 0.252 7.79 12.07 11.41
1/5/2023 10:45:00 AM 9 48.2 0.249 7.8 11.27 11.45
1/5/2023 11:00:00 AM 9.08 48.344 0.248 7.81 11.88 11.53
1/5/2023 11:15:00 AM 9.17 48.506 0.245 7.82 17.81 11.59
1/5/2023 11:30:00 AM 9.22 48.596 0.246 7.82 11.52 11.61
1/5/2023 11:45:00 AM 9.27 48.686 0.245 7.83 10.58 11.64
1/5/2023 12:00:00 PM 9.31 48.758 0.243 7.83 10.38 11.68
1/5/2023 12:15:00 PM 9.34 48.812 0.242 7.84 10.8 11.69
1/5/2023 12:30:00 PM 9.35 48.83 0.236 7.84 10.35 11.69
1/5/2023 12:45:00 PM 9.36 48.848 0.23 7.84 10.76 11.69
1/5/2023 1:00:00 PM 9.41 48.938 0.231 7.85 11.26 11.73
1/5/2023 1:15:00 PM 9.46 49.028 0.227 7.85 10.92 11.73
1/5/2023 1:30:00 PM 9.53 49.154 0.222 7.85 11.2 11.75
1/5/2023 1:45:00 PM 9.55 49.19 0.218 7.86 13.74 11.76
1/5/2023 2:00:00 PM 9.56 49.208 0.212 7.86 12.27 11.74
1/5/2023 2:15:00 PM 9.57 49.226 0.206 7.86 12.29 11.72
1/5/2023 2:30:00 PM 9.57 49.226 0.205 7.86 10.79 11.7
1/5/2023 2:45:00 PM 9.57 49.226 0.198 7.87 10.4 11.68
1/5/2023 3:00:00 PM 9.57 49.226 0.194 7.86 9.51 11.65
1/5/2023 3:15:00 PM 9.56 49.208 0.188 7.86 11.66 11.62
1/5/2023 3:30:00 PM 9.58 49.244 0.179 7.86 11.39 11.62
1/5/2023 3:45:00 PM 9.59 49.262 0.176 7.86 10.27 11.6
1/5/2023 4:00:00 PM 9.6 49.28 0.172 7.86 10.78 11.55
1/5/2023 4:15:00 PM 9.59 49.262 0.168 7.85 10.89 11.5
1/5/2023 4:30:00 PM 9.57 49.226 0.165 7.85 12.01 11.45
1/5/2023 4:45:00 PM 9.54 49.172 0.162 7.84 10.05 11.4
1/5/2023 5:00:00 PM 9.5 49.1 0.162 7.84 11.8 11.34
1/5/2023 5:15:00 PM 9.47 49.046 0.161 7.83 10.3 11.29
1/5/2023 5:30:00 PM 9.45 49.01 0.16 7.83 10.91 11.26
1/5/2023 5:45:00 PM 9.44 48.992 0.159 7.83 10.98 11.23
1/5/2023 6:00:00 PM 9.44 48.992 0.158 7.82 9.7 11.2
1/5/2023 6:15:00 PM 9.45 49.01 0.156 7.82 10.47 11.18
1/5/2023 6:30:00 PM 9.44 48.992 0.156 7.81 10.55 11.16
1/5/2023 6:45:00 PM 9.44 48.992 0.154 7.81 10.18 11.13
1/5/2023 7:00:00 PM 9.43 48.974 0.152 7.81 10.28 11.11
1/5/2023 7:15:00 PM 9.41 48.938 0.151 7.81 10.93 11.09
1/5/2023 7:30:00 PM 9.38 48.884 0.151 7.8 12.57 11.07
1/5/2023 7:45:00 PM 9.35 48.83 0.149 7.8 10.18 11.06
1/5/2023 8:00:00 PM 9.33 48.794 0.148 7.8 10.43 11.05
1/5/2023 8:15:00 PM 9.32 48.776 0.146 7.8 10.1 11.03
1/5/2023 8:30:00 PM 9.31 48.758 0.144 7.79 11.91 11.02
1/5/2023 8:45:00 PM 9.31 48.758 0.143 7.79 11.16 11.01
1/5/2023 9:00:00 PM 9.31 48.758 0.143 7.79 11.71 11
1/5/2023 9:15:00 PM 9.31 48.758 0.142 7.79 10.61 10.99
1/5/2023 9:30:00 PM 9.31 48.758 0.141 7.79 10.64 10.98
1/5/2023 9:45:00 PM 9.3 48.74 0.141 7.79 10.79 10.98
1/5/2023 10:00:00 PM 9.29 48.722 0.141 7.79 13.52 10.98
1/5/2023 10:15:00 PM 9.28 48.704 0.14 7.79 11.5 10.97
1/5/2023 10:30:00 PM 9.26 48.668 0.14 7.79 12.82 10.97
1/5/2023 10:45:00 PM 9.25 48.65 0.14 7.79 11.81 10.97
1/5/2023 11:00:00 PM 9.24 48.632 0.139 7.79 12.41 10.96
1/5/2023 11:15:00 PM 9.23 48.614 0.14 7.78 12.35 10.96
1/5/2023 11:30:00 PM 9.22 48.596 0.139 7.79 11.93 10.97
1/5/2023 11:45:00 PM 9.21 48.578 0.139 7.79 12.23 10.95
1/6/2023 12:00:00 AM 9.2 48.56 0.139 7.79 12.33 10.96
1/6/2023 12:15:00 AM 9.18 48.524 0.138 7.79 13.07 10.96
1/6/2023 12:30:00 AM 9.17 48.506 0.138 7.78 13.09 10.95
1/6/2023 12:45:00 AM 9.15 48.47 0.137 7.79 11.57 10.95
1/6/2023 1:00:00 AM 9.12 48.416 0.137 7.78 11.44 10.95
1/6/2023 1:15:00 AM 9.1 48.38 0.137 7.78 12.67 10.95
1/6/2023 1:30:00 AM 9.06 48.308 0.136 7.78 11.84 10.94
1/6/2023 1:45:00 AM 9.02 48.236 0.136 7.78 12.01 10.95
1/6/2023 2:00:00 AM 8.98 48.164 0.136 7.78 12.75 10.96
1/6/2023 2:15:00 AM 8.94 48.092 0.136 7.78 12.5 10.96
1/6/2023 2:30:00 AM 8.91 48.038 0.136 7.78 12.27 10.97
1/6/2023 2:45:00 AM 8.89 48.002 0.135 7.78 13.06 10.97
1/6/2023 3:00:00 AM 8.86 47.948 0.135 7.78 12.75 10.98
1/6/2023 3:15:00 AM 8.84 47.912 0.134 7.78 13.08 10.99
1/6/2023 3:30:00 AM 8.82 47.876 0.134 7.78 11.69 10.99
1/6/2023 3:45:00 AM 8.8 47.84 0.134 7.78 12 10.99
1/6/2023 4:00:00 AM 8.78 47.804 0.134 7.78 11.42 11
1/6/2023 4:15:00 AM 8.75 47.75 0.133 7.78 12.14 11
1/6/2023 4:30:00 AM 8.72 47.696 0.133 7.78 12.56 11.01
1/6/2023 4:45:00 AM 8.69 47.642 0.133 7.77 12.21 11.02
1/6/2023 5:00:00 AM 8.67 47.606 0.133 7.77 12.04 11.02
1/6/2023 5:15:00 AM 8.64 47.552 0.133 7.77 11.34 11.03
1/6/2023 5:30:00 AM 8.62 47.516 0.133 7.77 11.63 11.04
1/6/2023 5:45:00 AM 8.59 47.462 0.133 7.78 11.66 11.05
1/6/2023 6:00:00 AM 8.57 47.426 0.133 7.77 11.18 11.05
1/6/2023 6:15:00 AM 8.55 47.39 0.133 7.77 11.75 11.07
1/6/2023 6:30:00 AM 8.53 47.354 0.133 7.77 12.11 11.07
1/6/2023 6:45:00 AM 8.51 47.318 0.132 7.77 11.59 11.08
1/6/2023 7:00:00 AM 8.49 47.282 0.133 7.77 12.53 11.09
1/6/2023 7:15:00 AM 8.48 47.264 0.133 7.78 12.26 11.1
1/6/2023 7:30:00 AM 8.46 47.228 0.133 7.78 11.28 11.11
1/6/2023 7:45:00 AM 8.44 47.192 0.133 7.77 30.04 11.12
1/6/2023 8:00:00 AM 8.42 47.156 0.133 7.78 15.22 11.14
1/6/2023 8:15:00 AM 8.39 47.102 0.133 7.78 11.58 11.16
1/6/2023 8:30:00 AM 8.37 47.066 0.133 7.78 12.65 11.2
1/6/2023 8:45:00 AM 8.35 47.03 0.133 7.78 12.35 11.25
1/6/2023 9:00:00 AM 8.35 47.03 0.133 7.79 11.98 11.32
1/6/2023 9:15:00 AM 8.35 47.03 0.134 7.8 11.32 11.36
1/6/2023 9:30:00 AM 8.35 47.03 0.134 7.8 11.14 11.42
1/6/2023 9:45:00 AM 8.36 47.048 0.134 7.81 11.82 11.5
1/6/2023 10:00:00 AM 8.36 47.048 0.134 7.82 11.77 11.56
1/6/2023 10:15:00 AM 8.37 47.066 0.134 7.82 11.8 11.61
1/6/2023 10:30:00 AM 8.37 47.066 0.135 7.83 11.54 11.65
1/6/2023 10:45:00 AM 8.39 47.102 0.134 7.84 11.84 11.72
1/6/2023 11:00:00 AM 8.4 47.12 0.134 7.84 11.09 11.75
1/6/2023 11:15:00 AM 8.4 47.12 0.133 7.85 15.34 11.77
1/6/2023 11:30:00 AM 8.44 47.192 0.133 7.86 12.19 11.85
1/6/2023 11:45:00 AM 8.47 47.246 0.133 7.86 10.49 11.84
1/6/2023 12:00:00 PM 8.5 47.3 0.132 7.87 10.68 11.92
1/6/2023 12:15:00 PM 8.56 47.408 0.132 7.87 12.08 11.94
1/6/2023 12:30:00 PM 8.6 47.48 0.133 7.88 11.77 12.02
1/6/2023 12:45:00 PM 8.62 47.516 0.132 7.88 11.46 11.97
1/6/2023 1:00:00 PM 8.6 47.48 0.132 7.89 11.44 11.99
1/6/2023 1:15:00 PM 8.59 47.462 0.132 7.89 10.8 12.02
1/6/2023 1:30:00 PM 8.59 47.462 0.132 7.89 11.57 12.03
1/6/2023 1:45:00 PM 8.6 47.48 0.131 7.89 10.07 12.01
1/6/2023 2:00:00 PM 8.57 47.426 0.131 7.89 10.02 12
1/6/2023 2:15:00 PM 8.57 47.426 0.131 7.89 10.63 11.99
1/6/2023 2:30:00 PM 8.57 47.426 0.131 7.89 29.94 11.93
1/6/2023 2:45:00 PM 8.57 47.426 0.131 7.89 12.35 11.91
1/6/2023 3:00:00 PM 8.55 47.39 0.131 7.88 12.25 11.86
1/6/2023 3:15:00 PM 8.54 47.372 0.131 7.88 11.37 11.82
1/6/2023 3:30:00 PM 8.52 47.336 0.131 7.88 10.88 11.79
1/6/2023 3:45:00 PM 8.5 47.3 0.131 7.87 11.86 11.76
1/6/2023 4:00:00 PM 8.48 47.264 0.131 7.87 12 11.74
1/6/2023 4:15:00 PM 8.46 47.228 0.131 7.87 12 11.7
1/6/2023 4:30:00 PM 8.43 47.174 0.131 7.87 20.14 11.67
1/6/2023 4:45:00 PM 8.39 47.102 0.131 7.86 13.99 11.63
1/6/2023 5:00:00 PM 8.36 47.048 0.131 7.86 12.21 11.6
1/6/2023 5:15:00 PM 8.32 46.976 0.131 7.85 12.44 11.57
1/6/2023 5:30:00 PM 8.28 46.904 0.132 7.85 11.88 11.55
1/6/2023 5:45:00 PM 8.24 46.832 0.132 7.84 10.51 11.53
1/6/2023 6:00:00 PM 8.18 46.724 0.132 7.84 11.08 11.52
1/6/2023 6:15:00 PM 8.12 46.616 0.132 7.84 11.33 11.51
1/6/2023 6:30:00 PM 8.06 46.508 0.132 7.84 11.75 11.5
1/6/2023 6:45:00 PM 8.01 46.418 0.132 7.83 12.26 11.5
1/6/2023 7:00:00 PM 7.98 46.364 0.132 7.83 12.92 11.49
1/6/2023 7:15:00 PM 7.96 46.328 0.132 7.83 12.71 11.49
1/6/2023 7:30:00 PM 7.94 46.292 0.131 7.83 13.06 11.48
1/6/2023 7:45:00 PM 7.92 46.256 0.131 7.83 12.76 11.48
1/6/2023 8:00:00 PM 7.9 46.22 0.132 7.83 15.41 11.47
1/6/2023 8:15:00 PM 7.87 46.166 0.131 7.82 13.2 11.47
1/6/2023 8:30:00 PM 7.83 46.094 0.131 7.82 13.39 11.47
1/6/2023 8:45:00 PM 7.8 46.04 0.131 7.82 15.29 11.47
1/6/2023 9:00:00 PM 7.77 45.986 0.131 7.82 16.24 11.48
1/6/2023 9:15:00 PM 7.74 45.932 0.131 7.82 14.73 11.48
1/6/2023 9:30:00 PM 7.71 45.878 0.132 7.82 14.16 11.48
1/6/2023 9:45:00 PM 7.68 45.824 0.131 7.82 14.04 11.48
1/6/2023 10:00:00 PM 7.66 45.788 0.131 7.82 12.99 11.49
1/6/2023 10:15:00 PM 7.63 45.734 0.132 7.82 15.06 11.49
1/6/2023 10:30:00 PM 7.6 45.68 0.132 7.81 11.94 11.5
1/6/2023 10:45:00 PM 7.58 45.644 0.132 7.81 15.37 11.5
1/6/2023 11:00:00 PM 7.56 45.608 0.132 7.81 11.5 11.5
1/6/2023 11:15:00 PM 7.53 45.554 0.132 7.81 12.14 11.51
1/6/2023 11:30:00 PM 7.51 45.518 0.132 7.81 12.21 11.51
1/6/2023 11:45:00 PM 7.49 45.482 0.132 7.81 12.67 11.52
1/7/2023 12:00:00 AM 7.47 45.446 0.132 7.81 13.11 11.52
1/7/2023 12:15:00 AM 7.45 45.41 0.132 7.81 13.34 11.52
1/7/2023 12:30:00 AM 7.43 45.374 0.132 7.81 14.12 11.52
1/7/2023 12:45:00 AM 7.41 45.338 0.132 7.81 13.22 11.53
1/7/2023 1:00:00 AM 7.39 45.302 0.132 7.81 14.82 11.53
1/7/2023 1:15:00 AM 7.37 45.266 0.132 7.81 15.11 11.53
1/7/2023 1:30:00 AM 7.36 45.248 0.132 7.81 14.68 11.54
1/7/2023 1:45:00 AM 7.34 45.212 0.131 7.8 12.94 11.54
1/7/2023 2:00:00 AM 7.32 45.176 0.132 7.8 12.62 11.54
1/7/2023 2:15:00 AM 7.31 45.158 0.132 7.8 15.69 11.55
1/7/2023 2:30:00 AM 7.3 45.14 0.131 7.8 13.1 11.55
1/7/2023 2:45:00 AM 7.28 45.104 0.132 7.8 17.81 11.55
1/7/2023 3:00:00 AM 7.26 45.068 0.133 7.8 17.97 11.56
1/7/2023 3:15:00 AM 7.24 45.032 0.134 7.8 18.77 11.56
1/7/2023 3:30:00 AM 7.22 44.996 0.135 7.8 16.25 11.57
1/7/2023 3:45:00 AM 7.21 44.978 0.136 7.8 13.37 11.57
1/7/2023 4:00:00 AM 7.18 44.924 0.137 7.8 14.39 11.58
1/7/2023 4:15:00 AM 7.16 44.888 0.138 7.8 16.35 11.59
1/7/2023 4:30:00 AM 7.14 44.852 0.138 7.8 14.48 11.59
1/7/2023 4:45:00 AM 7.11 44.798 0.137 7.8 14.14 11.6
1/7/2023 5:00:00 AM 7.07 44.726 0.136 7.8 14.15 11.61
1/7/2023 5:15:00 AM 7.03 44.654 0.135 7.8 16.09 11.62
1/7/2023 5:30:00 AM 7 44.6 0.134 7.8 14.42 11.63
1/7/2023 5:45:00 AM 6.97 44.546 0.134 7.8 15.63 11.64
1/7/2023 6:00:00 AM 6.95 44.51 0.133 7.8 15.28 11.65
1/7/2023 6:15:00 AM 6.93 44.474 0.132 7.8 14.72 11.66
1/7/2023 6:30:00 AM 6.91 44.438 0.132 7.8 14.53 11.66
1/7/2023 6:45:00 AM 6.9 44.42 0.132 7.8 16.89 11.67
1/7/2023 7:00:00 AM 6.88 44.384 0.133 7.8 15.13 11.68
1/7/2023 7:15:00 AM 6.86 44.348 0.135 7.8 14.95 11.69
1/7/2023 7:30:00 AM 6.84 44.312 0.138 7.8 163.4 11.7
1/7/2023 7:45:00 AM 6.81 44.258 0.141 7.8 11.75 11.71
1/7/2023 8:00:00 AM 6.8 44.24 0.145 7.8 12.77 11.74
1/7/2023 8:15:00 AM 6.78 44.204 0.147 7.8 10.36 11.77
1/7/2023 8:30:00 AM 6.77 44.186 0.149 7.81 11.72 11.8
1/7/2023 8:45:00 AM 6.77 44.186 0.149 7.81 11.57 11.85
1/7/2023 9:00:00 AM 6.77 44.186 0.149 7.81 10.96 11.91
1/7/2023 9:15:00 AM 6.78 44.204 0.151 7.82 11.11 11.97
1/7/2023 9:30:00 AM 6.79 44.222 0.152 7.83 12.3 12.04
1/7/2023 9:45:00 AM 6.81 44.258 0.153 7.83 10.94 12.13
1/7/2023 10:00:00 AM 6.84 44.312 0.153 7.84 10.27 12.2
1/7/2023 10:15:00 AM 6.87 44.366 0.154 7.85 11.24 12.21
1/7/2023 10:30:00 AM 6.91 44.438 0.157 7.86 11.14 12.34
1/7/2023 10:45:00 AM 6.95 44.51 0.158 7.87 11.29 12.4
1/7/2023 11:00:00 AM 6.98 44.564 0.161 7.87 11.27 12.45
1/7/2023 11:15:00 AM 7.03 44.654 0.162 7.88 11.15 12.5
1/7/2023 11:30:00 AM 7.06 44.708 0.164 7.89 11.18 12.52
1/7/2023 11:45:00 AM 7.08 44.744 0.168 7.89 12.07 12.55
1/7/2023 12:00:00 PM 7.11 44.798 0.172 7.89 11.31 12.57
1/7/2023 12:15:00 PM 7.14 44.852 0.175 7.9 10.48 12.6
1/7/2023 12:30:00 PM 7.17 44.906 0.178 7.9 8.86 12.61
1/7/2023 12:45:00 PM 7.22 44.996 0.183 7.91 10.57 12.65
1/7/2023 1:00:00 PM 7.26 45.068 0.19 7.92 11.12 12.67
1/7/2023 1:15:00 PM 7.31 45.158 0.2 7.92 11.77 12.68
1/7/2023 1:30:00 PM 7.33 45.194 0.208 7.92 11.02 12.67
1/7/2023 1:45:00 PM 7.34 45.212 0.215 7.92 12.2 12.65
1/7/2023 2:00:00 PM 7.33 45.194 0.223 7.92 12.01 12.64
1/7/2023 2:15:00 PM 7.35 45.23 0.233 7.93 17.53 12.64
1/7/2023 2:30:00 PM 7.36 45.248 0.243 7.92 11.19 12.58
1/7/2023 2:45:00 PM 7.38 45.284 0.254 7.92 11.17 12.52
1/7/2023 3:00:00 PM 7.4 45.32 0.267 7.92 10.36 12.53
1/7/2023 3:15:00 PM 7.41 45.338 0.272 7.92 11.91 12.49
1/7/2023 3:30:00 PM 7.43 45.374 0.282 7.92 11.78 12.47
1/7/2023 3:45:00 PM 7.44 45.392 0.29 7.91 11.3 12.44
1/7/2023 4:00:00 PM 7.43 45.374 0.295 7.91 10.83 12.39
1/7/2023 4:15:00 PM 7.43 45.374 0.3 7.91 11.67 12.35
1/7/2023 4:30:00 PM 7.41 45.338 0.302 7.9 17.16 12.28
1/7/2023 4:45:00 PM 7.4 45.32 0.304 7.89 10.35 12.21
1/7/2023 5:00:00 PM 7.38 45.284 0.308 7.88 11.23 12.13
1/7/2023 5:15:00 PM 7.36 45.248 0.308 7.88 11.92 12.08
1/7/2023 5:30:00 PM 7.34 45.212 0.311 7.87 12.27 12.04
1/7/2023 5:45:00 PM 7.32 45.176 0.316 7.87 13.17 12.01
1/7/2023 6:00:00 PM 7.31 45.158 0.319 7.86 12.9 11.98
1/7/2023 6:15:00 PM 7.29 45.122 0.32 7.86 12.61 11.96
1/7/2023 6:30:00 PM 7.27 45.086 0.326 7.86 12.53 11.94
1/7/2023 6:45:00 PM 7.25 45.05 0.33 7.79 12.55 11.92
1/7/2023 7:00:00 PM 7.23 45.014 0.332 7.86 10.42 11.9
1/7/2023 7:15:00 PM 7.21 44.978 0.344 7.8 11.73 11.88
1/7/2023 7:30:00 PM 7.2 44.96 0.348 7.84 12.04 11.87
1/7/2023 7:45:00 PM 7.18 44.924 0.35 7.84 11.22 11.85
1/7/2023 8:00:00 PM 7.16 44.888 0.355 7.83 12.01 11.84
1/7/2023 8:15:00 PM 7.13 44.834 0.356 7.83 13.65 11.82
1/7/2023 8:30:00 PM 7.1 44.78 0.356 7.83 12.01 11.81
1/7/2023 8:45:00 PM 7.07 44.726 0.357 7.83 12.59 11.81
1/7/2023 9:00:00 PM 7.03 44.654 0.357 7.83 11.35 11.8
1/7/2023 9:15:00 PM 7 44.6 0.359 7.84 10.84 11.79
1/7/2023 9:30:00 PM 6.97 44.546 0.361 7.83 10.78 11.79
1/7/2023 9:45:00 PM 6.93 44.474 0.363 7.83 11.15 11.79
1/7/2023 10:00:00 PM 6.91 44.438 0.365 7.83 11.06 11.78
1/7/2023 10:15:00 PM 6.88 44.384 0.366 7.81 10.1 11.79
1/7/2023 10:30:00 PM 6.85 44.33 0.366 7.83 11.03 11.78
1/7/2023 10:45:00 PM 6.82 44.276 0.368 7.82 10.16 11.78
1/7/2023 11:00:00 PM 6.78 44.204 0.37 7.82 11.99 11.79
1/7/2023 11:15:00 PM 6.74 44.132 0.373 7.82 11.04 11.79
1/7/2023 11:30:00 PM 6.7 44.06 0.376 7.82 10.75 11.79
1/7/2023 11:45:00 PM 6.66 43.988 0.378 7.77 10.64 11.8
1/8/2023 12:00:00 AM 6.61 43.898 0.382 7.82 11.37 11.81
1/8/2023 12:15:00 AM 6.57 43.826 0.385 7.82 9.2 11.81
1/8/2023 12:30:00 AM 6.53 43.754 0.389 7.82 9.45 11.82
1/8/2023 12:45:00 AM 6.5 43.7 0.389 7.82 9.49 11.83
1/8/2023 1:00:00 AM 6.46 43.628 0.39 7.82 9.51 11.84
1/8/2023 1:15:00 AM 6.43 43.574 0.392 7.82 10.06 11.85
1/8/2023 1:30:00 AM 6.4 43.52 0.398 7.81 10.65 11.85
1/8/2023 1:45:00 AM 6.38 43.484 0.403 7.82 10.63 11.87
1/8/2023 2:00:00 AM 6.37 43.466 0.404 7.82 11.81 11.87
1/8/2023 2:15:00 AM 6.35 43.43 0.406 7.81 12.18 11.87
1/8/2023 2:30:00 AM 6.32 43.376 0.409 7.81 11.89 11.88
1/8/2023 2:45:00 AM 6.3 43.34 0.412 7.81 12.44 11.89
1/8/2023 3:00:00 AM 6.27 43.286 0.415 7.81 12.48 11.89
1/8/2023 3:15:00 AM 6.25 43.25 0.418 7.81 14.4 11.9
1/8/2023 3:30:00 AM 6.22 43.196 0.423 7.81 12.99 11.91
1/8/2023 3:45:00 AM 6.19 43.142 0.422 7.81 12.09 11.91
1/8/2023 4:00:00 AM 6.15 43.07 0.426 7.81 11.49 11.92
1/8/2023 4:15:00 AM 6.1 42.98 0.428 7.81 15.18 11.94
1/8/2023 4:30:00 AM 6.05 42.89 0.429 7.81 11.55 11.94
1/8/2023 4:45:00 AM 6.01 42.818 0.429 7.81 11.59 11.95
1/8/2023 5:00:00 AM 5.96 42.728 0.429 7.81 12.28 11.97
1/8/2023 5:15:00 AM 5.92 42.656 0.43 7.81 12.13 11.97
1/8/2023 5:30:00 AM 5.88 42.584 0.43 7.81 12.01 11.99
1/8/2023 5:45:00 AM 5.84 42.512 0.429 7.81 11.68 12
1/8/2023 6:00:00 AM 5.81 42.458 0.43 7.81 11.79 12.01
1/8/2023 6:15:00 AM 5.77 42.386 0.43 7.81 11.86 12.02
1/8/2023 6:30:00 AM 5.73 42.314 0.43 7.81 12.01 12.04
1/8/2023 6:45:00 AM 5.69 42.242 0.431 7.81 11.74 12.05
1/8/2023 7:00:00 AM 5.65 42.17 0.431 7.81 11.77 12.05
1/8/2023 7:15:00 AM 5.59 42.062 0.431 7.8 12.24 12.08
1/8/2023 7:30:00 AM 5.54 41.972 0.431 7.8 12.09 12.1
1/8/2023 7:45:00 AM 5.49 41.882 0.431 7.8 11.59 12.12
1/8/2023 8:00:00 AM 5.46 41.828 0.432 7.81 11.56 12.15
1/8/2023 8:15:00 AM 5.43 41.774 0.432 7.81 11.09 12.2
1/8/2023 8:30:00 AM 5.41 41.738 0.432 7.81 11.22 12.25
1/8/2023 8:45:00 AM 5.39 41.702 0.432 7.82 10.68 12.33
1/8/2023 9:00:00 AM 5.4 41.72 0.294 7.8 34.27 12.4
1/8/2023 9:15:00 AM 5.42 41.756 0.233 7.83 20.87 12.48
1/8/2023 9:30:00 AM 5.44 41.792 0.17 7.83 16.75 12.55
1/8/2023 9:45:00 AM 5.47 41.846 0.38 7.84 14.16 12.61
1/8/2023 10:00:00 AM 5.49 41.882 0.417 7.85 13.44 12.67
1/8/2023 10:15:00 AM 5.55 41.99 0.425 7.86 14.73 12.74
1/8/2023 10:30:00 AM 5.6 42.08 0.429 7.87 14.31 12.8
1/8/2023 10:45:00 AM 5.65 42.17 0.43 7.87 14.38 12.87
1/8/2023 11:00:00 AM 5.7 42.26 0.431 7.88 14.14 12.92
1/8/2023 11:15:00 AM 5.75 42.35 0.432 7.88 13.86 12.97
1/8/2023 11:30:00 AM 5.8 42.44 0.432 7.89 14.64 13.02
1/8/2023 11:45:00 AM 5.85 42.53 0.432 7.9 14.49 13.07
1/8/2023 12:00:00 PM 5.91 42.638 0.432 7.91 15.15 13.1
1/8/2023 12:15:00 PM 5.96 42.728 0.432 7.91 14.93 13.12
1/8/2023 12:30:00 PM 6.01 42.818 0.432 7.91 81.66 13.14
1/8/2023 12:45:00 PM 6.04 42.872 0.338 7.9 30.98 13.16
1/8/2023 1:00:00 PM 6.06 42.908 0.372 7.93 25.94 13.17
1/8/2023 1:15:00 PM 6.08 42.944 0.408 7.93 22.25 13.18
1/8/2023 1:30:00 PM 6.1 42.98 0.423 7.93 19.77 13.18
1/8/2023 1:45:00 PM 6.12 43.016 0.428 7.93 17.97 13.19
1/8/2023 2:00:00 PM 6.13 43.034 0.43 7.94 17.2 13.18
1/8/2023 2:15:00 PM 6.16 43.088 0.432 7.94 18.25 13.18
1/8/2023 2:30:00 PM 6.19 43.142 0.432 7.94 16.98 13.17
1/8/2023 2:45:00 PM 6.21 43.178 0.432 7.94 15.68 13.15
1/8/2023 3:00:00 PM 6.23 43.214 0.432 7.94 15.7 13.14
1/8/2023 3:15:00 PM 6.24 43.232 0.432 7.94 15.42 13.11
1/8/2023 3:30:00 PM 6.25 43.25 0.433 7.94 15.53 13.07
1/8/2023 3:45:00 PM 6.25 43.25 0.39 7.87 96.01 13.03
1/8/2023 4:00:00 PM 6.25 43.25 0.423 7.92 23.83 12.95
1/8/2023 4:15:00 PM 6.24 43.232 0.427 7.92 20.44 12.88
1/8/2023 4:30:00 PM 6.23 43.214 0.431 7.91 22.94 12.8
1/8/2023 4:45:00 PM 6.23 43.214 0.432 7.9 21.66 12.71
1/8/2023 5:00:00 PM 6.21 43.178 0.432 7.89 20.77 12.63
1/8/2023 5:15:00 PM 6.19 43.142 0.433 7.89 18.93 12.56
1/8/2023 5:30:00 PM 6.17 43.106 0.433 7.88 18.37 12.5
1/8/2023 5:45:00 PM 6.17 43.106 0.433 7.88 16.97 12.46
1/8/2023 6:00:00 PM 6.17 43.106 0.433 7.87 17.12 12.42
1/8/2023 6:15:00 PM 6.17 43.106 0.433 7.87 17.12 12.39
1/8/2023 6:30:00 PM 6.18 43.124 0.433 7.87 45 12.36
1/8/2023 6:45:00 PM 6.17 43.106 0.433 7.86 17.92 12.34
1/8/2023 7:00:00 PM 6.17 43.106 0.433 7.86 17.37 12.31
1/8/2023 7:15:00 PM 6.17 43.106 0.433 7.86 19.44 12.28
1/8/2023 7:30:00 PM 6.16 43.088 0.433 7.85 19.04 12.26
1/8/2023 7:45:00 PM 6.15 43.07 0.433 7.85 19.03 12.23
1/8/2023 8:00:00 PM 6.15 43.07 0.433 7.82 47.31 12.2
1/8/2023 8:15:00 PM 6.15 43.07 0.433 7.74 43.3 12.19
1/8/2023 8:30:00 PM 6.14 43.052 0.255 7.83 24.01 12.17
1/8/2023 8:45:00 PM 6.13 43.034 0.24 7.83 20.85 12.15
1/8/2023 9:00:00 PM 6.13 43.034 0.227 7.83 20.47 12.13
1/8/2023 9:15:00 PM 6.13 43.034 0.218 7.83 20.66 12.11
1/8/2023 9:30:00 PM 6.13 43.034 0.212 7.83 20.94 12.11
1/8/2023 9:45:00 PM 6.13 43.034 0.204 7.83 19.79 12.09
1/8/2023 10:00:00 PM 6.13 43.034 0.198 7.83 20.34 12.07
1/8/2023 10:15:00 PM 6.13 43.034 0.192 7.82 19.8 12.06
1/8/2023 10:30:00 PM 6.13 43.034 0.179 7.82 19.78 12.05
1/8/2023 10:45:00 PM 6.13 43.034 0.402 7.81 19.95 12.03
1/8/2023 11:00:00 PM 6.13 43.034 0.427 7.81 19.38 12.02
1/8/2023 11:15:00 PM 6.14 43.052 0.43 7.82 19.47 12.01
1/8/2023 11:30:00 PM 6.14 43.052 0.432 7.82 20.02 12
1/8/2023 11:45:00 PM 6.14 43.052 0.431 7.82 19.2 11.99
1/9/2023 12:00:00 AM 6.15 43.07 0.433 7.81 19.25 11.98
1/9/2023 12:15:00 AM 6.15 43.07 0.433 7.81 19.86 11.97
1/9/2023 12:30:00 AM 6.16 43.088 0.434 7.81 19.56 11.96
1/9/2023 12:45:00 AM 6.16 43.088 0.433 7.81 19.53 11.96
1/9/2023 1:00:00 AM 6.16 43.088 0.433 7.81 19.61 11.95
1/9/2023 1:15:00 AM 6.16 43.088 0.433 7.81 19.27 11.94
1/9/2023 1:30:00 AM 6.16 43.088 0.434 7.81 20.18 11.94
1/9/2023 1:45:00 AM 6.17 43.106 0.434 7.81 19.25 11.93
1/9/2023 2:00:00 AM 6.17 43.106 0.434 7.81 19.72 11.92
1/9/2023 2:15:00 AM 6.17 43.106 0.434 7.8 20.25 11.91
1/9/2023 2:30:00 AM 6.18 43.124 0.433 7.8 20.49 11.91
1/9/2023 2:45:00 AM 6.18 43.124 0.434 7.8 18.99 11.9
1/9/2023 3:00:00 AM 6.18 43.124 0.434 7.8 18.52 11.89
1/9/2023 3:15:00 AM 6.16 43.088 0.433 7.8 18.97 11.89
1/9/2023 3:30:00 AM 6.05 42.89 0.432 7.8 19.06 11.88
1/9/2023 3:45:00 AM 5.99 42.782 0.267 7.72 36.64 11.89
1/9/2023 4:00:00 AM 5.95 42.71 0.212 7.79 24.96 11.9
1/9/2023 4:15:00 AM 5.97 42.746 0.432 7.79 20.35 11.89
1/9/2023 4:30:00 AM 5.99 42.782 0.433 7.8 20.87 11.89
1/9/2023 4:45:00 AM 6.01 42.818 0.433 7.7 31 11.89
1/9/2023 5:00:00 AM 6.02 42.836 0.431 7.73 47.83 11.88
1/9/2023 5:15:00 AM 6.03 42.854 0.428 7.75 33.26 11.88
1/9/2023 5:30:00 AM 6.03 42.854 0.433 7.76 36.35 11.88
1/9/2023 5:45:00 AM 6.02 42.836 0.433 7.76 27.44 11.88
1/9/2023 6:00:00 AM 6.01 42.818 0.434 7.76 22.88 11.88
1/9/2023 6:15:00 AM 5.99 42.782 0.433 7.77 23.25 11.88
1/9/2023 6:30:00 AM 5.97 42.746 0.432 7.77 21.83 11.89
1/9/2023 6:45:00 AM 5.93 42.674 0.433 7.77 21.31 11.9
1/9/2023 7:00:00 AM 5.89 42.602 0.433 7.77 19.52 11.91
1/9/2023 7:15:00 AM 5.87 42.566 0.432 7.77 22.37 11.91
1/9/2023 7:30:00 AM 5.83 42.494 0.432 7.77 20.83 11.92
1/9/2023 7:45:00 AM 5.79 42.422 0.432 7.77 20.85 11.95
1/9/2023 8:00:00 AM 5.77 42.386 0.433 7.78 21.47 11.97
1/9/2023 8:15:00 AM 5.74 42.332 0.432 7.78 21.42 12.02
1/9/2023 8:30:00 AM 5.72 42.296 0.432 7.78 20.9 12.07
1/9/2023 8:45:00 AM 5.73 42.314 0.432 7.79 19.94 12.15
1/9/2023 9:00:00 AM 5.73 42.314 0.432 7.8 21.84 12.22
1/9/2023 9:15:00 AM 5.75 42.35 0.432 7.81 19.83 12.3
1/9/2023 9:30:00 AM 5.77 42.386 0.432 7.82 19.7 12.37
1/9/2023 9:45:00 AM 5.8 42.44 0.432 7.83 19.75 12.44
1/9/2023 10:00:00 AM 5.84 42.512 0.432 7.83 19.32 12.51
1/9/2023 10:15:00 AM 5.88 42.584 0.432 7.84 19.49 12.58
1/9/2023 10:30:00 AM 5.92 42.656 0.432 7.85 19.32 12.63
1/9/2023 10:45:00 AM 5.94 42.692 0.431 7.85 18.78 12.68
1/9/2023 11:00:00 AM 6.02 42.836 0.432 7.86 18.64 12.76
1/9/2023 11:15:00 AM 6.02 42.836 0.432 7.87 18.43 12.77
1/9/2023 11:30:00 AM 6.02 42.836 0.432 7.87 18.72 12.79
1/9/2023 11:45:00 AM 6.02 42.836 0.432 7.88 18.88 12.84
1/9/2023 12:00:00 PM 6.05 42.89 0.432 7.89 18.87 12.88
1/9/2023 12:15:00 PM 6.12 43.016 0.432 7.89 18.27 12.9
1/9/2023 12:30:00 PM 6.2 43.16 0.432 7.9 18.62 12.93
1/9/2023 12:45:00 PM 6.27 43.286 0.432 7.9 18.59 12.95
1/9/2023 1:00:00 PM 6.34 43.412 0.432 7.91 20.7 12.96
1/9/2023 1:15:00 PM 6.39 43.502 0.432 7.92 20.94 12.98
1/9/2023 1:30:00 PM 6.42 43.556 0.432 7.92 20.63 12.98
1/9/2023 1:45:00 PM 6.43 43.574 0.431 7.92 18.66 12.98
1/9/2023 2:00:00 PM 6.42 43.556 0.431 7.92 17.84 12.96
1/9/2023 2:15:00 PM 6.4 43.52 0.431 7.92 19.21 12.96
1/9/2023 2:30:00 PM 6.39 43.502 0.431 7.92 19.9 12.94
1/9/2023 2:45:00 PM 6.39 43.502 0.431 7.93 18.71 12.92
1/9/2023 3:00:00 PM 6.39 43.502 0.431 7.92 22.6 12.89
1/9/2023 3:15:00 PM 6.38 43.484 0.431 7.92 18.4 12.86
1/9/2023 3:30:00 PM 6.38 43.484 0.431 7.92 26.94 12.82
1/9/2023 3:45:00 PM 6.38 43.484 0.431 7.92 22.67 12.78
1/9/2023 4:00:00 PM 6.38 43.484 0.43 7.91 17.48 12.72
1/9/2023 4:15:00 PM 6.37 43.466 0.431 7.91 15.72 12.67
1/9/2023 4:30:00 PM 6.36 43.448 0.431 7.9 15.37 12.61
1/9/2023 4:45:00 PM 6.35 43.43 0.43 7.89 16.47 12.55
1/9/2023 5:00:00 PM 6.33 43.394 0.431 7.89 21.74 12.48
1/9/2023 5:15:00 PM 6.3 43.34 0.431 7.88 23.95 12.42
1/9/2023 5:30:00 PM 6.28 43.304 0.431 7.87 22.64 12.36
1/9/2023 5:45:00 PM 6.25 43.25 0.431 7.87 21.03 12.31
1/9/2023 6:00:00 PM 6.21 43.178 0.431 7.86 22.96 12.28
1/9/2023 6:15:00 PM 6.17 43.106 0.432 7.86 21.32 12.25
1/9/2023 6:30:00 PM 6.12 43.016 0.432 7.85 21.42 12.23
1/9/2023 6:45:00 PM 6.07 42.926 0.432 7.85 21.8 12.22
1/9/2023 7:00:00 PM 6.02 42.836 0.432 7.85 21.57 12.21
1/9/2023 7:15:00 PM 5.98 42.764 0.432 7.84 21.01 12.2
1/9/2023 7:30:00 PM 5.93 42.674 0.432 7.84 20.87 12.19
1/9/2023 7:45:00 PM 5.89 42.602 0.432 7.84 21.01 12.18
1/9/2023 8:00:00 PM 5.86 42.548 0.432 7.84 21.1 12.17
1/9/2023 8:15:00 PM 5.84 42.512 0.432 7.83 21.53 12.16
1/9/2023 8:30:00 PM 5.81 42.458 0.432 7.83 23.52 12.14
1/9/2023 8:45:00 PM 5.78 42.404 0.431 7.83 16.47 12.14
1/9/2023 9:00:00 PM 5.76 42.368 0.431 7.83 16.86 12.13
1/9/2023 9:15:00 PM 5.73 42.314 0.432 7.82 18.07 12.12
1/9/2023 9:30:00 PM 5.7 42.26 0.431 7.82 17.4 12.12
1/9/2023 9:45:00 PM 5.66 42.188 0.432 7.81 15.91 12.11
1/9/2023 10:00:00 PM 5.62 42.116 0.431 7.82 15.18 12.11
1/9/2023 10:15:00 PM 5.58 42.044 0.431 7.82 15.19 12.11
1/9/2023 10:30:00 PM 5.54 41.972 0.431 7.81 16.28 12.12
1/9/2023 10:45:00 PM 5.5 41.9 0.432 7.81 16.47 12.12
1/9/2023 11:00:00 PM 5.46 41.828 0.432 7.82 22.68 12.13
1/9/2023 11:15:00 PM 5.42 41.756 0.432 7.82 22.37 12.13
1/9/2023 11:30:00 PM 5.38 41.684 0.432 7.81 22.6 12.13
1/9/2023 11:45:00 PM 5.35 41.63 0.433 7.81 22.87 12.14
1/10/2023 12:00:00 AM 5.32 41.576 0.433 7.81 22.84 12.14
1/10/2023 12:15:00 AM 5.29 41.522 0.433 7.81 23.52 12.15
1/10/2023 12:30:00 AM 5.26 41.468 0.433 7.81 23.17 12.16
1/10/2023 12:45:00 AM 5.23 41.414 0.433 7.81 22.34 12.16
1/10/2023 1:00:00 AM 5.19 41.342 0.433 7.81 22.49 12.17
1/10/2023 1:15:00 AM 5.17 41.306 0.427 7.72 32.07 12.17
1/10/2023 1:30:00 AM 5.14 41.252 0.274 7.78 24.69 12.18
1/10/2023 1:45:00 AM 5.1 41.18 0.226 7.79 21.02 12.19
1/10/2023 2:00:00 AM 5.06 41.108 0.198 7.8 19.73 12.2
1/10/2023 2:15:00 AM 5.03 41.054 0.158 7.79 18.93 12.21
1/10/2023 2:30:00 AM 5 41 0.159 7.8 19.27 12.22
1/10/2023 2:45:00 AM 4.97 40.946 0.425 7.74 24.79 12.21
1/10/2023 3:00:00 AM 4.94 40.892 0.427 7.79 18.16 12.22
1/10/2023 3:15:00 AM 4.9 40.82 0.429 7.75 25.12 12.23
1/10/2023 3:30:00 AM 4.88 40.784 0.396 7.79 24.04 12.24
1/10/2023 3:45:00 AM 4.86 40.748 0.433 7.76 876.1 12.25
1/10/2023 4:00:00 AM 4.85 40.73 0.29 7.77 25.24 12.26
1/10/2023 4:15:00 AM 4.83 40.694 0.244 7.78 24.15 12.27
1/10/2023 4:30:00 AM 4.81 40.658 0.341 7.72 22.51 12.28
1/10/2023 4:45:00 AM 4.78 40.604 0.389 7.78 21.04 12.28
1/10/2023 5:00:00 AM 4.74 40.532 0.408 7.78 23.38 12.29
1/10/2023 5:15:00 AM 4.7 40.46 0.415 7.78 23.32 12.3
1/10/2023 5:30:00 AM 4.67 40.406 0.421 7.78 22.8 12.31
1/10/2023 5:45:00 AM 4.64 40.352 0.425 7.78 21.8 12.32
1/10/2023 6:00:00 AM 4.61 40.298 0.428 7.78 19.84 12.34
1/10/2023 6:15:00 AM 4.58 40.244 0.429 7.78 20.96 12.35
1/10/2023 6:30:00 AM 4.55 40.19 0.429 7.78 22.01 12.36
1/10/2023 6:45:00 AM 4.52 40.136 0.43 7.78 21.67 12.36
1/10/2023 7:00:00 AM 4.5 40.1 0.431 7.78 20.54 12.37
1/10/2023 7:15:00 AM 4.47 40.046 0.432 7.78 20.52 12.38
1/10/2023 7:30:00 AM 4.44 39.992 0.432 7.78 19.59 12.4
1/10/2023 7:45:00 AM 4.41 39.938 0.433 7.78 18.7 12.42
1/10/2023 8:00:00 AM 4.41 39.938 0.433 7.78 18.35 12.45
1/10/2023 8:15:00 AM 4.42 39.956 0.434 7.79 19.16 12.49
1/10/2023 8:30:00 AM 4.44 39.992 0.434 7.78 18.35 12.54
1/10/2023 8:45:00 AM 4.46 40.028 0.434 7.79 18.47 12.61
1/10/2023 9:00:00 AM 4.49 40.082 0.435 7.8 18.47 12.69
1/10/2023 9:15:00 AM 4.52 40.136 0.435 7.82 17.99 12.78
1/10/2023 9:30:00 AM 4.55 40.19 0.435 7.8 19.71 12.86
1/10/2023 9:45:00 AM 4.59 40.262 0.435 7.84 19.9 12.94
1/10/2023 10:00:00 AM 4.62 40.316 0.435 7.81 19.02 13.03
1/10/2023 10:15:00 AM 4.65 40.37 0.435 7.85 17.71 13.12
1/10/2023 10:30:00 AM 4.68 40.424 0.435 7.86 17.59 13.18
1/10/2023 10:45:00 AM 4.72 40.496 0.435 7.86 17.41 13.23
1/10/2023 11:00:00 AM 4.76 40.568 0.435 7.87 17.29 13.29
1/10/2023 11:15:00 AM 4.8 40.64 0.435 7.88 18.06 13.34
1/10/2023 11:30:00 AM 4.84 40.712 0.435 7.88 17.07 13.37
1/10/2023 11:45:00 AM 4.87 40.766 0.435 7.89 17.2 13.41
1/10/2023 12:00:00 PM 4.94 40.892 0.435 7.9 16.9 13.46
1/10/2023 12:15:00 PM 5.02 41.036 0.434 7.91 17.09 13.51
1/10/2023 12:30:00 PM 5.13 41.234 0.434 7.91 16.49 13.53
1/10/2023 12:45:00 PM 5.22 41.396 0.434 7.92 16.24 13.56
1/10/2023 1:00:00 PM 5.3 41.54 0.434 7.93 17.07 13.58
1/10/2023 1:15:00 PM 5.39 41.702 0.434 7.94 16.73 13.6
1/10/2023 1:30:00 PM 5.45 41.81 0.434 7.95 16.48 13.6
1/10/2023 1:45:00 PM 5.48 41.864 0.434 7.94 16.74 13.58
1/10/2023 2:00:00 PM 5.5 41.9 0.434 7.91 16.01 13.57
1/10/2023 2:15:00 PM 5.5 41.9 0.434 7.95 15.57 13.54
1/10/2023 2:30:00 PM 5.5 41.9 0.435 7.95 15.42 13.52
1/10/2023 2:45:00 PM 5.51 41.918 0.435 7.91 16.26 13.5
1/10/2023 3:00:00 PM 5.53 41.954 0.435 7.95 15.62 13.47
1/10/2023 3:15:00 PM 5.56 42.008 0.435 7.95 14.53 13.44
1/10/2023 3:30:00 PM 5.58 42.044 0.435 7.92 14.29 13.4
1/10/2023 3:45:00 PM 5.61 42.098 0.435 7.95 15.3 13.35
1/10/2023 4:00:00 PM 5.64 42.152 0.435 7.94 15.85 13.28
1/10/2023 4:15:00 PM 5.65 42.17 0.31 7.88 81.9 13.2
1/10/2023 4:30:00 PM 5.67 42.206 0.204 7.9 33.11 13.11
1/10/2023 4:45:00 PM 5.68 42.224 0.435 7.88 116.1 13
1/10/2023 5:00:00 PM 5.68 42.224 0.235 7.91 37.23 12.92
1/10/2023 5:15:00 PM 5.67 42.206 0.226 7.88 30.72 12.83
1/10/2023 5:30:00 PM 5.66 42.188 0.205 7.89 28.08 12.75
1/10/2023 5:45:00 PM 5.65 42.17 0.435 7.83 370.96 12.67
1/10/2023 6:00:00 PM 5.65 42.17 0.433 7.86 28.95 12.62
1/10/2023 6:15:00 PM 5.64 42.152 0.435 7.87 35.21 12.57
1/10/2023 6:30:00 PM 5.64 42.152 0.435 7.87 28.7 12.54
1/10/2023 6:45:00 PM 5.62 42.116 0.435 7.87 30.64 12.51
1/10/2023 7:00:00 PM 5.59 42.062 0.435 7.87 30.26 12.49
1/10/2023 7:15:00 PM 5.57 42.026 0.432 7.87 26.7 12.46
1/10/2023 7:30:00 PM 5.54 41.972 0.422 7.87 27.77 12.44
1/10/2023 7:45:00 PM 5.51 41.918 0.364 7.86 21.58 12.42
1/10/2023 8:00:00 PM 5.48 41.864 0.344 7.86 21.4 12.4
1/10/2023 8:15:00 PM 5.46 41.828 0.332 7.82 25.36 12.38
1/10/2023 8:30:00 PM 5.44 41.792 0.205 7.86 21.16 12.36
1/10/2023 8:45:00 PM 5.41 41.738 0.435 7.81 284.88 12.34
1/10/2023 9:00:00 PM 5.39 41.702 0.431 7.82 31.64 12.31
1/10/2023 9:15:00 PM 5.37 41.666 0.41 7.82 25.95 12.3
1/10/2023 9:30:00 PM 5.34 41.612 0.387 7.82 25.28 12.29
1/10/2023 9:45:00 PM 5.32 41.576 0.369 7.82 23.67 12.29
1/10/2023 10:00:00 PM 5.3 41.54 0.343 7.82 25.78 12.28
1/10/2023 10:15:00 PM 5.29 41.522 0.324 7.82 26.35 12.27
1/10/2023 10:30:00 PM 5.28 41.504 0.3 7.82 25.98 12.27
1/10/2023 10:45:00 PM 5.28 41.504 0.285 7.82 26.6 12.27
1/10/2023 11:00:00 PM 5.27 41.486 0.275 7.82 26.25 12.26
1/10/2023 11:15:00 PM 5.26 41.468 0.259 7.82 26.58 12.26
1/10/2023 11:30:00 PM 5.23 41.414 0.218 7.81 25.8 12.25
1/10/2023 11:45:00 PM 5.2 41.36 0.193 7.81 24.56 12.26
1/11/2023 12:00:00 AM 5.16 41.288 0.182 7.81 24.93 12.26
1/11/2023 12:15:00 AM 5.12 41.216 0.436 7.75 32.7 12.25
1/11/2023 12:30:00 AM 5.08 41.144 0.25 7.78 15.42 12.27
1/11/2023 12:45:00 AM 5.03 41.054 0.221 7.79 34.33 12.28
1/11/2023 1:00:00 AM 5 41 0.198 7.79 42.49 12.28
1/11/2023 1:15:00 AM 4.97 40.946 0.187 7.79 17.48 12.28
1/11/2023 1:30:00 AM 4.95 40.91 0.434 7.78 19.82 12.28
1/11/2023 1:45:00 AM 4.92 40.856 0.438 7.79 19.83 12.28
1/11/2023 2:00:00 AM 4.9 40.82 0.438 7.79 18.06 12.28
1/11/2023 2:15:00 AM 4.88 40.784 0.438 7.79 25.04 12.28
1/11/2023 2:30:00 AM 4.87 40.766 0.438 7.79 24.27 12.29
1/11/2023 2:45:00 AM 4.87 40.766 0.438 7.79 26.19 12.29
1/11/2023 3:00:00 AM 4.88 40.784 0.392 7.74 29.82 12.29
1/11/2023 3:15:00 AM 4.88 40.784 0.156 7.78 40.59 12.3
1/11/2023 3:30:00 AM 4.87 40.766 0.158 7.78 46.81 12.31
1/11/2023 3:45:00 AM 4.86 40.748 0.158 7.78 40.47 12.31
1/11/2023 4:00:00 AM 4.82 40.676 0.157 7.78 39.5 12.31
1/11/2023 4:15:00 AM 4.79 40.622 0.155 7.78 31.45 12.32
1/11/2023 4:30:00 AM 4.74 40.532 0.15 7.78 32.38 12.33
1/11/2023 4:45:00 AM 4.7 40.46 0.152 7.78 28.59 12.33
1/11/2023 5:00:00 AM 4.65 40.37 0.18 7.78 31.04 12.34
1/11/2023 5:15:00 AM 4.62 40.316 0.439 7.75 51.23 12.34
1/11/2023 5:30:00 AM 4.59 40.262 0.439 7.76 25.52 12.35
1/11/2023 5:45:00 AM 4.57 40.226 0.439 7.77 32.28 12.36
1/11/2023 6:00:00 AM 4.54 40.172 0.273 7.74 27.25 12.38
1/11/2023 6:15:00 AM 4.51 40.118 0.201 7.77 28.69 12.39
1/11/2023 6:30:00 AM 4.49 40.082 0.439 7.71 285.33 12.39
1/11/2023 6:45:00 AM 4.47 40.046 0.439 7.73 33.12 12.39
1/11/2023 7:00:00 AM 4.44 39.992 0.352 7.75 24.34 12.41
1/11/2023 7:15:00 AM 4.41 39.938 0.231 7.75 19.95 12.42
1/11/2023 7:30:00 AM 4.38 39.884 0.437 7.73 20.78 12.42
1/11/2023 7:45:00 AM 4.35 39.83 0.44 7.75 21.34 12.45
1/11/2023 8:00:00 AM 4.33 39.794 0.437 7.75 26.69 12.5
1/11/2023 8:15:00 AM 4.32 39.776 0.423 7.77 29.26 12.56
1/11/2023 8:30:00 AM 4.32 39.776 0.4 7.78 26.21 12.65
1/11/2023 8:45:00 AM 4.33 39.794 0.37 7.79 25.75 12.74
1/11/2023 9:00:00 AM 4.36 39.848 0.347 7.8 26.24 12.86
1/11/2023 9:15:00 AM 4.4 39.92 0.186 7.77 28.55 12.96
1/11/2023 9:30:00 AM 4.45 40.01 0.439 7.74 33.76 13.07
1/11/2023 9:45:00 AM 4.5 40.1 0.439 7.8 39.69 13.16
1/11/2023 10:00:00 AM 4.55 40.19 0.333 7.79 40.77 13.24
1/11/2023 10:15:00 AM 4.59 40.262 0.345 7.81 26.01 13.31
1/11/2023 10:30:00 AM 4.63 40.334 0.439 7.77 83.24 13.35
1/11/2023 10:45:00 AM 4.68 40.424 0.433 7.76 34.38 13.42
1/11/2023 11:00:00 AM 4.74 40.532 0.33 7.81 35.25 13.47
1/11/2023 11:15:00 AM 4.83 40.694 0.439 7.83 40.81 13.52
1/11/2023 11:30:00 AM 4.89 40.802 0.395 7.78 27.57 13.56
1/11/2023 11:45:00 AM 4.96 40.928 0.439 7.84 29.05 13.61
1/11/2023 12:00:00 PM 5.02 41.036 0.438 7.86 29.2 13.64
1/11/2023 12:15:00 PM 5.06 41.108 0.439 7.86 33.33 13.67
1/11/2023 12:30:00 PM 5.16 41.288 0.439 7.87 33.48 13.72
1/11/2023 12:45:00 PM 5.22 41.396 0.438 7.88 65.59 13.73
1/11/2023 1:00:00 PM 5.27 41.486 0.438 7.89 30.96 13.73
1/11/2023 1:15:00 PM 5.31 41.558 0.438 7.89 31.17 13.74
1/11/2023 1:30:00 PM 5.33 41.594 0.438 7.9 43.15 13.72
1/11/2023 1:45:00 PM 5.35 41.63 0.439 7.9 32.62 13.72
1/11/2023 2:00:00 PM 5.36 41.648 0.439 7.9 30.89 13.69
1/11/2023 2:15:00 PM 5.37 41.666 0.439 7.91 30.53 13.67
1/11/2023 2:30:00 PM 5.39 41.702 0.438 7.92 30.51 13.66
1/11/2023 2:45:00 PM 5.41 41.738 0.439 7.92 31.92 13.57
1/11/2023 3:00:00 PM 5.45 41.81 0.439 7.91 30 13.61
1/11/2023 3:15:00 PM 5.53 41.954 0.437 7.93 31.96 13.64
1/11/2023 3:30:00 PM 5.58 42.044 0.438 7.93 30.58 13.61
1/11/2023 3:45:00 PM 5.6 42.08 0.438 7.92 31.39 13.54
1/11/2023 4:00:00 PM 5.61 42.098 0.439 7.92 110.55 13.47
1/11/2023 4:15:00 PM 5.6 42.08 0.439 7.91 31.23 13.39
1/11/2023 4:30:00 PM 5.58 42.044 0.439 7.9 26.97 13.28
1/11/2023 4:45:00 PM 5.56 42.008 0.439 7.89 29.57 13.16
1/11/2023 5:00:00 PM 5.54 41.972 0.439 7.88 29.81 13.04
1/11/2023 5:15:00 PM 5.53 41.954 0.214 7.81 40.58 12.94
1/11/2023 5:30:00 PM 5.54 41.972 0.407 7.85 30.45 12.84
1/11/2023 5:45:00 PM 5.55 41.99 0.436 7.85 30.75 12.77
1/11/2023 6:00:00 PM 5.56 42.008 0.437 7.85 33.15 12.72
1/11/2023 6:15:00 PM 5.57 42.026 0.436 7.79 34.75 12.68
1/11/2023 6:30:00 PM 5.57 42.026 0.439 7.71 67.73 12.65
1/11/2023 6:45:00 PM 5.56 42.008 0.297 7.8 36.06 12.62
1/11/2023 7:00:00 PM 5.55 41.99 0.439 7.74 45.43 12.59
1/11/2023 7:15:00 PM 5.55 41.99 0.437 7.8 36.95 12.56
1/11/2023 7:30:00 PM 5.54 41.972 0.436 7.8 34.08 12.53
1/11/2023 7:45:00 PM 5.53 41.954 0.435 7.8 35.48 12.51
1/11/2023 8:00:00 PM 5.52 41.936 0.435 7.8 34.94 12.47
1/11/2023 8:15:00 PM 5.52 41.936 0.428 7.8 30.34 12.37
1/11/2023 8:30:00 PM 5.53 41.954 0.432 7.8 29.78 12.42
1/11/2023 8:45:00 PM 5.53 41.954 0.43 7.8 29.85 12.4
1/11/2023 9:00:00 PM 5.53 41.954 0.43 7.8 32.12 12.37
1/11/2023 9:15:00 PM 5.53 41.954 0.428 7.79 35.96 12.36
1/11/2023 9:30:00 PM 5.52 41.936 0.425 7.79 35.67 12.33
1/11/2023 9:45:00 PM 5.52 41.936 0.42 7.79 34.81 12.32
1/11/2023 10:00:00 PM 5.52 41.936 0.413 7.79 34.13 12.3
1/11/2023 10:15:00 PM 5.52 41.936 0.413 7.79 33.84 12.29
1/11/2023 10:30:00 PM 5.52 41.936 0.406 7.79 36.33 12.27
1/11/2023 10:45:00 PM 5.51 41.918 0.404 7.79 36.5 12.26
1/11/2023 11:00:00 PM 5.51 41.918 0.401 7.78 37.86 12.25
1/11/2023 11:15:00 PM 5.51 41.918 0.397 7.79 32.81 12.24
1/11/2023 11:30:00 PM 5.52 41.936 0.392 7.79 35.91 12.23
1/11/2023 11:45:00 PM 5.52 41.936 0.381 7.78 36.31 12.23
1/12/2023 12:00:00 AM 5.53 41.954 0.381 7.78 36.35 12.21
1/12/2023 12:15:00 AM 5.53 41.954 0.375 7.78 36.89 12.21
1/12/2023 12:30:00 AM 5.54 41.972 0.366 7.78 34.97 12.19
1/12/2023 12:45:00 AM 5.54 41.972 0.367 7.78 35.18 12.19
1/12/2023 1:00:00 AM 5.55 41.99 0.361 7.78 35.12 12.18
1/12/2023 1:15:00 AM 5.55 41.99 0.34 7.78 34.22 12.18
1/12/2023 1:30:00 AM 5.55 41.99 0.322 7.78 31.28 12.17
1/12/2023 1:45:00 AM 5.55 41.99 0.305 7.78 29.75 12.16
1/12/2023 2:00:00 AM 5.55 41.99 0.28 7.78 30.55 12.16
1/12/2023 2:15:00 AM 5.55 41.99 0.259 7.78 29.61 12.15
1/12/2023 2:30:00 AM 5.55 41.99 0.178 7.77 32.98 12.15
1/12/2023 2:45:00 AM 5.55 41.99 0.182 7.78 32.97 12.14
1/12/2023 3:00:00 AM 5.56 42.008 0.184 7.78 32.52 12.14
1/12/2023 3:15:00 AM 5.55 41.99 0.185 7.78 31.35 12.13
1/12/2023 3:30:00 AM 5.56 42.008 0.183 7.77 29.57 12.13
1/12/2023 3:45:00 AM 5.56 42.008 0.181 7.77 29.75 12.12
1/12/2023 4:00:00 AM 5.56 42.008 0.179 7.77 28.23 12.12
1/12/2023 4:15:00 AM 5.56 42.008 0.176 7.77 28.67 12.11
1/12/2023 4:30:00 AM 5.56 42.008 0.174 7.77 28.45 12.1
1/12/2023 4:45:00 AM 5.57 42.026 0.172 7.77 28.55 12.11
1/12/2023 5:00:00 AM 5.57 42.026 0.17 7.77 28.78 12.1
1/12/2023 5:15:00 AM 5.58 42.044 0.167 7.77 29.22 12.09
1/12/2023 5:30:00 AM 5.58 42.044 0.167 7.77 29.52 12.09
1/12/2023 5:45:00 AM 5.59 42.062 0.166 7.77 30.56 12.09
1/12/2023 6:00:00 AM 5.59 42.062 0.165 7.77 31.73 12.09
1/12/2023 6:15:00 AM 5.6 42.08 0.165 7.77 28.45 12.08
1/12/2023 6:30:00 AM 5.6 42.08 0.164 7.77 30.16 12.08
1/12/2023 6:45:00 AM 5.6 42.08 0.163 7.77 30.46 12.08
1/12/2023 7:00:00 AM 5.61 42.098 0.163 7.77 30.2 12.07
1/12/2023 7:15:00 AM 5.62 42.116 0.162 7.77 36.13 12.07
1/12/2023 7:30:00 AM 5.63 42.134 0.161 7.77 31.03 12.06
1/12/2023 7:45:00 AM 5.64 42.152 0.161 7.77 29.86 12.06
1/12/2023 8:00:00 AM 5.65 42.17 0.16 7.77 25.34 12.07
1/12/2023 8:15:00 AM 5.66 42.188 0.16 7.77 25.25 12.08
1/12/2023 8:30:00 AM 5.68 42.224 0.16 7.77 23.07 12.1
1/12/2023 8:45:00 AM 5.69 42.242 0.159 7.78 28.58 12.13
1/12/2023 9:00:00 AM 5.71 42.278 0.158 7.78 21.15 12.16
1/12/2023 9:15:00 AM 5.73 42.314 0.157 7.79 22.5 12.21
1/12/2023 9:30:00 AM 5.75 42.35 0.157 7.8 26.33 12.27
1/12/2023 9:45:00 AM 5.78 42.404 0.158 7.8 26.67 12.34
1/12/2023 10:00:00 AM 5.81 42.458 0.158 7.81 26.12 12.42
1/12/2023 10:15:00 AM 5.85 42.53 0.159 7.82 23.08 12.51
1/12/2023 10:30:00 AM 5.89 42.602 0.162 7.83 22.22 12.59
1/12/2023 10:45:00 AM 5.94 42.692 0.164 7.85 33.17 12.7
1/12/2023 11:00:00 AM 5.99 42.782 0.164 7.86 25.39 12.77
1/12/2023 11:15:00 AM 6.03 42.854 0.165 7.87 24.27 12.85
1/12/2023 11:30:00 AM 6.1 42.98 0.164 7.88 22.37 12.94
1/12/2023 11:45:00 AM 6.16 43.088 0.166 7.89 21.29 12.97
1/12/2023 12:00:00 PM 6.21 43.178 0.168 7.89 20.71 12.99
1/12/2023 12:15:00 PM 6.24 43.232 0.168 7.9 21.09 13
1/12/2023 12:30:00 PM 6.26 43.268 0.169 7.9 20.78 13
1/12/2023 12:45:00 PM 6.29 43.322 0.169 7.91 21.15 13.01
1/12/2023 1:00:00 PM 6.31 43.358 0.169 7.91 21.58 12.99
1/12/2023 1:15:00 PM 6.33 43.394 0.17 7.89 24.86 12.97
1/12/2023 1:30:00 PM 6.37 43.466 0.171 7.91 20.99 13
1/12/2023 1:45:00 PM 6.42 43.556 0.172 7.91 18.59 13.03
1/12/2023 2:00:00 PM 6.47 43.646 0.173 7.92 21.44 12.99
1/12/2023 2:15:00 PM 6.52 43.736 0.173 7.93 18.72 13.04
1/12/2023 2:30:00 PM 6.57 43.826 0.171 7.87 19.21 13.02
1/12/2023 2:45:00 PM 6.61 43.898 0.171 7.93 17.48 13
1/12/2023 3:00:00 PM 6.65 43.97 0.171 7.94 19.11 12.98
1/12/2023 3:15:00 PM 6.68 44.024 0.17 7.94 22.96 12.93
1/12/2023 3:30:00 PM 6.71 44.078 0.17 7.92 22.1 12.85
1/12/2023 3:45:00 PM 6.73 44.114 0.169 7.92 18.63 12.75
1/12/2023 4:00:00 PM 6.75 44.15 0.168 7.9 20.02 12.63
1/12/2023 4:15:00 PM 6.76 44.168 0.167 7.9 20.09 12.52
1/12/2023 4:30:00 PM 6.77 44.186 0.166 7.83 18.77 12.42
1/12/2023 4:45:00 PM 6.78 44.204 0.165 7.88 19.33 12.33
1/12/2023 5:00:00 PM 6.81 44.258 0.164 7.87 18.52 12.25
1/12/2023 5:15:00 PM 6.83 44.294 0.164 7.86 18.77 12.2
1/12/2023 5:30:00 PM 6.85 44.33 0.164 7.85 19.07 12.15
1/12/2023 5:45:00 PM 6.88 44.384 0.164 7.85 19.26 12.11
1/12/2023 6:00:00 PM 6.9 44.42 0.163 7.83 18.39 12.09
1/12/2023 6:15:00 PM 6.93 44.474 0.39 7.85 18.28 12.04
1/12/2023 6:30:00 PM 6.95 44.51 0.39 7.84 17.79 12
1/12/2023 6:45:00 PM 6.97 44.546 0.391 7.84 17.36 11.96
1/12/2023 7:00:00 PM 6.99 44.582 0.392 7.84 19.53 11.92
1/12/2023 7:15:00 PM 7.01 44.618 0.393 7.84 20.56 11.88
1/12/2023 7:30:00 PM 7.03 44.654 0.394 7.83 18.56 11.85
1/12/2023 7:45:00 PM 7.04 44.672 0.393 7.83 18.54 11.82
1/12/2023 8:00:00 PM 7.06 44.708 0.394 7.83 17.77 11.78
1/12/2023 8:15:00 PM 7.08 44.744 0.388 7.82 21.58 11.75
1/12/2023 8:30:00 PM 7.1 44.78 0.391 7.82 17.46 11.73
1/12/2023 8:45:00 PM 7.12 44.816 0.392 7.82 16.76 11.7
1/12/2023 9:00:00 PM 7.14 44.852 0.394 7.81 17.84 11.68
1/12/2023 9:15:00 PM 7.15 44.87 0.393 7.81 20.56 11.66
1/12/2023 9:30:00 PM 7.17 44.906 0.391 7.81 21.94 11.63
1/12/2023 9:45:00 PM 7.19 44.942 0.398 7.81 20.84 11.61
1/12/2023 10:00:00 PM 7.21 44.978 0.399 7.8 21.48 11.59
1/12/2023 10:15:00 PM 7.22 44.996 0.399 7.8 20.25 11.57
1/12/2023 10:30:00 PM 7.24 45.032 0.402 7.8 20.2 11.55
1/12/2023 10:45:00 PM 7.25 45.05 0.401 7.8 19.07 11.54
1/12/2023 11:00:00 PM 7.26 45.068 0.404 7.8 17.48 11.52
1/12/2023 11:15:00 PM 7.28 45.104 0.404 7.8 17.16 11.5
1/12/2023 11:30:00 PM 7.3 45.14 0.404 7.8 22.4 11.49
1/12/2023 11:45:00 PM 7.32 45.176 0.404 7.79 18.31 11.48
1/13/2023 12:00:00 AM 7.33 45.194 0.404 7.79 19.83 11.46
1/13/2023 12:15:00 AM 7.34 45.212 0.403 7.79 18.93 11.44
1/13/2023 12:30:00 AM 7.36 45.248 0.405 7.79 18.52 11.43
1/13/2023 12:45:00 AM 7.37 45.266 0.403 7.79 19.66 11.42
1/13/2023 1:00:00 AM 7.39 45.302 0.405 7.78 19.72 11.4
1/13/2023 1:15:00 AM 7.4 45.32 0.405 7.78 16.99 11.39
1/13/2023 1:30:00 AM 7.42 45.356 0.405 7.78 19.46 11.38
1/13/2023 1:45:00 AM 7.43 45.374 0.405 7.78 17.83 11.37
1/13/2023 2:00:00 AM 7.45 45.41 0.404 7.78 17.25 11.36
1/13/2023 2:15:00 AM 7.47 45.446 0.405 7.78 17.5 11.35
1/13/2023 2:30:00 AM 7.49 45.482 0.405 7.78 18.19 11.34
1/13/2023 2:45:00 AM 7.51 45.518 0.405 7.78 17.48 11.33
1/13/2023 3:00:00 AM 7.54 45.572 0.406 7.78 16.39 11.31
1/13/2023 3:15:00 AM 7.56 45.608 0.405 7.78 16.4 11.31
1/13/2023 3:30:00 AM 7.58 45.644 0.406 7.78 16.04 11.3
1/13/2023 3:45:00 AM 7.6 45.68 0.405 7.78 15.34 11.3
1/13/2023 4:00:00 AM 7.61 45.698 0.405 7.78 15.73 11.28
1/13/2023 4:15:00 AM 7.63 45.734 0.405 7.78 16.19 11.28
1/13/2023 4:30:00 AM 7.64 45.752 0.404 7.78 16.06 11.27
1/13/2023 4:45:00 AM 7.65 45.77 0.403 7.78 16.65 11.27
1/13/2023 5:00:00 AM 7.66 45.788 0.403 7.78 16.94 11.27
1/13/2023 5:15:00 AM 7.68 45.824 0.402 7.78 16.38 11.26
1/13/2023 5:30:00 AM 7.69 45.842 0.403 7.78 16.52 11.25
1/13/2023 5:45:00 AM 7.7 45.86 0.402 7.78 15.8 11.24
1/13/2023 6:00:00 AM 7.72 45.896 0.402 7.78 15.9 11.23
1/13/2023 6:15:00 AM 7.74 45.932 0.402 7.78 16.43 11.22
1/13/2023 6:30:00 AM 7.76 45.968 0.402 7.78 19.82 11.22
1/13/2023 6:45:00 AM 7.78 46.004 0.402 7.78 19.98 11.22
1/13/2023 7:00:00 AM 7.78 46.004 0.402 7.78 20.64 11.21
1/13/2023 7:15:00 AM 7.78 46.004 0.418 7.78 24.09 11.21
1/13/2023 7:30:00 AM 7.78 46.004 0.268 7.73 63.06 11.22
1/13/2023 7:45:00 AM 7.77 45.986 0.416 7.76 41.73 11.22
1/13/2023 8:00:00 AM 7.76 45.968 0.415 7.77 47.11 11.22
1/13/2023 8:15:00 AM 7.75 45.95 0.412 7.78 33.18 11.25
1/13/2023 8:30:00 AM 7.73 45.914 0.401 7.79 25.31 11.29
1/13/2023 8:45:00 AM 7.73 45.914 0.415 7.74 501.66 11.37
1/13/2023 9:00:00 AM 7.72 45.896 0.382 7.77 23.7 11.45
1/13/2023 9:15:00 AM 7.72 45.896 0.309 7.79 19.73 11.55
1/13/2023 9:30:00 AM 7.73 45.914 0.239 7.81 18.5 11.67
1/13/2023 9:45:00 AM 7.78 46.004 0.412 7.77 145.29 11.83
1/13/2023 10:00:00 AM 7.84 46.112 0.411 7.8 35.53 11.95
1/13/2023 10:15:00 AM 7.92 46.256 0.255 7.82 44.28 12.07
1/13/2023 10:30:00 AM 7.94 46.292 0.239 7.85 29.56 12.16
1/13/2023 10:45:00 AM 7.98 46.364 0.183 7.88 17.29 12.25
1/13/2023 11:00:00 AM 7.98 46.364 0.409 7.84 465.55 12.25
1/13/2023 11:15:00 AM 7.96 46.328 0.409 7.87 44.48 12.16
1/13/2023 11:30:00 AM 7.94 46.292 0.409 7.78 178.65 12.25
1/13/2023 11:45:00 AM 7.94 46.292 0.408 7.89 37.24 12.27
1/13/2023 12:00:00 PM 7.95 46.31 0.407 7.89 13.65 12.29
1/13/2023 12:15:00 PM 7.97 46.346 0.407 7.9 12.96 12.3
1/13/2023 12:30:00 PM 7.99 46.382 0.406 7.91 13.26 12.33
1/13/2023 12:45:00 PM 8 46.4 0.405 7.92 11.88 12.36
1/13/2023 1:00:00 PM 8.01 46.418 0.404 7.92 12.55 12.37
1/13/2023 1:15:00 PM 8.02 46.436 0.403 7.94 13.38 12.39
1/13/2023 1:30:00 PM 8.03 46.454 0.402 7.95 12.11 12.41
1/13/2023 1:45:00 PM 8.03 46.454 0.401 7.95 11.94 12.41
1/13/2023 2:00:00 PM 8.01 46.418 0.401 7.95 15.92 12.4
1/13/2023 2:15:00 PM 8 46.4 0.4 7.96 11.71 12.39
1/13/2023 2:30:00 PM 8 46.4 0.4 7.96 12.44 12.38
1/13/2023 2:45:00 PM 7.99 46.382 0.399 7.96 11.92 12.37
1/13/2023 3:00:00 PM 7.97 46.346 0.398 7.95 11.96 12.34
1/13/2023 3:15:00 PM 7.95 46.31 0.398 7.95 11.9 12.3
1/13/2023 3:30:00 PM 7.93 46.274 0.396 7.91 26.93 12.25
1/13/2023 3:45:00 PM 7.91 46.238 0.383 7.86 17.4 12.19
1/13/2023 4:00:00 PM 7.89 46.202 0.377 7.91 14.13 12.14
1/13/2023 4:15:00 PM 7.87 46.166 0.377 7.91 13.38 12.08
1/13/2023 4:30:00 PM 7.85 46.13 0.377 7.91 14.23 12.03
1/13/2023 4:45:00 PM 7.83 46.094 0.336 7.84 13.4 11.97
1/13/2023 5:00:00 PM 7.79 46.022 0.335 7.88 12.69 11.9
1/13/2023 5:15:00 PM 7.76 45.968 0.324 7.87 11.82 11.85
1/13/2023 5:30:00 PM 7.74 45.932 0.192 7.86 14.25 11.81
1/13/2023 5:45:00 PM 7.71 45.878 0.177 7.85 12.41 11.77
1/13/2023 6:00:00 PM 7.69 45.842 0.398 7.85 532.58 11.74
1/13/2023 6:15:00 PM 7.67 45.806 0.398 7.82 44.72 11.7
1/13/2023 6:30:00 PM 7.66 45.788 0.392 7.83 16.97 11.69
1/13/2023 6:45:00 PM 7.64 45.752 0.387 7.83 14.7 11.66
1/13/2023 7:00:00 PM 7.61 45.698 0.39 7.83 13.25 11.64
1/13/2023 7:15:00 PM 7.59 45.662 0.384 7.83 12.32 11.62
1/13/2023 7:30:00 PM 7.55 45.59 0.4 7.81 345.2 11.6
1/13/2023 7:45:00 PM 7.5 45.5 0.4 7.79 69.96 11.59
1/13/2023 8:00:00 PM 7.46 45.428 0.4 7.8 77.65 11.53
1/13/2023 8:15:00 PM 7.42 45.356 0.4 7.78 21.79 11.57
1/13/2023 8:30:00 PM 7.39 45.302 0.4 7.8 16.97 11.55
1/13/2023 8:45:00 PM 7.34 45.212 0.289 7.78 23.89 11.54
1/13/2023 9:00:00 PM 7.31 45.158 0.283 7.73 17.02 11.53
1/13/2023 9:15:00 PM 7.27 45.086 0.402 7.79 16.46 11.53
1/13/2023 9:30:00 PM 7.24 45.032 0.284 7.77 18.4 11.53
1/13/2023 9:45:00 PM 7.21 44.978 0.403 7.76 14.86 11.52
1/13/2023 10:00:00 PM 7.17 44.906 0.392 7.77 22.47 11.53
1/13/2023 10:15:00 PM 7.14 44.852 0.373 7.76 14.85 11.53
1/13/2023 10:30:00 PM 7.1 44.78 0.405 7.76 14.81 11.52
1/13/2023 10:45:00 PM 7.05 44.69 0.405 7.76 14.17 11.52
1/13/2023 11:00:00 PM 7.01 44.618 0.406 7.76 13.48 11.52
1/13/2023 11:15:00 PM 6.97 44.546 0.406 7.76 13.4 11.52
1/13/2023 11:30:00 PM 6.91 44.438 0.407 7.76 12.93 11.52
1/13/2023 11:45:00 PM 6.86 44.348 0.407 7.76 12.76 11.53
1/14/2023 12:00:00 AM 6.81 44.258 0.408 7.76 12.61 11.52
1/14/2023 12:15:00 AM 6.75 44.15 0.408 7.76 13.07 11.53
1/14/2023 12:30:00 AM 6.7 44.06 0.409 7.76 13.28 11.54
1/14/2023 12:45:00 AM 6.65 43.97 0.409 7.76 13.18 11.54
1/14/2023 1:00:00 AM 6.61 43.898 0.409 7.76 12.69 11.55
1/14/2023 1:15:00 AM 6.58 43.844 0.409 7.76 12.54 11.56
1/14/2023 1:30:00 AM 6.53 43.754 0.41 7.76 12.22 11.57
1/14/2023 1:45:00 AM 6.49 43.682 0.41 7.76 12.2 11.57
1/14/2023 2:00:00 AM 6.45 43.61 0.41 7.76 11.95 11.59
1/14/2023 2:15:00 AM 6.4 43.52 0.411 7.76 12.44 11.59
1/14/2023 2:30:00 AM 6.36 43.448 0.411 7.76 12.18 11.6
1/14/2023 2:45:00 AM 6.31 43.358 0.411 7.76 11.75 11.61
1/14/2023 3:00:00 AM 6.28 43.304 0.412 7.76 11.97 11.62
1/14/2023 3:15:00 AM 6.24 43.232 0.413 7.76 11.23 11.63
1/14/2023 3:30:00 AM 6.19 43.142 0.413 7.76 10.63 11.65
1/14/2023 3:45:00 AM 6.16 43.088 0.414 7.76 11.03 11.65
1/14/2023 4:00:00 AM 6.11 42.998 0.415 7.76 11.87 11.66
1/14/2023 4:15:00 AM 6.06 42.908 0.401 7.76 12.16 11.68
1/14/2023 4:30:00 AM 6.02 42.836 0.406 7.76 12 11.69
1/14/2023 4:45:00 AM 5.96 42.728 0.406 7.76 12.57 11.7
1/14/2023 5:00:00 AM 5.91 42.638 0.401 7.76 12.12 11.72
1/14/2023 5:15:00 AM 5.88 42.584 0.401 7.76 11.66 11.73
1/14/2023 5:30:00 AM 5.83 42.494 0.401 7.76 12.9 11.74
1/14/2023 5:45:00 AM 5.79 42.422 0.401 7.76 12.34 11.76
1/14/2023 6:00:00 AM 5.75 42.35 0.417 7.76 12.83 11.77
1/14/2023 6:15:00 AM 5.71 42.278 0.417 7.76 12.06 11.77
1/14/2023 6:30:00 AM 5.66 42.188 0.417 7.76 12.19 11.8
1/14/2023 6:45:00 AM 5.62 42.116 0.417 7.76 12.15 11.82
1/14/2023 7:00:00 AM 5.56 42.008 0.417 7.76 12.23 11.83
1/14/2023 7:15:00 AM 5.52 41.936 0.418 7.76 11.73 11.85
1/14/2023 7:30:00 AM 5.48 41.864 0.418 7.76 11.73 11.86
1/14/2023 7:45:00 AM 5.44 41.792 0.418 7.76 11.6 11.89
1/14/2023 8:00:00 AM 5.4 41.72 0.418 7.76 11.25 11.92
1/14/2023 8:15:00 AM 5.38 41.684 0.419 7.76 10.67 11.96
1/14/2023 8:30:00 AM 5.35 41.63 0.419 7.77 10.75 12.01
1/14/2023 8:45:00 AM 5.32 41.576 0.419 7.78 10.8 12.07
1/14/2023 9:00:00 AM 5.28 41.504 0.419 7.78 11.06 12.14
1/14/2023 9:15:00 AM 5.24 41.432 0.419 7.79 10.25 12.22
1/14/2023 9:30:00 AM 5.21 41.378 0.42 7.79 10.44 12.3
1/14/2023 9:45:00 AM 5.19 41.342 0.42 7.8 10.5 12.4
1/14/2023 10:00:00 AM 5.17 41.306 0.42 7.81 11.45 12.51
1/14/2023 10:15:00 AM 5.16 41.288 0.421 7.82 9.93 12.59
1/14/2023 10:30:00 AM 5.15 41.27 0.421 7.83 9.88 12.66
1/14/2023 10:45:00 AM 5.14 41.252 0.421 7.84 9.12 12.73
1/14/2023 11:00:00 AM 5.12 41.216 0.422 7.85 9.39 12.8
1/14/2023 11:15:00 AM 5.1 41.18 0.422 7.85 9.53 12.87
1/14/2023 11:30:00 AM 5.07 41.126 0.422 7.86 9.44 12.94
1/14/2023 11:45:00 AM 5.06 41.108 0.422 7.87 9.35 13.01
1/14/2023 12:00:00 PM 5.04 41.072 0.423 7.88 9.04 13.08
1/14/2023 12:15:00 PM 5.03 41.054 0.423 7.89 9.61 13.12
1/14/2023 12:30:00 PM 5.01 41.018 0.423 7.9 9.51 13.19
1/14/2023 12:45:00 PM 5 41 0.424 7.9 9.07 13.25
1/14/2023 1:00:00 PM 4.99 40.982 0.424 7.91 9.01 13.31
1/14/2023 1:15:00 PM 4.98 40.964 0.424 7.92 9.41 13.37
1/14/2023 1:30:00 PM 4.98 40.964 0.424 7.93 8.83 13.42
1/14/2023 1:45:00 PM 4.99 40.982 0.425 7.94 8.97 13.46
1/14/2023 2:00:00 PM 4.99 40.982 0.425 7.95 9.04 13.52
1/14/2023 2:15:00 PM 4.99 40.982 0.425 7.96 9.13 13.57
1/14/2023 2:30:00 PM 4.99 40.982 0.425 7.96 8.82 13.59
1/14/2023 2:45:00 PM 4.97 40.946 0.425 7.97 8.85 13.63
1/14/2023 3:00:00 PM 4.95 40.91 0.425 7.97 8.03 13.63
1/14/2023 3:15:00 PM 4.94 40.892 0.426 7.96 8.04 13.62
1/14/2023 3:30:00 PM 4.92 40.856 0.426 7.89 7.93 13.61
1/14/2023 3:45:00 PM 4.9 40.82 0.426 7.96 7.99 13.57
1/14/2023 4:00:00 PM 4.86 40.748 0.426 7.95 8.01 13.51
1/14/2023 4:15:00 PM 4.83 40.694 0.426 7.94 7.86 13.42
1/14/2023 4:30:00 PM 4.79 40.622 0.426 7.93 8.03 13.32
1/14/2023 4:45:00 PM 4.75 40.55 0.427 7.91 8.15 13.22
1/14/2023 5:00:00 PM 4.72 40.496 0.427 7.9 7.98 13.12
1/14/2023 5:15:00 PM 4.69 40.442 0.428 7.89 8.51 13.04
1/14/2023 5:30:00 PM 4.66 40.388 0.428 7.88 8.62 12.98
1/14/2023 5:45:00 PM 4.63 40.334 0.428 7.87 8.45 12.93
1/14/2023 6:00:00 PM 4.6 40.28 0.428 7.87 8.27 12.89
1/14/2023 6:15:00 PM 4.57 40.226 0.428 7.87 8.72 12.87
1/14/2023 6:30:00 PM 4.53 40.154 0.428 7.86 8.51 12.85
1/14/2023 6:45:00 PM 4.49 40.082 0.429 7.86 8.6 12.83
1/14/2023 7:00:00 PM 4.44 39.992 0.429 7.86 8.79 12.82
1/14/2023 7:15:00 PM 4.4 39.92 0.429 7.85 8.69 12.8
1/14/2023 7:30:00 PM 4.36 39.848 0.429 7.85 8.78 12.79
1/14/2023 7:45:00 PM 4.33 39.794 0.429 7.85 8.52 12.78
1/14/2023 8:00:00 PM 4.32 39.776 0.429 7.84 8.59 12.76
1/14/2023 8:15:00 PM 4.29 39.722 0.43 7.84 8.47 12.74
1/14/2023 8:30:00 PM 4.26 39.668 0.43 7.84 8.84 12.73
1/14/2023 8:45:00 PM 4.22 39.596 0.43 7.83 8.54 12.72
1/14/2023 9:00:00 PM 4.17 39.506 0.43 7.83 8.58 12.71
1/14/2023 9:15:00 PM 4.11 39.398 0.43 7.82 8.47 12.71
1/14/2023 9:30:00 PM 4.05 39.29 0.43 7.82 8.61 12.7
1/14/2023 9:45:00 PM 4 39.2 0.431 7.82 8.51 12.71
1/14/2023 10:00:00 PM 3.97 39.146 0.431 7.82 8.35 12.71
1/14/2023 10:15:00 PM 3.94 39.092 0.431 7.82 8.19 12.71
1/14/2023 10:30:00 PM 3.91 39.038 0.431 7.82 8.46 12.71
1/14/2023 10:45:00 PM 3.87 38.966 0.431 7.81 8.45 12.72
1/14/2023 11:00:00 PM 3.83 38.894 0.431 7.81 8.49 12.72
1/14/2023 11:15:00 PM 3.82 38.876 0.431 7.81 8.58 12.72
1/14/2023 11:30:00 PM 3.81 38.858 0.431 7.81 8.66 12.72
1/14/2023 11:45:00 PM 3.8 38.84 0.432 7.81 8.79 12.73
1/15/2023 12:00:00 AM 3.75 38.75 0.432 7.81 8.91 12.73
1/15/2023 12:15:00 AM 3.7 38.66 0.432 7.81 8.86 12.74
1/15/2023 12:30:00 AM 3.65 38.57 0.432 7.81 8.5 12.74
1/15/2023 12:45:00 AM 3.59 38.462 0.432 7.81 8.49 12.75
1/15/2023 1:00:00 AM 3.54 38.372 0.432 7.8 8.59 12.76
1/15/2023 1:15:00 AM 3.49 38.282 0.433 7.8 8.51 12.77
1/15/2023 1:30:00 AM 3.45 38.21 0.433 7.8 8.47 12.78
1/15/2023 1:45:00 AM 3.43 38.174 0.433 7.8 8.41 12.78
1/15/2023 2:00:00 AM 3.4 38.12 0.433 7.8 8.33 12.79
1/15/2023 2:15:00 AM 3.37 38.066 0.433 7.8 8.42 12.8
1/15/2023 2:30:00 AM 3.34 38.012 0.434 7.8 8.19 12.81
1/15/2023 2:45:00 AM 3.31 37.958 0.433 7.8 8.25 12.81
1/15/2023 3:00:00 AM 3.28 37.904 0.434 7.8 8.13 12.83
1/15/2023 3:15:00 AM 3.26 37.868 0.434 7.8 8.15 12.84
1/15/2023 3:30:00 AM 3.22 37.796 0.434 7.8 8.41 12.85
1/15/2023 3:45:00 AM 3.19 37.742 0.434 7.8 8.28 12.86
1/15/2023 4:00:00 AM 3.16 37.688 0.434 7.8 8.25 12.87
1/15/2023 4:15:00 AM 3.12 37.616 0.434 7.8 8.39 12.88
1/15/2023 4:30:00 AM 3.08 37.544 0.434 7.79 8.31 12.9
1/15/2023 4:45:00 AM 3.04 37.472 0.434 7.79 8.2 12.9
1/15/2023 5:00:00 AM 3 37.4 0.434 7.79 8.39 12.92
1/15/2023 5:15:00 AM 2.97 37.346 0.434 7.79 8.38 12.93
1/15/2023 5:30:00 AM 2.95 37.31 0.434 7.79 8.37 12.94
1/15/2023 5:45:00 AM 2.92 37.256 0.434 7.79 8.28 12.95
1/15/2023 6:00:00 AM 2.9 37.22 0.434 7.79 8.47 12.96
1/15/2023 6:15:00 AM 2.88 37.184 0.435 7.79 8.47 12.97
1/15/2023 6:30:00 AM 2.85 37.13 0.435 7.79 8.37 12.98
1/15/2023 6:45:00 AM 2.83 37.094 0.435 7.79 8.36 12.99
1/15/2023 7:00:00 AM 2.8 37.04 0.435 7.79 8.23 13
1/15/2023 7:15:00 AM 2.77 36.986 0.435 7.79 8.37 13.02
1/15/2023 7:30:00 AM 2.74 36.932 0.435 7.79 8.39 13.04
1/15/2023 7:45:00 AM 2.71 36.878 0.435 7.79 8.38 13.08
1/15/2023 8:00:00 AM 2.69 36.842 0.436 7.79 8.43 13.13
1/15/2023 8:15:00 AM 2.67 36.806 0.436 7.8 8.37 13.2
1/15/2023 8:30:00 AM 2.67 36.806 0.436 7.81 8.49 13.29
1/15/2023 8:45:00 AM 2.68 36.824 0.436 7.81 16.35 13.4
1/15/2023 9:00:00 AM 2.69 36.842 0.436 7.83 22.2 13.5
1/15/2023 9:15:00 AM 2.71 36.878 0.436 7.84 21.78 13.61
1/15/2023 9:30:00 AM 2.73 36.914 0.326 7.85 23.23 13.72
1/15/2023 9:45:00 AM 2.76 36.968 0.436 7.86 27.67 13.81
1/15/2023 10:00:00 AM 2.81 37.058 0.436 7.87 18.04 13.9
1/15/2023 10:15:00 AM 2.87 37.166 0.436 7.88 16.93 13.98
1/15/2023 10:30:00 AM 2.94 37.292 0.436 7.89 35.15 14.06
1/15/2023 10:45:00 AM 3.01 37.418 0.435 7.9 16.21 14.12
1/15/2023 11:00:00 AM 3.09 37.562 0.436 7.91 7.97 14.18
1/15/2023 11:15:00 AM 3.18 37.724 0.436 7.92 7.44 14.23
1/15/2023 11:30:00 AM 3.27 37.886 0.436 7.93 7.43 14.26
1/15/2023 11:45:00 AM 3.36 38.048 0.436 7.93 7.54 14.29
1/15/2023 12:00:00 PM 3.44 38.192 0.436 7.94 7.49 14.32
1/15/2023 12:15:00 PM 3.52 38.336 0.436 7.94 7.37 14.34
1/15/2023 12:30:00 PM 3.59 38.462 0.436 7.94 7.85 14.35
1/15/2023 12:45:00 PM 3.66 38.588 0.436 7.95 7.37 14.36
1/15/2023 1:00:00 PM 3.72 38.696 0.436 7.96 7.39 14.37
1/15/2023 1:15:00 PM 3.77 38.786 0.436 7.96 7.45 14.38
1/15/2023 1:30:00 PM 3.82 38.876 0.436 7.97 7.43 14.38
1/15/2023 1:45:00 PM 3.85 38.93 0.436 7.97 7.51 14.37
1/15/2023 2:00:00 PM 3.86 38.948 0.436 7.97 7.28 14.35
1/15/2023 2:15:00 PM 3.87 38.966 0.436 7.97 7.45 14.34
1/15/2023 2:30:00 PM 3.87 38.966 0.436 7.97 7.52 14.32
1/15/2023 2:45:00 PM 3.86 38.948 0.436 7.97 7.38 14.29
1/15/2023 3:00:00 PM 3.85 38.93 0.436 7.97 7.8 14.27
1/15/2023 3:15:00 PM 3.84 38.912 0.436 7.97 7.7 14.23
1/15/2023 3:30:00 PM 3.84 38.912 0.436 7.96 7.89 14.18
1/15/2023 3:45:00 PM 3.84 38.912 0.436 7.96 8 14.13
1/15/2023 4:00:00 PM 3.84 38.912 0.436 7.96 7.9 14.07
1/15/2023 4:15:00 PM 3.85 38.93 0.437 7.95 7.78 13.99
1/15/2023 4:30:00 PM 3.85 38.93 0.437 7.94 8.08 13.91
1/15/2023 4:45:00 PM 3.85 38.93 0.437 7.93 7.85 13.83
1/15/2023 5:00:00 PM 3.84 38.912 0.437 7.92 7.81 13.72
1/15/2023 5:15:00 PM 3.83 38.894 0.437 7.91 8.17 13.62
1/15/2023 5:30:00 PM 3.81 38.858 0.437 7.9 5.34 13.53
1/15/2023 5:45:00 PM 3.8 38.84 0.437 7.89 6.03 13.44
1/15/2023 6:00:00 PM 3.78 38.804 0.438 7.88 4.81 13.36
1/15/2023 6:15:00 PM 3.77 38.786 0.438 7.87 4.91 13.3
1/15/2023 6:30:00 PM 3.75 38.75 0.437 7.87 4.69 13.26
1/15/2023 6:45:00 PM 3.73 38.714 0.437 7.87 4.41 13.24
1/15/2023 7:00:00 PM 3.7 38.66 0.438 7.86 4.65 13.21
1/15/2023 7:15:00 PM 3.67 38.606 0.438 7.86 4.69 13.18
1/15/2023 7:30:00 PM 3.64 38.552 0.437 7.86 4.8 13.17
1/15/2023 7:45:00 PM 3.6 38.48 0.438 7.85 4.84 13.14
1/15/2023 8:00:00 PM 3.58 38.444 0.438 7.85 5.07 13.12
1/15/2023 8:15:00 PM 3.55 38.39 0.438 7.84 5.1 13.1
1/15/2023 8:30:00 PM 3.52 38.336 0.438 7.84 4.94 13.08
1/15/2023 8:45:00 PM 3.5 38.3 0.438 7.84 4.95 13.06
1/15/2023 9:00:00 PM 3.47 38.246 0.438 7.84 6.08 13.04
1/15/2023 9:15:00 PM 3.45 38.21 0.438 7.83 6.21 13.03
1/15/2023 9:30:00 PM 3.42 38.156 0.438 7.83 6.42 13.01
1/15/2023 9:45:00 PM 3.4 38.12 0.438 7.83 6.24 13.01
1/15/2023 10:00:00 PM 3.38 38.084 0.438 7.83 6.14 13
1/15/2023 10:15:00 PM 3.36 38.048 0.438 7.82 5.99 12.99
1/15/2023 10:30:00 PM 3.33 37.994 0.438 7.82 6.1 12.99
1/15/2023 10:45:00 PM 3.31 37.958 0.438 7.82 6.07 12.98
1/15/2023 11:00:00 PM 3.29 37.922 0.438 7.82 6.11 12.98
1/15/2023 11:15:00 PM 3.27 37.886 0.438 7.82 6.01 12.98
1/15/2023 11:30:00 PM 3.24 37.832 0.438 7.81 5.98 12.91
1/15/2023 11:45:00 PM 3.22 37.796 0.438 7.81 5.17 12.97
1/16/2023 12:00:00 AM 3.2 37.76 0.438 7.81 5.09 12.98
1/16/2023 12:15:00 AM 3.17 37.706 0.438 7.81 4.97 12.98
1/16/2023 12:30:00 AM 3.15 37.67 0.438 7.81 5.1 12.98
1/16/2023 12:45:00 AM 3.12 37.616 0.438 7.81 5.49 12.98
1/16/2023 1:00:00 AM 3.1 37.58 0.438 7.81 5.19 12.98
1/16/2023 1:15:00 AM 3.07 37.526 0.438 7.81 6.89 12.98
1/16/2023 1:30:00 AM 3.05 37.49 0.438 7.81 6.98 12.98
1/16/2023 1:45:00 AM 3.02 37.436 0.438 7.81 6.93 12.99
1/16/2023 2:00:00 AM 3 37.4 0.438 7.8 7.16 12.99
1/16/2023 2:15:00 AM 2.98 37.364 0.438 7.8 7.14 12.99
1/16/2023 2:30:00 AM 2.97 37.346 0.438 7.8 7.19 13
1/16/2023 2:45:00 AM 2.94 37.292 0.439 7.8 7.44 13
1/16/2023 3:00:00 AM 2.91 37.238 0.439 7.8 8.03 13
1/16/2023 3:15:00 AM 2.87 37.166 0.439 7.8 7.61 13.01
1/16/2023 3:30:00 AM 2.84 37.112 0.439 7.8 7.48 13.02
1/16/2023 3:45:00 AM 2.8 37.04 0.439 7.8 7.3 13.03
1/16/2023 4:00:00 AM 2.76 36.968 0.439 7.8 6.84 13.04
1/16/2023 4:15:00 AM 2.73 36.914 0.439 7.8 6.84 13.05
1/16/2023 4:30:00 AM 2.7 36.86 0.439 7.8 6.78 13.05
1/16/2023 4:45:00 AM 2.66 36.788 0.439 7.8 6.8 13.06
1/16/2023 5:00:00 AM 2.64 36.752 0.439 7.8 6.81 13.07
1/16/2023 5:15:00 AM 2.62 36.716 0.44 7.8 7.27 13.08
1/16/2023 5:30:00 AM 2.6 36.68 0.44 7.8 6.8 13.09
1/16/2023 5:45:00 AM 2.58 36.644 0.44 7.79 7.33 13.04
1/16/2023 6:00:00 AM 2.56 36.608 0.44 7.8 7.1 13.1
1/16/2023 6:15:00 AM 2.53 36.554 0.44 7.8 7.56 13.11
1/16/2023 6:30:00 AM 2.51 36.518 0.44 7.79 7.95 13.12
1/16/2023 6:45:00 AM 2.48 36.464 0.44 7.79 7.83 13.12
1/16/2023 7:00:00 AM 2.45 36.41 0.44 7.79 6.33 13.13
1/16/2023 7:15:00 AM 2.43 36.374 0.44 7.79 5.79 13.13
1/16/2023 7:30:00 AM 2.4 36.32 0.44 7.79 6.35 13.15
1/16/2023 7:45:00 AM 2.38 36.284 0.439 7.8 7.11 13.18
1/16/2023 8:00:00 AM 2.37 36.266 0.439 7.8 10.69 13.24
1/16/2023 8:15:00 AM 2.37 36.266 0.439 7.8 18.85 13.3
1/16/2023 8:30:00 AM